<?xml version="1.0" encoding="UTF-8" standalone="no" ?>
<gpx xmlns="http://www.topografix.com/GPX/1/1" xmlns:xsi="http://www.w3.org/2001/XMLSchema-instance" xsi:schemaLocation="http://www.topografix.com/GPX/1/1 http://www.topografix.com/GPX/1/1/gpx.xsd" version="1.1" creator="VisuGPX - https://www.visugpx.com">
  <metadata>
    <name>Autour d'Auzole</name>
    <desc><![CDATA[Circuit empruntant une très grande majorité de sentiers ombragés. Il est parfois un peu difficile en raison des pierres qui encombrent le chemin.
]]></desc>
  </metadata>
  <trk>
    <name><![CDATA[Auzole]]></name>
    <trkseg>
      <trkpt lat="44.50891" lon="1.43792">
        <ele>290.6</ele>
        <time>2018-12-30T12:55:49Z</time>
      </trkpt>
      <trkpt lat="44.50883" lon="1.43774">
        <ele>289.3</ele>
        <time>2018-12-30T12:56:17Z</time>
      </trkpt>
      <trkpt lat="44.5088" lon="1.43765">
        <ele>289.9</ele>
        <time>2018-12-30T12:56:21Z</time>
      </trkpt>
      <trkpt lat="44.50881" lon="1.43749">
        <ele>290.3</ele>
        <time>2018-12-30T12:56:25Z</time>
      </trkpt>
      <trkpt lat="44.50878" lon="1.43735">
        <ele>290.8</ele>
        <time>2018-12-30T12:56:31Z</time>
      </trkpt>
      <trkpt lat="44.50874" lon="1.43733">
        <ele>291.1</ele>
        <time>2018-12-30T12:56:37Z</time>
      </trkpt>
      <trkpt lat="44.50879" lon="1.43728">
        <ele>291.1</ele>
        <time>2018-12-30T12:56:43Z</time>
      </trkpt>
      <trkpt lat="44.50882" lon="1.43717">
        <ele>291.3</ele>
        <time>2018-12-30T12:56:49Z</time>
      </trkpt>
      <trkpt lat="44.50884" lon="1.4371">
        <ele>291.4</ele>
        <time>2018-12-30T12:56:52Z</time>
      </trkpt>
      <trkpt lat="44.5089" lon="1.43704">
        <ele>290.1</ele>
        <time>2018-12-30T12:56:58Z</time>
      </trkpt>
      <trkpt lat="44.50895" lon="1.43699">
        <ele>288.9</ele>
        <time>2018-12-30T12:57:04Z</time>
      </trkpt>
      <trkpt lat="44.50896" lon="1.43689">
        <ele>288</ele>
        <time>2018-12-30T12:57:10Z</time>
      </trkpt>
      <trkpt lat="44.50894" lon="1.43683">
        <ele>287.3</ele>
        <time>2018-12-30T12:57:13Z</time>
      </trkpt>
      <trkpt lat="44.50896" lon="1.43676">
        <ele>287.2</ele>
        <time>2018-12-30T12:57:25Z</time>
      </trkpt>
      <trkpt lat="44.509" lon="1.4367">
        <ele>288.3</ele>
        <time>2018-12-30T12:57:28Z</time>
      </trkpt>
      <trkpt lat="44.50904" lon="1.43666">
        <ele>289.3</ele>
        <time>2018-12-30T12:57:34Z</time>
      </trkpt>
      <trkpt lat="44.50907" lon="1.4366">
        <ele>290.3</ele>
        <time>2018-12-30T12:57:37Z</time>
      </trkpt>
      <trkpt lat="44.50908" lon="1.43653">
        <ele>290.9</ele>
        <time>2018-12-30T12:57:42Z</time>
      </trkpt>
      <trkpt lat="44.50907" lon="1.43644">
        <ele>290.6</ele>
        <time>2018-12-30T12:57:46Z</time>
      </trkpt>
      <trkpt lat="44.50911" lon="1.43637">
        <ele>290.4</ele>
        <time>2018-12-30T12:57:51Z</time>
      </trkpt>
      <trkpt lat="44.50916" lon="1.43623">
        <ele>290.1</ele>
        <time>2018-12-30T12:57:55Z</time>
      </trkpt>
      <trkpt lat="44.50921" lon="1.43622">
        <ele>289.6</ele>
        <time>2018-12-30T12:57:58Z</time>
      </trkpt>
      <trkpt lat="44.50924" lon="1.43616">
        <ele>288.6</ele>
        <time>2018-12-30T12:58:03Z</time>
      </trkpt>
      <trkpt lat="44.50927" lon="1.43609">
        <ele>287.3</ele>
        <time>2018-12-30T12:58:07Z</time>
      </trkpt>
      <trkpt lat="44.5093" lon="1.43604">
        <ele>285.9</ele>
        <time>2018-12-30T12:58:13Z</time>
      </trkpt>
      <trkpt lat="44.50933" lon="1.43599">
        <ele>284.8</ele>
        <time>2018-12-30T12:58:18Z</time>
      </trkpt>
      <trkpt lat="44.50937" lon="1.43594">
        <ele>284</ele>
        <time>2018-12-30T12:58:22Z</time>
      </trkpt>
      <trkpt lat="44.50941" lon="1.43585">
        <ele>284.1</ele>
        <time>2018-12-30T12:58:28Z</time>
      </trkpt>
      <trkpt lat="44.50943" lon="1.43574">
        <ele>285.1</ele>
        <time>2018-12-30T12:58:31Z</time>
      </trkpt>
      <trkpt lat="44.50947" lon="1.43566">
        <ele>286.2</ele>
        <time>2018-12-30T12:58:37Z</time>
      </trkpt>
      <trkpt lat="44.5095" lon="1.43559">
        <ele>287.3</ele>
        <time>2018-12-30T12:58:42Z</time>
      </trkpt>
      <trkpt lat="44.5095" lon="1.43551">
        <ele>288</ele>
        <time>2018-12-30T12:58:46Z</time>
      </trkpt>
      <trkpt lat="44.50956" lon="1.43539">
        <ele>288.2</ele>
        <time>2018-12-30T12:58:52Z</time>
      </trkpt>
      <trkpt lat="44.50968" lon="1.43532">
        <ele>288.4</ele>
        <time>2018-12-30T12:58:58Z</time>
      </trkpt>
      <trkpt lat="44.50971" lon="1.43527">
        <ele>288.5</ele>
        <time>2018-12-30T12:59:04Z</time>
      </trkpt>
      <trkpt lat="44.50978" lon="1.43517">
        <ele>287.8</ele>
        <time>2018-12-30T12:59:10Z</time>
      </trkpt>
      <trkpt lat="44.50985" lon="1.43506">
        <ele>287.6</ele>
        <time>2018-12-30T12:59:16Z</time>
      </trkpt>
      <trkpt lat="44.5099" lon="1.43492">
        <ele>286.5</ele>
        <time>2018-12-30T12:59:28Z</time>
      </trkpt>
      <trkpt lat="44.50991" lon="1.43482">
        <ele>285.3</ele>
        <time>2018-12-30T12:59:34Z</time>
      </trkpt>
      <trkpt lat="44.50991" lon="1.43475">
        <ele>284.2</ele>
        <time>2018-12-30T12:59:39Z</time>
      </trkpt>
      <trkpt lat="44.50995" lon="1.43471">
        <ele>283.8</ele>
        <time>2018-12-30T12:59:48Z</time>
      </trkpt>
      <trkpt lat="44.50997" lon="1.4346">
        <ele>282.8</ele>
        <time>2018-12-30T12:59:55Z</time>
      </trkpt>
      <trkpt lat="44.51001" lon="1.43449">
        <ele>282.9</ele>
        <time>2018-12-30T13:00:01Z</time>
      </trkpt>
      <trkpt lat="44.51008" lon="1.43439">
        <ele>283.2</ele>
        <time>2018-12-30T13:00:07Z</time>
      </trkpt>
      <trkpt lat="44.51005" lon="1.43431">
        <ele>283.2</ele>
        <time>2018-12-30T13:00:16Z</time>
      </trkpt>
      <trkpt lat="44.5101" lon="1.43426">
        <ele>282.9</ele>
        <time>2018-12-30T13:00:19Z</time>
      </trkpt>
      <trkpt lat="44.51014" lon="1.43419">
        <ele>282.6</ele>
        <time>2018-12-30T13:00:24Z</time>
      </trkpt>
      <trkpt lat="44.51019" lon="1.43414">
        <ele>282</ele>
        <time>2018-12-30T13:00:30Z</time>
      </trkpt>
      <trkpt lat="44.51021" lon="1.43406">
        <ele>281</ele>
        <time>2018-12-30T13:00:34Z</time>
      </trkpt>
      <trkpt lat="44.51024" lon="1.43398">
        <ele>280.1</ele>
        <time>2018-12-30T13:00:37Z</time>
      </trkpt>
      <trkpt lat="44.51027" lon="1.43392">
        <ele>279.5</ele>
        <time>2018-12-30T13:00:42Z</time>
      </trkpt>
      <trkpt lat="44.51025" lon="1.43386">
        <ele>279.3</ele>
        <time>2018-12-30T13:00:52Z</time>
      </trkpt>
      <trkpt lat="44.51027" lon="1.43378">
        <ele>279.4</ele>
        <time>2018-12-30T13:01:02Z</time>
      </trkpt>
      <trkpt lat="44.51033" lon="1.43372">
        <ele>279.6</ele>
        <time>2018-12-30T13:01:04Z</time>
      </trkpt>
      <trkpt lat="44.51045" lon="1.43361">
        <ele>279.3</ele>
        <time>2018-12-30T13:01:10Z</time>
      </trkpt>
      <trkpt lat="44.51049" lon="1.43358">
        <ele>278.4</ele>
        <time>2018-12-30T13:01:12Z</time>
      </trkpt>
      <trkpt lat="44.5105" lon="1.43347">
        <ele>277.8</ele>
        <time>2018-12-30T13:01:16Z</time>
      </trkpt>
      <trkpt lat="44.51052" lon="1.43341">
        <ele>277.3</ele>
        <time>2018-12-30T13:01:22Z</time>
      </trkpt>
      <trkpt lat="44.51055" lon="1.4333">
        <ele>277.7</ele>
        <time>2018-12-30T13:01:41Z</time>
      </trkpt>
      <trkpt lat="44.51059" lon="1.4332">
        <ele>278.1</ele>
        <time>2018-12-30T13:01:53Z</time>
      </trkpt>
      <trkpt lat="44.51067" lon="1.43302">
        <ele>278.6</ele>
        <time>2018-12-30T13:02:05Z</time>
      </trkpt>
      <trkpt lat="44.51072" lon="1.4329">
        <ele>278.5</ele>
        <time>2018-12-30T13:02:07Z</time>
      </trkpt>
      <trkpt lat="44.51082" lon="1.43282">
        <ele>278</ele>
        <time>2018-12-30T13:02:16Z</time>
      </trkpt>
      <trkpt lat="44.51088" lon="1.43273">
        <ele>277.3</ele>
        <time>2018-12-30T13:02:19Z</time>
      </trkpt>
      <trkpt lat="44.51092" lon="1.43269">
        <ele>277.6</ele>
        <time>2018-12-30T13:02:25Z</time>
      </trkpt>
      <trkpt lat="44.51097" lon="1.43264">
        <ele>278.6</ele>
        <time>2018-12-30T13:02:31Z</time>
      </trkpt>
      <trkpt lat="44.51105" lon="1.43248">
        <ele>279.8</ele>
        <time>2018-12-30T13:02:37Z</time>
      </trkpt>
      <trkpt lat="44.51112" lon="1.43239">
        <ele>280.9</ele>
        <time>2018-12-30T13:02:40Z</time>
      </trkpt>
      <trkpt lat="44.51118" lon="1.43234">
        <ele>281.6</ele>
        <time>2018-12-30T13:02:49Z</time>
      </trkpt>
      <trkpt lat="44.51123" lon="1.43228">
        <ele>281.6</ele>
        <time>2018-12-30T13:02:52Z</time>
      </trkpt>
      <trkpt lat="44.51126" lon="1.4322">
        <ele>281.3</ele>
        <time>2018-12-30T13:02:58Z</time>
      </trkpt>
      <trkpt lat="44.51135" lon="1.43215">
        <ele>280.3</ele>
        <time>2018-12-30T13:03:04Z</time>
      </trkpt>
      <trkpt lat="44.51142" lon="1.4321">
        <ele>279.5</ele>
        <time>2018-12-30T13:03:07Z</time>
      </trkpt>
      <trkpt lat="44.51152" lon="1.43201">
        <ele>279.6</ele>
        <time>2018-12-30T13:03:13Z</time>
      </trkpt>
      <trkpt lat="44.51154" lon="1.4319">
        <ele>280.4</ele>
        <time>2018-12-30T13:03:19Z</time>
      </trkpt>
      <trkpt lat="44.51155" lon="1.43184">
        <ele>281.5</ele>
        <time>2018-12-30T13:03:31Z</time>
      </trkpt>
      <trkpt lat="44.5116" lon="1.43179">
        <ele>282.9</ele>
        <time>2018-12-30T13:03:34Z</time>
      </trkpt>
      <trkpt lat="44.51169" lon="1.4317">
        <ele>284.4</ele>
        <time>2018-12-30T13:03:40Z</time>
      </trkpt>
      <trkpt lat="44.51174" lon="1.43163">
        <ele>285.1</ele>
        <time>2018-12-30T13:03:46Z</time>
      </trkpt>
      <trkpt lat="44.51181" lon="1.43156">
        <ele>285.6</ele>
        <time>2018-12-30T13:03:52Z</time>
      </trkpt>
      <trkpt lat="44.51195" lon="1.43158">
        <ele>285.1</ele>
        <time>2018-12-30T13:04:04Z</time>
      </trkpt>
      <trkpt lat="44.51201" lon="1.43157">
        <ele>285.5</ele>
        <time>2018-12-30T13:04:06Z</time>
      </trkpt>
      <trkpt lat="44.51204" lon="1.43153">
        <ele>284.9</ele>
        <time>2018-12-30T13:04:10Z</time>
      </trkpt>
      <trkpt lat="44.51212" lon="1.4315">
        <ele>283.9</ele>
        <time>2018-12-30T13:04:16Z</time>
      </trkpt>
      <trkpt lat="44.51212" lon="1.43143">
        <ele>282.5</ele>
        <time>2018-12-30T13:04:24Z</time>
      </trkpt>
      <trkpt lat="44.51211" lon="1.43136">
        <ele>281.4</ele>
        <time>2018-12-30T13:04:30Z</time>
      </trkpt>
      <trkpt lat="44.5122" lon="1.43133">
        <ele>280.3</ele>
        <time>2018-12-30T13:04:34Z</time>
      </trkpt>
      <trkpt lat="44.51224" lon="1.43131">
        <ele>280.1</ele>
        <time>2018-12-30T13:04:37Z</time>
      </trkpt>
      <trkpt lat="44.51234" lon="1.43129">
        <ele>280.3</ele>
        <time>2018-12-30T13:04:43Z</time>
      </trkpt>
      <trkpt lat="44.5124" lon="1.43124">
        <ele>280.4</ele>
        <time>2018-12-30T13:04:49Z</time>
      </trkpt>
      <trkpt lat="44.51246" lon="1.43115">
        <ele>280.4</ele>
        <time>2018-12-30T13:04:55Z</time>
      </trkpt>
      <trkpt lat="44.51251" lon="1.43112">
        <ele>280</ele>
        <time>2018-12-30T13:05:00Z</time>
      </trkpt>
      <trkpt lat="44.51258" lon="1.43104">
        <ele>279.6</ele>
        <time>2018-12-30T13:05:10Z</time>
      </trkpt>
      <trkpt lat="44.51261" lon="1.43094">
        <ele>279.3</ele>
        <time>2018-12-30T13:05:16Z</time>
      </trkpt>
      <trkpt lat="44.51259" lon="1.43087">
        <ele>279.7</ele>
        <time>2018-12-30T13:05:22Z</time>
      </trkpt>
      <trkpt lat="44.51256" lon="1.43076">
        <ele>280.6</ele>
        <time>2018-12-30T13:05:28Z</time>
      </trkpt>
      <trkpt lat="44.51255" lon="1.43067">
        <ele>281.6</ele>
        <time>2018-12-30T13:05:33Z</time>
      </trkpt>
      <trkpt lat="44.51257" lon="1.43058">
        <ele>283</ele>
        <time>2018-12-30T13:05:37Z</time>
      </trkpt>
      <trkpt lat="44.5126" lon="1.43048">
        <ele>284</ele>
        <time>2018-12-30T13:05:43Z</time>
      </trkpt>
      <trkpt lat="44.51263" lon="1.43043">
        <ele>283.5</ele>
        <time>2018-12-30T13:05:49Z</time>
      </trkpt>
      <trkpt lat="44.51269" lon="1.43038">
        <ele>282.5</ele>
        <time>2018-12-30T13:05:55Z</time>
      </trkpt>
      <trkpt lat="44.51278" lon="1.4303">
        <ele>281</ele>
        <time>2018-12-30T13:06:01Z</time>
      </trkpt>
      <trkpt lat="44.51282" lon="1.43025">
        <ele>278.9</ele>
        <time>2018-12-30T13:06:04Z</time>
      </trkpt>
      <trkpt lat="44.51288" lon="1.43025">
        <ele>277</ele>
        <time>2018-12-30T13:06:16Z</time>
      </trkpt>
      <trkpt lat="44.51293" lon="1.43024">
        <ele>276.5</ele>
        <time>2018-12-30T13:06:21Z</time>
      </trkpt>
      <trkpt lat="44.513" lon="1.43018">
        <ele>276.7</ele>
        <time>2018-12-30T13:06:25Z</time>
      </trkpt>
      <trkpt lat="44.51313" lon="1.43022">
        <ele>277.6</ele>
        <time>2018-12-30T13:06:31Z</time>
      </trkpt>
      <trkpt lat="44.5132" lon="1.4302">
        <ele>278.7</ele>
        <time>2018-12-30T13:06:40Z</time>
      </trkpt>
      <trkpt lat="44.51332" lon="1.43021">
        <ele>280</ele>
        <time>2018-12-30T13:06:46Z</time>
      </trkpt>
      <trkpt lat="44.51336" lon="1.43014">
        <ele>281</ele>
        <time>2018-12-30T13:06:49Z</time>
      </trkpt>
      <trkpt lat="44.51339" lon="1.43008">
        <ele>282.6</ele>
        <time>2018-12-30T13:06:55Z</time>
      </trkpt>
      <trkpt lat="44.5134" lon="1.42998">
        <ele>283.9</ele>
        <time>2018-12-30T13:07:01Z</time>
      </trkpt>
      <trkpt lat="44.51337" lon="1.42986">
        <ele>285.2</ele>
        <time>2018-12-30T13:07:13Z</time>
      </trkpt>
      <trkpt lat="44.51334" lon="1.42973">
        <ele>286.8</ele>
        <time>2018-12-30T13:07:16Z</time>
      </trkpt>
      <trkpt lat="44.5134" lon="1.42972">
        <ele>288.2</ele>
        <time>2018-12-30T13:07:22Z</time>
      </trkpt>
      <trkpt lat="44.51338" lon="1.42963">
        <ele>288.8</ele>
        <time>2018-12-30T13:07:28Z</time>
      </trkpt>
      <trkpt lat="44.5134" lon="1.42954">
        <ele>289.5</ele>
        <time>2018-12-30T13:07:34Z</time>
      </trkpt>
      <trkpt lat="44.51342" lon="1.42941">
        <ele>290.2</ele>
        <time>2018-12-30T13:07:37Z</time>
      </trkpt>
      <trkpt lat="44.51341" lon="1.42934">
        <ele>290</ele>
        <time>2018-12-30T13:07:40Z</time>
      </trkpt>
      <trkpt lat="44.51346" lon="1.42927">
        <ele>289.3</ele>
        <time>2018-12-30T13:07:46Z</time>
      </trkpt>
      <trkpt lat="44.51345" lon="1.4292">
        <ele>289</ele>
        <time>2018-12-30T13:07:55Z</time>
      </trkpt>
      <trkpt lat="44.51344" lon="1.4291">
        <ele>289</ele>
        <time>2018-12-30T13:08:07Z</time>
      </trkpt>
      <trkpt lat="44.5134" lon="1.42901">
        <ele>289.3</ele>
        <time>2018-12-30T13:08:13Z</time>
      </trkpt>
      <trkpt lat="44.51335" lon="1.42898">
        <ele>289.5</ele>
        <time>2018-12-30T13:08:16Z</time>
      </trkpt>
      <trkpt lat="44.5133" lon="1.42894">
        <ele>289.7</ele>
        <time>2018-12-30T13:08:22Z</time>
      </trkpt>
      <trkpt lat="44.51326" lon="1.42897">
        <ele>289.7</ele>
        <time>2018-12-30T13:08:25Z</time>
      </trkpt>
      <trkpt lat="44.51317" lon="1.42896">
        <ele>290.2</ele>
        <time>2018-12-30T13:08:31Z</time>
      </trkpt>
      <trkpt lat="44.51312" lon="1.42897">
        <ele>291.3</ele>
        <time>2018-12-30T13:08:37Z</time>
      </trkpt>
      <trkpt lat="44.51305" lon="1.42894">
        <ele>293.4</ele>
        <time>2018-12-30T13:08:42Z</time>
      </trkpt>
      <trkpt lat="44.51295" lon="1.42887">
        <ele>296</ele>
        <time>2018-12-30T13:08:46Z</time>
      </trkpt>
      <trkpt lat="44.51284" lon="1.42882">
        <ele>299.4</ele>
        <time>2018-12-30T13:08:52Z</time>
      </trkpt>
      <trkpt lat="44.5128" lon="1.42874">
        <ele>301.3</ele>
        <time>2018-12-30T13:08:58Z</time>
      </trkpt>
      <trkpt lat="44.51275" lon="1.4287">
        <ele>302.3</ele>
        <time>2018-12-30T13:09:04Z</time>
      </trkpt>
      <trkpt lat="44.51268" lon="1.42869">
        <ele>303.1</ele>
        <time>2018-12-30T13:09:13Z</time>
      </trkpt>
      <trkpt lat="44.51263" lon="1.42865">
        <ele>303.4</ele>
        <time>2018-12-30T13:09:19Z</time>
      </trkpt>
      <trkpt lat="44.51257" lon="1.42864">
        <ele>302.2</ele>
        <time>2018-12-30T13:09:27Z</time>
      </trkpt>
      <trkpt lat="44.51252" lon="1.42862">
        <ele>300.7</ele>
        <time>2018-12-30T13:09:31Z</time>
      </trkpt>
      <trkpt lat="44.51246" lon="1.42857">
        <ele>299.3</ele>
        <time>2018-12-30T13:09:34Z</time>
      </trkpt>
      <trkpt lat="44.51237" lon="1.42846">
        <ele>297.9</ele>
        <time>2018-12-30T13:09:40Z</time>
      </trkpt>
      <trkpt lat="44.51235" lon="1.42834">
        <ele>296.7</ele>
        <time>2018-12-30T13:09:46Z</time>
      </trkpt>
      <trkpt lat="44.51236" lon="1.42823">
        <ele>295.5</ele>
        <time>2018-12-30T13:09:58Z</time>
      </trkpt>
      <trkpt lat="44.51235" lon="1.42812">
        <ele>294.8</ele>
        <time>2018-12-30T13:10:04Z</time>
      </trkpt>
      <trkpt lat="44.51229" lon="1.42804">
        <ele>294.3</ele>
        <time>2018-12-30T13:10:10Z</time>
      </trkpt>
      <trkpt lat="44.51227" lon="1.42797">
        <ele>293.9</ele>
        <time>2018-12-30T13:10:16Z</time>
      </trkpt>
      <trkpt lat="44.51222" lon="1.42788">
        <ele>293.8</ele>
        <time>2018-12-30T13:10:22Z</time>
      </trkpt>
      <trkpt lat="44.5122" lon="1.42781">
        <ele>293.6</ele>
        <time>2018-12-30T13:10:28Z</time>
      </trkpt>
      <trkpt lat="44.51219" lon="1.42773">
        <ele>293.4</ele>
        <time>2018-12-30T13:10:33Z</time>
      </trkpt>
      <trkpt lat="44.51225" lon="1.42771">
        <ele>292.6</ele>
        <time>2018-12-30T13:10:43Z</time>
      </trkpt>
      <trkpt lat="44.51226" lon="1.42765">
        <ele>291.3</ele>
        <time>2018-12-30T13:11:53Z</time>
      </trkpt>
      <trkpt lat="44.51232" lon="1.42757">
        <ele>289.9</ele>
        <time>2018-12-30T13:12:01Z</time>
      </trkpt>
      <trkpt lat="44.51238" lon="1.42753">
        <ele>289.1</ele>
        <time>2018-12-30T13:12:07Z</time>
      </trkpt>
      <trkpt lat="44.51244" lon="1.42751">
        <ele>289.1</ele>
        <time>2018-12-30T13:12:13Z</time>
      </trkpt>
      <trkpt lat="44.5125" lon="1.42745">
        <ele>290.1</ele>
        <time>2018-12-30T13:12:19Z</time>
      </trkpt>
      <trkpt lat="44.51251" lon="1.42735">
        <ele>292.6</ele>
        <time>2018-12-30T13:12:22Z</time>
      </trkpt>
      <trkpt lat="44.51258" lon="1.42733">
        <ele>295</ele>
        <time>2018-12-30T13:12:28Z</time>
      </trkpt>
      <trkpt lat="44.51264" lon="1.42731">
        <ele>296.6</ele>
        <time>2018-12-30T13:12:31Z</time>
      </trkpt>
      <trkpt lat="44.51279" lon="1.42729">
        <ele>296.9</ele>
        <time>2018-12-30T13:12:37Z</time>
      </trkpt>
      <trkpt lat="44.51286" lon="1.42727">
        <ele>296</ele>
        <time>2018-12-30T13:12:43Z</time>
      </trkpt>
      <trkpt lat="44.51287" lon="1.4272">
        <ele>293.9</ele>
        <time>2018-12-30T13:12:52Z</time>
      </trkpt>
      <trkpt lat="44.51296" lon="1.42722">
        <ele>291.2</ele>
        <time>2018-12-30T13:12:58Z</time>
      </trkpt>
      <trkpt lat="44.51301" lon="1.42721">
        <ele>288.7</ele>
        <time>2018-12-30T13:13:10Z</time>
      </trkpt>
      <trkpt lat="44.51305" lon="1.42717">
        <ele>286.8</ele>
        <time>2018-12-30T13:13:13Z</time>
      </trkpt>
      <trkpt lat="44.51308" lon="1.42712">
        <ele>285.2</ele>
        <time>2018-12-30T13:13:16Z</time>
      </trkpt>
      <trkpt lat="44.51313" lon="1.42718">
        <ele>284.9</ele>
        <time>2018-12-30T13:13:19Z</time>
      </trkpt>
      <trkpt lat="44.51314" lon="1.4271">
        <ele>285.6</ele>
        <time>2018-12-30T13:13:28Z</time>
      </trkpt>
      <trkpt lat="44.51319" lon="1.42709">
        <ele>288</ele>
        <time>2018-12-30T13:13:31Z</time>
      </trkpt>
      <trkpt lat="44.51325" lon="1.427">
        <ele>290.7</ele>
        <time>2018-12-30T13:13:37Z</time>
      </trkpt>
      <trkpt lat="44.51339" lon="1.42697">
        <ele>292.7</ele>
        <time>2018-12-30T13:13:43Z</time>
      </trkpt>
      <trkpt lat="44.51343" lon="1.42695">
        <ele>293.4</ele>
        <time>2018-12-30T13:13:48Z</time>
      </trkpt>
      <trkpt lat="44.51349" lon="1.42691">
        <ele>291.9</ele>
        <time>2018-12-30T13:13:54Z</time>
      </trkpt>
      <trkpt lat="44.51351" lon="1.42685">
        <ele>289.9</ele>
        <time>2018-12-30T13:13:58Z</time>
      </trkpt>
      <trkpt lat="44.51357" lon="1.42678">
        <ele>288.4</ele>
        <time>2018-12-30T13:14:04Z</time>
      </trkpt>
      <trkpt lat="44.51362" lon="1.42684">
        <ele>287.6</ele>
        <time>2018-12-30T13:14:10Z</time>
      </trkpt>
      <trkpt lat="44.51366" lon="1.42679">
        <ele>287.5</ele>
        <time>2018-12-30T13:14:22Z</time>
      </trkpt>
      <trkpt lat="44.51375" lon="1.42677">
        <ele>289.2</ele>
        <time>2018-12-30T13:14:28Z</time>
      </trkpt>
      <trkpt lat="44.51381" lon="1.42675">
        <ele>290.8</ele>
        <time>2018-12-30T13:14:31Z</time>
      </trkpt>
      <trkpt lat="44.5139" lon="1.42664">
        <ele>291.9</ele>
        <time>2018-12-30T13:14:37Z</time>
      </trkpt>
      <trkpt lat="44.51399" lon="1.42659">
        <ele>293.5</ele>
        <time>2018-12-30T13:14:43Z</time>
      </trkpt>
      <trkpt lat="44.51406" lon="1.42659">
        <ele>294</ele>
        <time>2018-12-30T13:14:49Z</time>
      </trkpt>
      <trkpt lat="44.51414" lon="1.42655">
        <ele>293.1</ele>
        <time>2018-12-30T13:14:55Z</time>
      </trkpt>
      <trkpt lat="44.51421" lon="1.42649">
        <ele>291.4</ele>
        <time>2018-12-30T13:15:01Z</time>
      </trkpt>
      <trkpt lat="44.51436" lon="1.4264">
        <ele>290</ele>
        <time>2018-12-30T13:15:07Z</time>
      </trkpt>
      <trkpt lat="44.51439" lon="1.42634">
        <ele>288.5</ele>
        <time>2018-12-30T13:15:15Z</time>
      </trkpt>
      <trkpt lat="44.51444" lon="1.42628">
        <ele>288.2</ele>
        <time>2018-12-30T13:15:25Z</time>
      </trkpt>
      <trkpt lat="44.51447" lon="1.42622">
        <ele>289.2</ele>
        <time>2018-12-30T13:15:30Z</time>
      </trkpt>
      <trkpt lat="44.51452" lon="1.42619">
        <ele>290.4</ele>
        <time>2018-12-30T13:15:34Z</time>
      </trkpt>
      <trkpt lat="44.51465" lon="1.42619">
        <ele>290.5</ele>
        <time>2018-12-30T13:15:37Z</time>
      </trkpt>
      <trkpt lat="44.51469" lon="1.42625">
        <ele>289.1</ele>
        <time>2018-12-30T13:15:43Z</time>
      </trkpt>
      <trkpt lat="44.5147" lon="1.42617">
        <ele>287.4</ele>
        <time>2018-12-30T13:15:49Z</time>
      </trkpt>
      <trkpt lat="44.51474" lon="1.42606">
        <ele>284.9</ele>
        <time>2018-12-30T13:15:55Z</time>
      </trkpt>
      <trkpt lat="44.51483" lon="1.42608">
        <ele>283</ele>
        <time>2018-12-30T13:16:01Z</time>
      </trkpt>
      <trkpt lat="44.51491" lon="1.4261">
        <ele>281.8</ele>
        <time>2018-12-30T13:16:10Z</time>
      </trkpt>
      <trkpt lat="44.515" lon="1.42607">
        <ele>281.1</ele>
        <time>2018-12-30T13:16:13Z</time>
      </trkpt>
      <trkpt lat="44.51508" lon="1.42598">
        <ele>280.1</ele>
        <time>2018-12-30T13:16:19Z</time>
      </trkpt>
      <trkpt lat="44.51515" lon="1.42589">
        <ele>279.6</ele>
        <time>2018-12-30T13:16:28Z</time>
      </trkpt>
      <trkpt lat="44.51518" lon="1.4258">
        <ele>278.7</ele>
        <time>2018-12-30T13:16:34Z</time>
      </trkpt>
      <trkpt lat="44.51517" lon="1.4257">
        <ele>277.4</ele>
        <time>2018-12-30T13:16:40Z</time>
      </trkpt>
      <trkpt lat="44.51515" lon="1.42562">
        <ele>275.5</ele>
        <time>2018-12-30T13:16:46Z</time>
      </trkpt>
      <trkpt lat="44.51516" lon="1.42555">
        <ele>273.4</ele>
        <time>2018-12-30T13:16:52Z</time>
      </trkpt>
      <trkpt lat="44.51526" lon="1.42546">
        <ele>270.6</ele>
        <time>2018-12-30T13:16:58Z</time>
      </trkpt>
      <trkpt lat="44.51527" lon="1.42536">
        <ele>268.4</ele>
        <time>2018-12-30T13:17:04Z</time>
      </trkpt>
      <trkpt lat="44.51527" lon="1.42528">
        <ele>267.3</ele>
        <time>2018-12-30T13:17:12Z</time>
      </trkpt>
      <trkpt lat="44.51533" lon="1.42532">
        <ele>266.6</ele>
        <time>2018-12-30T13:17:16Z</time>
      </trkpt>
      <trkpt lat="44.51541" lon="1.42522">
        <ele>266.4</ele>
        <time>2018-12-30T13:17:22Z</time>
      </trkpt>
      <trkpt lat="44.5154" lon="1.42512">
        <ele>268.6</ele>
        <time>2018-12-30T13:17:28Z</time>
      </trkpt>
      <trkpt lat="44.51548" lon="1.42506">
        <ele>270.8</ele>
        <time>2018-12-30T13:17:37Z</time>
      </trkpt>
      <trkpt lat="44.51554" lon="1.42509">
        <ele>272.1</ele>
        <time>2018-12-30T13:17:46Z</time>
      </trkpt>
      <trkpt lat="44.51548" lon="1.42511">
        <ele>273.4</ele>
        <time>2018-12-30T13:18:14Z</time>
      </trkpt>
      <trkpt lat="44.51552" lon="1.42505">
        <ele>274.6</ele>
        <time>2018-12-30T13:19:19Z</time>
      </trkpt>
      <trkpt lat="44.51555" lon="1.42496">
        <ele>274.6</ele>
        <time>2018-12-30T13:19:22Z</time>
      </trkpt>
      <trkpt lat="44.5156" lon="1.42492">
        <ele>273.2</ele>
        <time>2018-12-30T13:19:28Z</time>
      </trkpt>
      <trkpt lat="44.51562" lon="1.42485">
        <ele>271.7</ele>
        <time>2018-12-30T13:19:31Z</time>
      </trkpt>
      <trkpt lat="44.51568" lon="1.42484">
        <ele>270.4</ele>
        <time>2018-12-30T13:19:36Z</time>
      </trkpt>
      <trkpt lat="44.51573" lon="1.42476">
        <ele>269.1</ele>
        <time>2018-12-30T13:19:40Z</time>
      </trkpt>
      <trkpt lat="44.51575" lon="1.42467">
        <ele>267.4</ele>
        <time>2018-12-30T13:19:52Z</time>
      </trkpt>
      <trkpt lat="44.51581" lon="1.42461">
        <ele>267.3</ele>
        <time>2018-12-30T13:19:58Z</time>
      </trkpt>
      <trkpt lat="44.51588" lon="1.42456">
        <ele>267.9</ele>
        <time>2018-12-30T13:20:04Z</time>
      </trkpt>
      <trkpt lat="44.51593" lon="1.42449">
        <ele>269.1</ele>
        <time>2018-12-30T13:20:10Z</time>
      </trkpt>
      <trkpt lat="44.51597" lon="1.42444">
        <ele>271.3</ele>
        <time>2018-12-30T13:20:15Z</time>
      </trkpt>
      <trkpt lat="44.51601" lon="1.42434">
        <ele>274.2</ele>
        <time>2018-12-30T13:20:19Z</time>
      </trkpt>
      <trkpt lat="44.5161" lon="1.42431">
        <ele>276.3</ele>
        <time>2018-12-30T13:20:25Z</time>
      </trkpt>
      <trkpt lat="44.51615" lon="1.42426">
        <ele>277.9</ele>
        <time>2018-12-30T13:20:30Z</time>
      </trkpt>
      <trkpt lat="44.51623" lon="1.42424">
        <ele>278.6</ele>
        <time>2018-12-30T13:20:40Z</time>
      </trkpt>
      <trkpt lat="44.5163" lon="1.42424">
        <ele>278.3</ele>
        <time>2018-12-30T13:20:46Z</time>
      </trkpt>
      <trkpt lat="44.51638" lon="1.42416">
        <ele>276.7</ele>
        <time>2018-12-30T13:20:52Z</time>
      </trkpt>
      <trkpt lat="44.51642" lon="1.42408">
        <ele>274.4</ele>
        <time>2018-12-30T13:20:55Z</time>
      </trkpt>
      <trkpt lat="44.51646" lon="1.42404">
        <ele>272</ele>
        <time>2018-12-30T13:21:00Z</time>
      </trkpt>
      <trkpt lat="44.51656" lon="1.42405">
        <ele>270</ele>
        <time>2018-12-30T13:21:04Z</time>
      </trkpt>
      <trkpt lat="44.51662" lon="1.42409">
        <ele>267.7</ele>
        <time>2018-12-30T13:21:09Z</time>
      </trkpt>
      <trkpt lat="44.51668" lon="1.42405">
        <ele>265.5</ele>
        <time>2018-12-30T13:21:16Z</time>
      </trkpt>
      <trkpt lat="44.51675" lon="1.42405">
        <ele>264.3</ele>
        <time>2018-12-30T13:21:22Z</time>
      </trkpt>
      <trkpt lat="44.51682" lon="1.42406">
        <ele>262.9</ele>
        <time>2018-12-30T13:21:25Z</time>
      </trkpt>
      <trkpt lat="44.51689" lon="1.42403">
        <ele>262.2</ele>
        <time>2018-12-30T13:21:34Z</time>
      </trkpt>
      <trkpt lat="44.51691" lon="1.42396">
        <ele>262.6</ele>
        <time>2018-12-30T13:21:40Z</time>
      </trkpt>
      <trkpt lat="44.51696" lon="1.42396">
        <ele>264</ele>
        <time>2018-12-30T13:21:46Z</time>
      </trkpt>
      <trkpt lat="44.51701" lon="1.42393">
        <ele>265.1</ele>
        <time>2018-12-30T13:21:54Z</time>
      </trkpt>
      <trkpt lat="44.51707" lon="1.42391">
        <ele>266.3</ele>
        <time>2018-12-30T13:21:58Z</time>
      </trkpt>
      <trkpt lat="44.51717" lon="1.42389">
        <ele>266</ele>
        <time>2018-12-30T13:22:04Z</time>
      </trkpt>
      <trkpt lat="44.51723" lon="1.42386">
        <ele>264.4</ele>
        <time>2018-12-30T13:22:09Z</time>
      </trkpt>
      <trkpt lat="44.51729" lon="1.42384">
        <ele>262.1</ele>
        <time>2018-12-30T13:22:13Z</time>
      </trkpt>
      <trkpt lat="44.51739" lon="1.42387">
        <ele>259.7</ele>
        <time>2018-12-30T13:22:19Z</time>
      </trkpt>
      <trkpt lat="44.51751" lon="1.42388">
        <ele>257.3</ele>
        <time>2018-12-30T13:24:16Z</time>
      </trkpt>
      <trkpt lat="44.51757" lon="1.42387">
        <ele>255.6</ele>
        <time>2018-12-30T13:24:19Z</time>
      </trkpt>
      <trkpt lat="44.51765" lon="1.42383">
        <ele>254.4</ele>
        <time>2018-12-30T13:24:25Z</time>
      </trkpt>
      <trkpt lat="44.51772" lon="1.42376">
        <ele>254.1</ele>
        <time>2018-12-30T13:24:31Z</time>
      </trkpt>
      <trkpt lat="44.51776" lon="1.42367">
        <ele>254.1</ele>
        <time>2018-12-30T13:24:37Z</time>
      </trkpt>
      <trkpt lat="44.51781" lon="1.4236">
        <ele>254</ele>
        <time>2018-12-30T13:24:46Z</time>
      </trkpt>
      <trkpt lat="44.51791" lon="1.4235">
        <ele>254.3</ele>
        <time>2018-12-30T13:24:52Z</time>
      </trkpt>
      <trkpt lat="44.51801" lon="1.42347">
        <ele>254.2</ele>
        <time>2018-12-30T13:24:58Z</time>
      </trkpt>
      <trkpt lat="44.5181" lon="1.42341">
        <ele>254.1</ele>
        <time>2018-12-30T13:25:04Z</time>
      </trkpt>
      <trkpt lat="44.51816" lon="1.42341">
        <ele>254.1</ele>
        <time>2018-12-30T13:25:10Z</time>
      </trkpt>
      <trkpt lat="44.5182" lon="1.42337">
        <ele>254.9</ele>
        <time>2018-12-30T13:25:16Z</time>
      </trkpt>
      <trkpt lat="44.51827" lon="1.42331">
        <ele>255.8</ele>
        <time>2018-12-30T13:25:22Z</time>
      </trkpt>
      <trkpt lat="44.51832" lon="1.42327">
        <ele>256.5</ele>
        <time>2018-12-30T13:25:28Z</time>
      </trkpt>
      <trkpt lat="44.51839" lon="1.42318">
        <ele>256.4</ele>
        <time>2018-12-30T13:25:34Z</time>
      </trkpt>
      <trkpt lat="44.51846" lon="1.42313">
        <ele>256.2</ele>
        <time>2018-12-30T13:25:40Z</time>
      </trkpt>
      <trkpt lat="44.5185" lon="1.4231">
        <ele>255</ele>
        <time>2018-12-30T13:25:46Z</time>
      </trkpt>
      <trkpt lat="44.5186" lon="1.4231">
        <ele>254.2</ele>
        <time>2018-12-30T13:25:52Z</time>
      </trkpt>
      <trkpt lat="44.51865" lon="1.42308">
        <ele>253.9</ele>
        <time>2018-12-30T13:25:58Z</time>
      </trkpt>
      <trkpt lat="44.51873" lon="1.42308">
        <ele>254.2</ele>
        <time>2018-12-30T13:26:04Z</time>
      </trkpt>
      <trkpt lat="44.51878" lon="1.42308">
        <ele>254.4</ele>
        <time>2018-12-30T13:26:16Z</time>
      </trkpt>
      <trkpt lat="44.51887" lon="1.42306">
        <ele>255.3</ele>
        <time>2018-12-30T13:26:22Z</time>
      </trkpt>
      <trkpt lat="44.51895" lon="1.42305">
        <ele>256.3</ele>
        <time>2018-12-30T13:26:28Z</time>
      </trkpt>
      <trkpt lat="44.51901" lon="1.423">
        <ele>256.8</ele>
        <time>2018-12-30T13:26:34Z</time>
      </trkpt>
      <trkpt lat="44.51907" lon="1.4229">
        <ele>256.2</ele>
        <time>2018-12-30T13:26:40Z</time>
      </trkpt>
      <trkpt lat="44.51913" lon="1.4228">
        <ele>255.2</ele>
        <time>2018-12-30T13:26:46Z</time>
      </trkpt>
      <trkpt lat="44.51912" lon="1.42272">
        <ele>253.4</ele>
        <time>2018-12-30T13:26:52Z</time>
      </trkpt>
      <trkpt lat="44.51907" lon="1.42267">
        <ele>250.8</ele>
        <time>2018-12-30T13:26:58Z</time>
      </trkpt>
      <trkpt lat="44.51904" lon="1.4226">
        <ele>248.2</ele>
        <time>2018-12-30T13:27:06Z</time>
      </trkpt>
      <trkpt lat="44.51906" lon="1.42249">
        <ele>245.2</ele>
        <time>2018-12-30T13:27:13Z</time>
      </trkpt>
      <trkpt lat="44.5192" lon="1.42243">
        <ele>243.2</ele>
        <time>2018-12-30T13:27:19Z</time>
      </trkpt>
      <trkpt lat="44.51931" lon="1.42247">
        <ele>242.4</ele>
        <time>2018-12-30T13:27:25Z</time>
      </trkpt>
      <trkpt lat="44.51931" lon="1.42241">
        <ele>243</ele>
        <time>2018-12-30T13:27:31Z</time>
      </trkpt>
      <trkpt lat="44.51937" lon="1.4223">
        <ele>244</ele>
        <time>2018-12-30T13:27:40Z</time>
      </trkpt>
      <trkpt lat="44.51949" lon="1.42225">
        <ele>246.1</ele>
        <time>2018-12-30T13:27:46Z</time>
      </trkpt>
      <trkpt lat="44.51956" lon="1.42227">
        <ele>247</ele>
        <time>2018-12-30T13:27:49Z</time>
      </trkpt>
      <trkpt lat="44.51962" lon="1.42221">
        <ele>247.1</ele>
        <time>2018-12-30T13:27:55Z</time>
      </trkpt>
      <trkpt lat="44.51964" lon="1.42212">
        <ele>246.5</ele>
        <time>2018-12-30T13:28:01Z</time>
      </trkpt>
      <trkpt lat="44.51965" lon="1.42205">
        <ele>245.7</ele>
        <time>2018-12-30T13:28:07Z</time>
      </trkpt>
      <trkpt lat="44.51965" lon="1.42196">
        <ele>245.3</ele>
        <time>2018-12-30T13:28:16Z</time>
      </trkpt>
      <trkpt lat="44.51971" lon="1.42195">
        <ele>246</ele>
        <time>2018-12-30T13:28:22Z</time>
      </trkpt>
      <trkpt lat="44.51974" lon="1.4219">
        <ele>247.4</ele>
        <time>2018-12-30T13:28:27Z</time>
      </trkpt>
      <trkpt lat="44.51983" lon="1.42182">
        <ele>248.9</ele>
        <time>2018-12-30T13:28:31Z</time>
      </trkpt>
      <trkpt lat="44.51987" lon="1.42172">
        <ele>249.9</ele>
        <time>2018-12-30T13:28:37Z</time>
      </trkpt>
      <trkpt lat="44.51991" lon="1.42165">
        <ele>250.2</ele>
        <time>2018-12-30T13:28:43Z</time>
      </trkpt>
      <trkpt lat="44.51995" lon="1.42158">
        <ele>250.2</ele>
        <time>2018-12-30T13:28:49Z</time>
      </trkpt>
      <trkpt lat="44.51995" lon="1.42152">
        <ele>249.5</ele>
        <time>2018-12-30T13:28:52Z</time>
      </trkpt>
      <trkpt lat="44.52" lon="1.42145">
        <ele>248.3</ele>
        <time>2018-12-30T13:28:58Z</time>
      </trkpt>
      <trkpt lat="44.52004" lon="1.42141">
        <ele>246.7</ele>
        <time>2018-12-30T13:29:04Z</time>
      </trkpt>
      <trkpt lat="44.52007" lon="1.42138">
        <ele>245.5</ele>
        <time>2018-12-30T13:29:09Z</time>
      </trkpt>
      <trkpt lat="44.52013" lon="1.4213">
        <ele>243.8</ele>
        <time>2018-12-30T13:29:14Z</time>
      </trkpt>
      <trkpt lat="44.52009" lon="1.42124">
        <ele>242.2</ele>
        <time>2018-12-30T13:29:19Z</time>
      </trkpt>
      <trkpt lat="44.52012" lon="1.42133">
        <ele>241.4</ele>
        <time>2018-12-30T13:29:34Z</time>
      </trkpt>
      <trkpt lat="44.52017" lon="1.42135">
        <ele>241</ele>
        <time>2018-12-30T13:29:43Z</time>
      </trkpt>
      <trkpt lat="44.52022" lon="1.42097">
        <ele>240.1</ele>
        <time>2018-12-30T13:31:17Z</time>
      </trkpt>
      <trkpt lat="44.52023" lon="1.42089">
        <ele>239.5</ele>
        <time>2018-12-30T13:31:18Z</time>
      </trkpt>
      <trkpt lat="44.52025" lon="1.42083">
        <ele>238.6</ele>
        <time>2018-12-30T13:31:25Z</time>
      </trkpt>
      <trkpt lat="44.52028" lon="1.42079">
        <ele>236.8</ele>
        <time>2018-12-30T13:31:28Z</time>
      </trkpt>
      <trkpt lat="44.52033" lon="1.42072">
        <ele>235.5</ele>
        <time>2018-12-30T13:31:31Z</time>
      </trkpt>
      <trkpt lat="44.52038" lon="1.42067">
        <ele>234.7</ele>
        <time>2018-12-30T13:31:34Z</time>
      </trkpt>
      <trkpt lat="44.52038" lon="1.42058">
        <ele>233.3</ele>
        <time>2018-12-30T13:31:40Z</time>
      </trkpt>
      <trkpt lat="44.52039" lon="1.42046">
        <ele>232</ele>
        <time>2018-12-30T13:31:49Z</time>
      </trkpt>
      <trkpt lat="44.52047" lon="1.4204">
        <ele>230.9</ele>
        <time>2018-12-30T13:31:52Z</time>
      </trkpt>
      <trkpt lat="44.52048" lon="1.42033">
        <ele>230.3</ele>
        <time>2018-12-30T13:31:58Z</time>
      </trkpt>
      <trkpt lat="44.52043" lon="1.42028">
        <ele>230.1</ele>
        <time>2018-12-30T13:32:03Z</time>
      </trkpt>
      <trkpt lat="44.52045" lon="1.4202">
        <ele>231.6</ele>
        <time>2018-12-30T13:32:07Z</time>
      </trkpt>
      <trkpt lat="44.52045" lon="1.42006">
        <ele>233.1</ele>
        <time>2018-12-30T13:32:13Z</time>
      </trkpt>
      <trkpt lat="44.52053" lon="1.41998">
        <ele>234.6</ele>
        <time>2018-12-30T13:32:16Z</time>
      </trkpt>
      <trkpt lat="44.52059" lon="1.41989">
        <ele>235.6</ele>
        <time>2018-12-30T13:32:22Z</time>
      </trkpt>
      <trkpt lat="44.5206" lon="1.41976">
        <ele>235.9</ele>
        <time>2018-12-30T13:32:28Z</time>
      </trkpt>
      <trkpt lat="44.52057" lon="1.41967">
        <ele>234.5</ele>
        <time>2018-12-30T13:32:34Z</time>
      </trkpt>
      <trkpt lat="44.52065" lon="1.41969">
        <ele>233.2</ele>
        <time>2018-12-30T13:32:37Z</time>
      </trkpt>
      <trkpt lat="44.52074" lon="1.41961">
        <ele>232</ele>
        <time>2018-12-30T13:32:43Z</time>
      </trkpt>
      <trkpt lat="44.52076" lon="1.41952">
        <ele>230.2</ele>
        <time>2018-12-30T13:32:49Z</time>
      </trkpt>
      <trkpt lat="44.52068" lon="1.41945">
        <ele>228.8</ele>
        <time>2018-12-30T13:32:55Z</time>
      </trkpt>
      <trkpt lat="44.52064" lon="1.41937">
        <ele>227.9</ele>
        <time>2018-12-30T13:33:01Z</time>
      </trkpt>
      <trkpt lat="44.52066" lon="1.41931">
        <ele>226.6</ele>
        <time>2018-12-30T13:33:07Z</time>
      </trkpt>
      <trkpt lat="44.52072" lon="1.41924">
        <ele>225.1</ele>
        <time>2018-12-30T13:33:13Z</time>
      </trkpt>
      <trkpt lat="44.52074" lon="1.41918">
        <ele>223.7</ele>
        <time>2018-12-30T13:33:16Z</time>
      </trkpt>
      <trkpt lat="44.52073" lon="1.41908">
        <ele>222.4</ele>
        <time>2018-12-30T13:33:22Z</time>
      </trkpt>
      <trkpt lat="44.52072" lon="1.41901">
        <ele>221.9</ele>
        <time>2018-12-30T13:33:28Z</time>
      </trkpt>
      <trkpt lat="44.52075" lon="1.41895">
        <ele>222.2</ele>
        <time>2018-12-30T13:33:34Z</time>
      </trkpt>
      <trkpt lat="44.52081" lon="1.41893">
        <ele>223.1</ele>
        <time>2018-12-30T13:33:37Z</time>
      </trkpt>
      <trkpt lat="44.5209" lon="1.41883">
        <ele>224.7</ele>
        <time>2018-12-30T13:33:43Z</time>
      </trkpt>
      <trkpt lat="44.52092" lon="1.41874">
        <ele>226.6</ele>
        <time>2018-12-30T13:33:49Z</time>
      </trkpt>
      <trkpt lat="44.52091" lon="1.41866">
        <ele>227</ele>
        <time>2018-12-30T13:33:54Z</time>
      </trkpt>
      <trkpt lat="44.52095" lon="1.4186">
        <ele>226.2</ele>
        <time>2018-12-30T13:33:58Z</time>
      </trkpt>
      <trkpt lat="44.52096" lon="1.41847">
        <ele>225.3</ele>
        <time>2018-12-30T13:34:01Z</time>
      </trkpt>
      <trkpt lat="44.5209" lon="1.41837">
        <ele>223.7</ele>
        <time>2018-12-30T13:34:04Z</time>
      </trkpt>
      <trkpt lat="44.52091" lon="1.4183">
        <ele>221.3</ele>
        <time>2018-12-30T13:34:13Z</time>
      </trkpt>
      <trkpt lat="44.5209" lon="1.41822">
        <ele>218.9</ele>
        <time>2018-12-30T13:34:22Z</time>
      </trkpt>
      <trkpt lat="44.52094" lon="1.41817">
        <ele>217.2</ele>
        <time>2018-12-30T13:34:28Z</time>
      </trkpt>
      <trkpt lat="44.52099" lon="1.41813">
        <ele>215</ele>
        <time>2018-12-30T13:34:31Z</time>
      </trkpt>
      <trkpt lat="44.52104" lon="1.41802">
        <ele>213.1</ele>
        <time>2018-12-30T13:34:37Z</time>
      </trkpt>
      <trkpt lat="44.52108" lon="1.41804">
        <ele>211.6</ele>
        <time>2018-12-30T13:34:43Z</time>
      </trkpt>
      <trkpt lat="44.52114" lon="1.418">
        <ele>210.4</ele>
        <time>2018-12-30T13:34:48Z</time>
      </trkpt>
      <trkpt lat="44.52125" lon="1.41789">
        <ele>209.1</ele>
        <time>2018-12-30T13:34:58Z</time>
      </trkpt>
      <trkpt lat="44.5213" lon="1.41787">
        <ele>208.5</ele>
        <time>2018-12-30T13:35:01Z</time>
      </trkpt>
      <trkpt lat="44.52133" lon="1.41779">
        <ele>207.8</ele>
        <time>2018-12-30T13:35:06Z</time>
      </trkpt>
      <trkpt lat="44.52138" lon="1.41772">
        <ele>207.2</ele>
        <time>2018-12-30T13:35:12Z</time>
      </trkpt>
      <trkpt lat="44.5214" lon="1.41763">
        <ele>207</ele>
        <time>2018-12-30T13:35:16Z</time>
      </trkpt>
      <trkpt lat="44.52151" lon="1.41754">
        <ele>206.6</ele>
        <time>2018-12-30T13:35:31Z</time>
      </trkpt>
      <trkpt lat="44.52157" lon="1.41749">
        <ele>205.5</ele>
        <time>2018-12-30T13:35:37Z</time>
      </trkpt>
      <trkpt lat="44.52166" lon="1.41746">
        <ele>204.1</ele>
        <time>2018-12-30T13:35:43Z</time>
      </trkpt>
      <trkpt lat="44.52175" lon="1.41739">
        <ele>202.4</ele>
        <time>2018-12-30T13:35:49Z</time>
      </trkpt>
      <trkpt lat="44.52183" lon="1.41742">
        <ele>201</ele>
        <time>2018-12-30T13:35:55Z</time>
      </trkpt>
      <trkpt lat="44.52187" lon="1.41738">
        <ele>200</ele>
        <time>2018-12-30T13:36:01Z</time>
      </trkpt>
      <trkpt lat="44.52192" lon="1.41736">
        <ele>199.6</ele>
        <time>2018-12-30T13:36:04Z</time>
      </trkpt>
      <trkpt lat="44.52199" lon="1.4173">
        <ele>199.4</ele>
        <time>2018-12-30T13:36:10Z</time>
      </trkpt>
      <trkpt lat="44.52203" lon="1.41726">
        <ele>199.2</ele>
        <time>2018-12-30T13:36:13Z</time>
      </trkpt>
      <trkpt lat="44.52207" lon="1.41721">
        <ele>199</ele>
        <time>2018-12-30T13:36:19Z</time>
      </trkpt>
      <trkpt lat="44.52208" lon="1.41729">
        <ele>198.4</ele>
        <time>2018-12-30T13:36:25Z</time>
      </trkpt>
      <trkpt lat="44.52214" lon="1.41737">
        <ele>197.9</ele>
        <time>2018-12-30T13:36:31Z</time>
      </trkpt>
      <trkpt lat="44.52222" lon="1.41736">
        <ele>197.8</ele>
        <time>2018-12-30T13:36:37Z</time>
      </trkpt>
      <trkpt lat="44.52236" lon="1.41743">
        <ele>197.4</ele>
        <time>2018-12-30T13:36:43Z</time>
      </trkpt>
      <trkpt lat="44.52241" lon="1.41734">
        <ele>196.4</ele>
        <time>2018-12-30T13:36:49Z</time>
      </trkpt>
      <trkpt lat="44.52247" lon="1.41738">
        <ele>195.8</ele>
        <time>2018-12-30T13:36:55Z</time>
      </trkpt>
      <trkpt lat="44.52257" lon="1.41745">
        <ele>195.1</ele>
        <time>2018-12-30T13:37:01Z</time>
      </trkpt>
      <trkpt lat="44.52261" lon="1.41749">
        <ele>194.2</ele>
        <time>2018-12-30T13:37:06Z</time>
      </trkpt>
      <trkpt lat="44.52272" lon="1.41747">
        <ele>193.5</ele>
        <time>2018-12-30T13:37:16Z</time>
      </trkpt>
      <trkpt lat="44.52277" lon="1.41741">
        <ele>192.2</ele>
        <time>2018-12-30T13:37:19Z</time>
      </trkpt>
      <trkpt lat="44.52276" lon="1.41735">
        <ele>190.6</ele>
        <time>2018-12-30T13:37:22Z</time>
      </trkpt>
      <trkpt lat="44.52279" lon="1.41729">
        <ele>188.7</ele>
        <time>2018-12-30T13:37:28Z</time>
      </trkpt>
      <trkpt lat="44.5228" lon="1.4172">
        <ele>186.4</ele>
        <time>2018-12-30T13:37:34Z</time>
      </trkpt>
      <trkpt lat="44.52283" lon="1.41711">
        <ele>184.1</ele>
        <time>2018-12-30T13:37:43Z</time>
      </trkpt>
      <trkpt lat="44.52289" lon="1.41709">
        <ele>183.3</ele>
        <time>2018-12-30T13:37:46Z</time>
      </trkpt>
      <trkpt lat="44.52292" lon="1.41704">
        <ele>183.6</ele>
        <time>2018-12-30T13:37:49Z</time>
      </trkpt>
      <trkpt lat="44.52293" lon="1.41698">
        <ele>184.5</ele>
        <time>2018-12-30T13:37:55Z</time>
      </trkpt>
      <trkpt lat="44.52298" lon="1.41691">
        <ele>186.4</ele>
        <time>2018-12-30T13:38:01Z</time>
      </trkpt>
      <trkpt lat="44.52303" lon="1.41681">
        <ele>188.6</ele>
        <time>2018-12-30T13:38:07Z</time>
      </trkpt>
      <trkpt lat="44.52318" lon="1.41681">
        <ele>189.5</ele>
        <time>2018-12-30T13:38:13Z</time>
      </trkpt>
      <trkpt lat="44.52324" lon="1.41681">
        <ele>189.2</ele>
        <time>2018-12-30T13:38:19Z</time>
      </trkpt>
      <trkpt lat="44.52329" lon="1.41684">
        <ele>188.6</ele>
        <time>2018-12-30T13:38:28Z</time>
      </trkpt>
      <trkpt lat="44.52325" lon="1.41682">
        <ele>185.9</ele>
        <time>2018-12-30T13:39:34Z</time>
      </trkpt>
      <trkpt lat="44.5232" lon="1.41676">
        <ele>182.5</ele>
        <time>2018-12-30T13:41:10Z</time>
      </trkpt>
      <trkpt lat="44.52327" lon="1.41676">
        <ele>180.6</ele>
        <time>2018-12-30T13:42:22Z</time>
      </trkpt>
      <trkpt lat="44.52327" lon="1.41669">
        <ele>180.1</ele>
        <time>2018-12-30T13:42:31Z</time>
      </trkpt>
      <trkpt lat="44.52321" lon="1.41675">
        <ele>180.6</ele>
        <time>2018-12-30T13:42:56Z</time>
      </trkpt>
      <trkpt lat="44.52319" lon="1.41683">
        <ele>183.7</ele>
        <time>2018-12-30T13:43:13Z</time>
      </trkpt>
      <trkpt lat="44.52324" lon="1.41689">
        <ele>188.2</ele>
        <time>2018-12-30T13:43:21Z</time>
      </trkpt>
      <trkpt lat="44.5232" lon="1.41682">
        <ele>191.3</ele>
        <time>2018-12-30T13:43:25Z</time>
      </trkpt>
      <trkpt lat="44.5232" lon="1.41669">
        <ele>193.4</ele>
        <time>2018-12-30T13:43:31Z</time>
      </trkpt>
      <trkpt lat="44.52323" lon="1.41664">
        <ele>193.4</ele>
        <time>2018-12-30T13:43:37Z</time>
      </trkpt>
      <trkpt lat="44.52333" lon="1.41667">
        <ele>189.5</ele>
        <time>2018-12-30T13:43:46Z</time>
      </trkpt>
      <trkpt lat="44.52318" lon="1.41676">
        <ele>184.4</ele>
        <time>2018-12-30T13:43:52Z</time>
      </trkpt>
      <trkpt lat="44.52312" lon="1.41678">
        <ele>179.8</ele>
        <time>2018-12-30T13:43:55Z</time>
      </trkpt>
      <trkpt lat="44.52303" lon="1.41674">
        <ele>175.2</ele>
        <time>2018-12-30T13:44:11Z</time>
      </trkpt>
      <trkpt lat="44.52307" lon="1.41678">
        <ele>171.8</ele>
        <time>2018-12-30T13:44:28Z</time>
      </trkpt>
      <trkpt lat="44.52326" lon="1.41683">
        <ele>171.7</ele>
        <time>2018-12-30T13:44:38Z</time>
      </trkpt>
      <trkpt lat="44.5233" lon="1.41684">
        <ele>172.3</ele>
        <time>2018-12-30T13:44:39Z</time>
      </trkpt>
      <trkpt lat="44.52337" lon="1.41685">
        <ele>174</ele>
        <time>2018-12-30T13:44:43Z</time>
      </trkpt>
      <trkpt lat="44.52345" lon="1.41689">
        <ele>176.1</ele>
        <time>2018-12-30T13:44:46Z</time>
      </trkpt>
      <trkpt lat="44.52353" lon="1.41691">
        <ele>177.6</ele>
        <time>2018-12-30T13:44:49Z</time>
      </trkpt>
      <trkpt lat="44.52367" lon="1.41696">
        <ele>178.3</ele>
        <time>2018-12-30T13:44:55Z</time>
      </trkpt>
      <trkpt lat="44.52371" lon="1.41699">
        <ele>178.4</ele>
        <time>2018-12-30T13:45:01Z</time>
      </trkpt>
      <trkpt lat="44.52375" lon="1.41705">
        <ele>177.3</ele>
        <time>2018-12-30T13:45:10Z</time>
      </trkpt>
      <trkpt lat="44.52378" lon="1.41711">
        <ele>176.1</ele>
        <time>2018-12-30T13:45:13Z</time>
      </trkpt>
      <trkpt lat="44.52381" lon="1.41718">
        <ele>175</ele>
        <time>2018-12-30T13:45:18Z</time>
      </trkpt>
      <trkpt lat="44.52381" lon="1.41729">
        <ele>174.3</ele>
        <time>2018-12-30T13:45:22Z</time>
      </trkpt>
      <trkpt lat="44.52381" lon="1.41742">
        <ele>174</ele>
        <time>2018-12-30T13:45:28Z</time>
      </trkpt>
      <trkpt lat="44.52388" lon="1.41751">
        <ele>174</ele>
        <time>2018-12-30T13:45:34Z</time>
      </trkpt>
      <trkpt lat="44.52384" lon="1.41758">
        <ele>174.4</ele>
        <time>2018-12-30T13:45:40Z</time>
      </trkpt>
      <trkpt lat="44.52386" lon="1.41765">
        <ele>175.3</ele>
        <time>2018-12-30T13:45:43Z</time>
      </trkpt>
      <trkpt lat="44.52394" lon="1.41779">
        <ele>176.1</ele>
        <time>2018-12-30T13:45:49Z</time>
      </trkpt>
      <trkpt lat="44.52396" lon="1.41785">
        <ele>177.2</ele>
        <time>2018-12-30T13:45:51Z</time>
      </trkpt>
      <trkpt lat="44.52395" lon="1.41793">
        <ele>179</ele>
        <time>2018-12-30T13:45:55Z</time>
      </trkpt>
      <trkpt lat="44.52391" lon="1.41803">
        <ele>180.9</ele>
        <time>2018-12-30T13:45:58Z</time>
      </trkpt>
      <trkpt lat="44.52389" lon="1.41814">
        <ele>182</ele>
        <time>2018-12-30T13:46:04Z</time>
      </trkpt>
      <trkpt lat="44.52386" lon="1.41825">
        <ele>181.7</ele>
        <time>2018-12-30T13:46:10Z</time>
      </trkpt>
      <trkpt lat="44.52383" lon="1.41834">
        <ele>180.8</ele>
        <time>2018-12-30T13:46:16Z</time>
      </trkpt>
      <trkpt lat="44.52384" lon="1.41845">
        <ele>179.7</ele>
        <time>2018-12-30T13:46:22Z</time>
      </trkpt>
      <trkpt lat="44.52376" lon="1.4186">
        <ele>178.1</ele>
        <time>2018-12-30T13:46:28Z</time>
      </trkpt>
      <trkpt lat="44.5237" lon="1.41877">
        <ele>177.4</ele>
        <time>2018-12-30T13:46:37Z</time>
      </trkpt>
      <trkpt lat="44.52368" lon="1.41882">
        <ele>178.1</ele>
        <time>2018-12-30T13:46:39Z</time>
      </trkpt>
      <trkpt lat="44.52373" lon="1.41894">
        <ele>179.1</ele>
        <time>2018-12-30T13:46:49Z</time>
      </trkpt>
      <trkpt lat="44.52379" lon="1.41904">
        <ele>179.9</ele>
        <time>2018-12-30T13:46:55Z</time>
      </trkpt>
      <trkpt lat="44.52382" lon="1.41899">
        <ele>179.8</ele>
        <time>2018-12-30T13:46:58Z</time>
      </trkpt>
      <trkpt lat="44.5239" lon="1.41905">
        <ele>178.3</ele>
        <time>2018-12-30T13:47:01Z</time>
      </trkpt>
      <trkpt lat="44.52384" lon="1.41907">
        <ele>176.3</ele>
        <time>2018-12-30T13:47:16Z</time>
      </trkpt>
      <trkpt lat="44.52388" lon="1.41918">
        <ele>174.4</ele>
        <time>2018-12-30T13:47:19Z</time>
      </trkpt>
      <trkpt lat="44.52395" lon="1.41919">
        <ele>172.5</ele>
        <time>2018-12-30T13:47:22Z</time>
      </trkpt>
      <trkpt lat="44.524" lon="1.41918">
        <ele>171</ele>
        <time>2018-12-30T13:47:28Z</time>
      </trkpt>
      <trkpt lat="44.52403" lon="1.41926">
        <ele>170.5</ele>
        <time>2018-12-30T13:47:39Z</time>
      </trkpt>
      <trkpt lat="44.5241" lon="1.41931">
        <ele>171</ele>
        <time>2018-12-30T13:47:43Z</time>
      </trkpt>
      <trkpt lat="44.52417" lon="1.41941">
        <ele>172.1</ele>
        <time>2018-12-30T13:47:49Z</time>
      </trkpt>
      <trkpt lat="44.52422" lon="1.41947">
        <ele>173</ele>
        <time>2018-12-30T13:47:55Z</time>
      </trkpt>
      <trkpt lat="44.5242" lon="1.41954">
        <ele>174.8</ele>
        <time>2018-12-30T13:47:58Z</time>
      </trkpt>
      <trkpt lat="44.52426" lon="1.41956">
        <ele>177</ele>
        <time>2018-12-30T13:48:01Z</time>
      </trkpt>
      <trkpt lat="44.52426" lon="1.41964">
        <ele>180</ele>
        <time>2018-12-30T13:48:10Z</time>
      </trkpt>
      <trkpt lat="44.52429" lon="1.4197">
        <ele>182</ele>
        <time>2018-12-30T13:48:16Z</time>
      </trkpt>
      <trkpt lat="44.52434" lon="1.41969">
        <ele>184.1</ele>
        <time>2018-12-30T13:48:25Z</time>
      </trkpt>
      <trkpt lat="44.52441" lon="1.41969">
        <ele>185.4</ele>
        <time>2018-12-30T13:48:28Z</time>
      </trkpt>
      <trkpt lat="44.52447" lon="1.4197">
        <ele>186.4</ele>
        <time>2018-12-30T13:48:36Z</time>
      </trkpt>
      <trkpt lat="44.5245" lon="1.41963">
        <ele>186.6</ele>
        <time>2018-12-30T13:48:42Z</time>
      </trkpt>
      <trkpt lat="44.52448" lon="1.41957">
        <ele>186.9</ele>
        <time>2018-12-30T13:48:46Z</time>
      </trkpt>
      <trkpt lat="44.52443" lon="1.41949">
        <ele>186.5</ele>
        <time>2018-12-30T13:48:52Z</time>
      </trkpt>
      <trkpt lat="44.52437" lon="1.41945">
        <ele>186.3</ele>
        <time>2018-12-30T13:48:55Z</time>
      </trkpt>
      <trkpt lat="44.52438" lon="1.41937">
        <ele>186.3</ele>
        <time>2018-12-30T13:49:04Z</time>
      </trkpt>
      <trkpt lat="44.52443" lon="1.41938">
        <ele>186.4</ele>
        <time>2018-12-30T13:49:07Z</time>
      </trkpt>
      <trkpt lat="44.52443" lon="1.4193">
        <ele>186.2</ele>
        <time>2018-12-30T13:49:16Z</time>
      </trkpt>
      <trkpt lat="44.52446" lon="1.41922">
        <ele>186</ele>
        <time>2018-12-30T13:49:22Z</time>
      </trkpt>
      <trkpt lat="44.52446" lon="1.41915">
        <ele>185.5</ele>
        <time>2018-12-30T13:49:25Z</time>
      </trkpt>
      <trkpt lat="44.52448" lon="1.41908">
        <ele>184.9</ele>
        <time>2018-12-30T13:49:31Z</time>
      </trkpt>
      <trkpt lat="44.52452" lon="1.41905">
        <ele>184.4</ele>
        <time>2018-12-30T13:49:34Z</time>
      </trkpt>
      <trkpt lat="44.5245" lon="1.41898">
        <ele>184</ele>
        <time>2018-12-30T13:49:40Z</time>
      </trkpt>
      <trkpt lat="44.52454" lon="1.41893">
        <ele>184.7</ele>
        <time>2018-12-30T13:49:46Z</time>
      </trkpt>
      <trkpt lat="44.52458" lon="1.41884">
        <ele>186.2</ele>
        <time>2018-12-30T13:49:52Z</time>
      </trkpt>
      <trkpt lat="44.52461" lon="1.41877">
        <ele>188.3</ele>
        <time>2018-12-30T13:49:58Z</time>
      </trkpt>
      <trkpt lat="44.52464" lon="1.4187">
        <ele>188.8</ele>
        <time>2018-12-30T13:50:04Z</time>
      </trkpt>
      <trkpt lat="44.52467" lon="1.41864">
        <ele>189</ele>
        <time>2018-12-30T13:50:10Z</time>
      </trkpt>
      <trkpt lat="44.52467" lon="1.41849">
        <ele>189</ele>
        <time>2018-12-30T13:50:19Z</time>
      </trkpt>
      <trkpt lat="44.5247" lon="1.41842">
        <ele>188.4</ele>
        <time>2018-12-30T13:50:25Z</time>
      </trkpt>
      <trkpt lat="44.52472" lon="1.41832">
        <ele>186.9</ele>
        <time>2018-12-30T13:50:37Z</time>
      </trkpt>
      <trkpt lat="44.52473" lon="1.41819">
        <ele>186.9</ele>
        <time>2018-12-30T13:50:46Z</time>
      </trkpt>
      <trkpt lat="44.52467" lon="1.41816">
        <ele>188</ele>
        <time>2018-12-30T13:50:49Z</time>
      </trkpt>
      <trkpt lat="44.5247" lon="1.41808">
        <ele>188.8</ele>
        <time>2018-12-30T13:50:55Z</time>
      </trkpt>
      <trkpt lat="44.52471" lon="1.41799">
        <ele>189.4</ele>
        <time>2018-12-30T13:51:01Z</time>
      </trkpt>
      <trkpt lat="44.52477" lon="1.41794">
        <ele>190.9</ele>
        <time>2018-12-30T13:51:04Z</time>
      </trkpt>
      <trkpt lat="44.52485" lon="1.41794">
        <ele>192.4</ele>
        <time>2018-12-30T13:51:07Z</time>
      </trkpt>
      <trkpt lat="44.52492" lon="1.41792">
        <ele>193.4</ele>
        <time>2018-12-30T13:51:10Z</time>
      </trkpt>
      <trkpt lat="44.52489" lon="1.41784">
        <ele>193.4</ele>
        <time>2018-12-30T13:51:16Z</time>
      </trkpt>
      <trkpt lat="44.52491" lon="1.41775">
        <ele>192.4</ele>
        <time>2018-12-30T13:51:21Z</time>
      </trkpt>
      <trkpt lat="44.52497" lon="1.41768">
        <ele>190.9</ele>
        <time>2018-12-30T13:51:28Z</time>
      </trkpt>
      <trkpt lat="44.525" lon="1.41761">
        <ele>190</ele>
        <time>2018-12-30T13:51:34Z</time>
      </trkpt>
      <trkpt lat="44.52493" lon="1.41759">
        <ele>189.5</ele>
        <time>2018-12-30T13:51:40Z</time>
      </trkpt>
      <trkpt lat="44.52491" lon="1.41746">
        <ele>190</ele>
        <time>2018-12-30T13:51:49Z</time>
      </trkpt>
      <trkpt lat="44.52494" lon="1.4174">
        <ele>191.5</ele>
        <time>2018-12-30T13:51:55Z</time>
      </trkpt>
      <trkpt lat="44.52501" lon="1.41734">
        <ele>192.1</ele>
        <time>2018-12-30T13:52:01Z</time>
      </trkpt>
      <trkpt lat="44.525" lon="1.41728">
        <ele>191.4</ele>
        <time>2018-12-30T13:52:04Z</time>
      </trkpt>
      <trkpt lat="44.52501" lon="1.41721">
        <ele>189.9</ele>
        <time>2018-12-30T13:52:09Z</time>
      </trkpt>
      <trkpt lat="44.52499" lon="1.41715">
        <ele>188.8</ele>
        <time>2018-12-30T13:52:21Z</time>
      </trkpt>
      <trkpt lat="44.52499" lon="1.41707">
        <ele>188</ele>
        <time>2018-12-30T13:52:25Z</time>
      </trkpt>
      <trkpt lat="44.52487" lon="1.41698">
        <ele>188</ele>
        <time>2018-12-30T13:52:28Z</time>
      </trkpt>
      <trkpt lat="44.5249" lon="1.41686">
        <ele>187.5</ele>
        <time>2018-12-30T13:52:37Z</time>
      </trkpt>
      <trkpt lat="44.52497" lon="1.41683">
        <ele>187.2</ele>
        <time>2018-12-30T13:52:40Z</time>
      </trkpt>
      <trkpt lat="44.52497" lon="1.41672">
        <ele>186.1</ele>
        <time>2018-12-30T13:52:52Z</time>
      </trkpt>
      <trkpt lat="44.52503" lon="1.41668">
        <ele>185.4</ele>
        <time>2018-12-30T13:52:58Z</time>
      </trkpt>
      <trkpt lat="44.525" lon="1.41656">
        <ele>185.1</ele>
        <time>2018-12-30T13:53:07Z</time>
      </trkpt>
      <trkpt lat="44.52499" lon="1.41644">
        <ele>185.7</ele>
        <time>2018-12-30T13:53:10Z</time>
      </trkpt>
      <trkpt lat="44.52505" lon="1.41646">
        <ele>187.4</ele>
        <time>2018-12-30T13:53:13Z</time>
      </trkpt>
      <trkpt lat="44.5251" lon="1.41645">
        <ele>189.8</ele>
        <time>2018-12-30T13:53:16Z</time>
      </trkpt>
      <trkpt lat="44.52515" lon="1.41639">
        <ele>192.8</ele>
        <time>2018-12-30T13:53:19Z</time>
      </trkpt>
      <trkpt lat="44.52517" lon="1.41632">
        <ele>194.1</ele>
        <time>2018-12-30T13:53:25Z</time>
      </trkpt>
      <trkpt lat="44.52523" lon="1.41625">
        <ele>194.2</ele>
        <time>2018-12-30T13:53:31Z</time>
      </trkpt>
      <trkpt lat="44.52525" lon="1.41618">
        <ele>193.9</ele>
        <time>2018-12-30T13:53:34Z</time>
      </trkpt>
      <trkpt lat="44.5253" lon="1.41617">
        <ele>193.4</ele>
        <time>2018-12-30T13:53:40Z</time>
      </trkpt>
      <trkpt lat="44.52522" lon="1.41615">
        <ele>191.2</ele>
        <time>2018-12-30T13:53:46Z</time>
      </trkpt>
      <trkpt lat="44.52529" lon="1.41611">
        <ele>189.2</ele>
        <time>2018-12-30T13:53:52Z</time>
      </trkpt>
      <trkpt lat="44.52534" lon="1.41606">
        <ele>188.1</ele>
        <time>2018-12-30T13:53:55Z</time>
      </trkpt>
      <trkpt lat="44.52538" lon="1.41604">
        <ele>187</ele>
        <time>2018-12-30T13:53:58Z</time>
      </trkpt>
      <trkpt lat="44.52543" lon="1.41604">
        <ele>186.5</ele>
        <time>2018-12-30T13:54:04Z</time>
      </trkpt>
      <trkpt lat="44.52541" lon="1.41597">
        <ele>185.7</ele>
        <time>2018-12-30T13:54:10Z</time>
      </trkpt>
      <trkpt lat="44.52543" lon="1.41581">
        <ele>185.4</ele>
        <time>2018-12-30T13:54:16Z</time>
      </trkpt>
      <trkpt lat="44.52545" lon="1.41574">
        <ele>185.2</ele>
        <time>2018-12-30T13:54:19Z</time>
      </trkpt>
      <trkpt lat="44.52552" lon="1.4157">
        <ele>185.2</ele>
        <time>2018-12-30T13:54:25Z</time>
      </trkpt>
      <trkpt lat="44.52558" lon="1.41572">
        <ele>183.7</ele>
        <time>2018-12-30T13:54:40Z</time>
      </trkpt>
      <trkpt lat="44.52562" lon="1.4157">
        <ele>182.3</ele>
        <time>2018-12-30T13:54:43Z</time>
      </trkpt>
      <trkpt lat="44.52558" lon="1.41566">
        <ele>180.7</ele>
        <time>2018-12-30T13:54:52Z</time>
      </trkpt>
      <trkpt lat="44.52564" lon="1.41558">
        <ele>179.5</ele>
        <time>2018-12-30T13:54:58Z</time>
      </trkpt>
      <trkpt lat="44.52573" lon="1.41553">
        <ele>178.2</ele>
        <time>2018-12-30T13:55:04Z</time>
      </trkpt>
      <trkpt lat="44.52576" lon="1.41546">
        <ele>176.9</ele>
        <time>2018-12-30T13:55:22Z</time>
      </trkpt>
      <trkpt lat="44.52578" lon="1.4154">
        <ele>176.3</ele>
        <time>2018-12-30T13:55:37Z</time>
      </trkpt>
      <trkpt lat="44.52583" lon="1.41535">
        <ele>176</ele>
        <time>2018-12-30T13:55:46Z</time>
      </trkpt>
      <trkpt lat="44.52596" lon="1.41525">
        <ele>175</ele>
        <time>2018-12-30T13:55:49Z</time>
      </trkpt>
      <trkpt lat="44.52599" lon="1.41516">
        <ele>173.3</ele>
        <time>2018-12-30T13:55:52Z</time>
      </trkpt>
      <trkpt lat="44.52601" lon="1.41508">
        <ele>172.9</ele>
        <time>2018-12-30T13:55:55Z</time>
      </trkpt>
      <trkpt lat="44.52604" lon="1.41502">
        <ele>172.5</ele>
        <time>2018-12-30T13:55:58Z</time>
      </trkpt>
      <trkpt lat="44.52606" lon="1.41496">
        <ele>172.3</ele>
        <time>2018-12-30T13:56:01Z</time>
      </trkpt>
      <trkpt lat="44.52611" lon="1.41495">
        <ele>172.6</ele>
        <time>2018-12-30T13:56:04Z</time>
      </trkpt>
      <trkpt lat="44.5261" lon="1.41487">
        <ele>173.2</ele>
        <time>2018-12-30T13:56:13Z</time>
      </trkpt>
      <trkpt lat="44.52612" lon="1.41478">
        <ele>174.7</ele>
        <time>2018-12-30T13:56:16Z</time>
      </trkpt>
      <trkpt lat="44.52617" lon="1.4147">
        <ele>176.5</ele>
        <time>2018-12-30T13:56:19Z</time>
      </trkpt>
      <trkpt lat="44.52625" lon="1.41466">
        <ele>178.6</ele>
        <time>2018-12-30T13:56:25Z</time>
      </trkpt>
      <trkpt lat="44.52631" lon="1.41463">
        <ele>180.9</ele>
        <time>2018-12-30T13:56:28Z</time>
      </trkpt>
      <trkpt lat="44.52638" lon="1.41461">
        <ele>183.1</ele>
        <time>2018-12-30T13:56:37Z</time>
      </trkpt>
      <trkpt lat="44.52641" lon="1.41456">
        <ele>185.1</ele>
        <time>2018-12-30T13:56:40Z</time>
      </trkpt>
      <trkpt lat="44.52644" lon="1.41448">
        <ele>187</ele>
        <time>2018-12-30T13:56:43Z</time>
      </trkpt>
      <trkpt lat="44.52641" lon="1.4144">
        <ele>188.9</ele>
        <time>2018-12-30T13:56:46Z</time>
      </trkpt>
      <trkpt lat="44.52646" lon="1.41438">
        <ele>190.8</ele>
        <time>2018-12-30T13:56:52Z</time>
      </trkpt>
      <trkpt lat="44.52645" lon="1.41424">
        <ele>191.9</ele>
        <time>2018-12-30T13:57:01Z</time>
      </trkpt>
      <trkpt lat="44.52648" lon="1.41417">
        <ele>191.1</ele>
        <time>2018-12-30T13:57:07Z</time>
      </trkpt>
      <trkpt lat="44.52646" lon="1.4141">
        <ele>189.6</ele>
        <time>2018-12-30T13:57:10Z</time>
      </trkpt>
      <trkpt lat="44.5264" lon="1.41405">
        <ele>188.1</ele>
        <time>2018-12-30T13:57:13Z</time>
      </trkpt>
      <trkpt lat="44.52646" lon="1.41398">
        <ele>185.8</ele>
        <time>2018-12-30T13:57:19Z</time>
      </trkpt>
      <trkpt lat="44.52643" lon="1.41392">
        <ele>184</ele>
        <time>2018-12-30T13:57:22Z</time>
      </trkpt>
      <trkpt lat="44.52646" lon="1.41388">
        <ele>183.2</ele>
        <time>2018-12-30T13:57:28Z</time>
      </trkpt>
      <trkpt lat="44.52649" lon="1.41382">
        <ele>182.9</ele>
        <time>2018-12-30T13:57:31Z</time>
      </trkpt>
      <trkpt lat="44.52658" lon="1.41376">
        <ele>182.2</ele>
        <time>2018-12-30T13:57:37Z</time>
      </trkpt>
      <trkpt lat="44.52662" lon="1.4137">
        <ele>181.7</ele>
        <time>2018-12-30T13:57:46Z</time>
      </trkpt>
      <trkpt lat="44.52666" lon="1.41365">
        <ele>180.6</ele>
        <time>2018-12-30T13:57:49Z</time>
      </trkpt>
      <trkpt lat="44.52669" lon="1.41358">
        <ele>179.5</ele>
        <time>2018-12-30T13:57:52Z</time>
      </trkpt>
      <trkpt lat="44.52672" lon="1.41354">
        <ele>178.6</ele>
        <time>2018-12-30T13:57:55Z</time>
      </trkpt>
      <trkpt lat="44.52677" lon="1.41347">
        <ele>178</ele>
        <time>2018-12-30T13:57:58Z</time>
      </trkpt>
      <trkpt lat="44.52679" lon="1.4134">
        <ele>178.1</ele>
        <time>2018-12-30T13:58:01Z</time>
      </trkpt>
      <trkpt lat="44.52674" lon="1.41334">
        <ele>178.8</ele>
        <time>2018-12-30T13:58:04Z</time>
      </trkpt>
      <trkpt lat="44.52677" lon="1.41326">
        <ele>179.4</ele>
        <time>2018-12-30T13:58:13Z</time>
      </trkpt>
      <trkpt lat="44.52682" lon="1.41318">
        <ele>179.4</ele>
        <time>2018-12-30T13:58:19Z</time>
      </trkpt>
      <trkpt lat="44.52685" lon="1.4131">
        <ele>179.3</ele>
        <time>2018-12-30T13:58:25Z</time>
      </trkpt>
      <trkpt lat="44.5269" lon="1.41309">
        <ele>178.8</ele>
        <time>2018-12-30T13:58:28Z</time>
      </trkpt>
      <trkpt lat="44.52693" lon="1.41305">
        <ele>178.6</ele>
        <time>2018-12-30T13:58:31Z</time>
      </trkpt>
      <trkpt lat="44.52697" lon="1.413">
        <ele>178.3</ele>
        <time>2018-12-30T13:58:34Z</time>
      </trkpt>
      <trkpt lat="44.52702" lon="1.41297">
        <ele>178.4</ele>
        <time>2018-12-30T13:58:37Z</time>
      </trkpt>
      <trkpt lat="44.52693" lon="1.41288">
        <ele>178.8</ele>
        <time>2018-12-30T13:58:43Z</time>
      </trkpt>
      <trkpt lat="44.52691" lon="1.41281">
        <ele>178.8</ele>
        <time>2018-12-30T13:58:46Z</time>
      </trkpt>
      <trkpt lat="44.52692" lon="1.41275">
        <ele>178</ele>
        <time>2018-12-30T13:58:52Z</time>
      </trkpt>
      <trkpt lat="44.52695" lon="1.41267">
        <ele>177.1</ele>
        <time>2018-12-30T13:58:58Z</time>
      </trkpt>
      <trkpt lat="44.52694" lon="1.41259">
        <ele>175.5</ele>
        <time>2018-12-30T13:59:01Z</time>
      </trkpt>
      <trkpt lat="44.52699" lon="1.4125">
        <ele>173.7</ele>
        <time>2018-12-30T13:59:07Z</time>
      </trkpt>
      <trkpt lat="44.52699" lon="1.41243">
        <ele>172.2</ele>
        <time>2018-12-30T13:59:10Z</time>
      </trkpt>
      <trkpt lat="44.52705" lon="1.41232">
        <ele>171.2</ele>
        <time>2018-12-30T13:59:16Z</time>
      </trkpt>
      <trkpt lat="44.52707" lon="1.41224">
        <ele>170</ele>
        <time>2018-12-30T13:59:22Z</time>
      </trkpt>
      <trkpt lat="44.52713" lon="1.41217">
        <ele>169.6</ele>
        <time>2018-12-30T13:59:28Z</time>
      </trkpt>
      <trkpt lat="44.52714" lon="1.41209">
        <ele>170.2</ele>
        <time>2018-12-30T13:59:34Z</time>
      </trkpt>
      <trkpt lat="44.52717" lon="1.41202">
        <ele>172.1</ele>
        <time>2018-12-30T13:59:40Z</time>
      </trkpt>
      <trkpt lat="44.5272" lon="1.41192">
        <ele>173.5</ele>
        <time>2018-12-30T13:59:46Z</time>
      </trkpt>
      <trkpt lat="44.5272" lon="1.41181">
        <ele>175.5</ele>
        <time>2018-12-30T13:59:49Z</time>
      </trkpt>
      <trkpt lat="44.5272" lon="1.41171">
        <ele>177.6</ele>
        <time>2018-12-30T13:59:52Z</time>
      </trkpt>
      <trkpt lat="44.52726" lon="1.41169">
        <ele>178.8</ele>
        <time>2018-12-30T14:00:01Z</time>
      </trkpt>
      <trkpt lat="44.52726" lon="1.41161">
        <ele>178.4</ele>
        <time>2018-12-30T14:00:07Z</time>
      </trkpt>
      <trkpt lat="44.52725" lon="1.41154">
        <ele>177.3</ele>
        <time>2018-12-30T14:00:10Z</time>
      </trkpt>
      <trkpt lat="44.52724" lon="1.41147">
        <ele>175.9</ele>
        <time>2018-12-30T14:00:13Z</time>
      </trkpt>
      <trkpt lat="44.52728" lon="1.41139">
        <ele>174.3</ele>
        <time>2018-12-30T14:00:16Z</time>
      </trkpt>
      <trkpt lat="44.52729" lon="1.41133">
        <ele>173</ele>
        <time>2018-12-30T14:00:19Z</time>
      </trkpt>
      <trkpt lat="44.52727" lon="1.41123">
        <ele>172.6</ele>
        <time>2018-12-30T14:00:27Z</time>
      </trkpt>
      <trkpt lat="44.52732" lon="1.41118">
        <ele>173.6</ele>
        <time>2018-12-30T14:00:33Z</time>
      </trkpt>
      <trkpt lat="44.52728" lon="1.41105">
        <ele>175.1</ele>
        <time>2018-12-30T14:00:42Z</time>
      </trkpt>
      <trkpt lat="44.52732" lon="1.41098">
        <ele>176.2</ele>
        <time>2018-12-30T14:00:45Z</time>
      </trkpt>
      <trkpt lat="44.52735" lon="1.41089">
        <ele>176.9</ele>
        <time>2018-12-30T14:00:48Z</time>
      </trkpt>
      <trkpt lat="44.52737" lon="1.4108">
        <ele>176.9</ele>
        <time>2018-12-30T14:00:54Z</time>
      </trkpt>
      <trkpt lat="44.52737" lon="1.41065">
        <ele>176.4</ele>
        <time>2018-12-30T14:01:03Z</time>
      </trkpt>
      <trkpt lat="44.52732" lon="1.41059">
        <ele>175.6</ele>
        <time>2018-12-30T14:01:09Z</time>
      </trkpt>
      <trkpt lat="44.52736" lon="1.41055">
        <ele>175.2</ele>
        <time>2018-12-30T14:01:12Z</time>
      </trkpt>
      <trkpt lat="44.52737" lon="1.41046">
        <ele>174.6</ele>
        <time>2018-12-30T14:01:18Z</time>
      </trkpt>
      <trkpt lat="44.52743" lon="1.41041">
        <ele>173.5</ele>
        <time>2018-12-30T14:01:24Z</time>
      </trkpt>
      <trkpt lat="44.5274" lon="1.41036">
        <ele>172.5</ele>
        <time>2018-12-30T14:01:27Z</time>
      </trkpt>
      <trkpt lat="44.52743" lon="1.41028">
        <ele>172</ele>
        <time>2018-12-30T14:01:32Z</time>
      </trkpt>
      <trkpt lat="44.52748" lon="1.41021">
        <ele>171.7</ele>
        <time>2018-12-30T14:01:36Z</time>
      </trkpt>
      <trkpt lat="44.52752" lon="1.41015">
        <ele>172</ele>
        <time>2018-12-30T14:01:42Z</time>
      </trkpt>
      <trkpt lat="44.52758" lon="1.41012">
        <ele>173.6</ele>
        <time>2018-12-30T14:01:45Z</time>
      </trkpt>
      <trkpt lat="44.5276" lon="1.41006">
        <ele>175.2</ele>
        <time>2018-12-30T14:01:51Z</time>
      </trkpt>
      <trkpt lat="44.52758" lon="1.40993">
        <ele>176.5</ele>
        <time>2018-12-30T14:01:57Z</time>
      </trkpt>
      <trkpt lat="44.52769" lon="1.40989">
        <ele>177.9</ele>
        <time>2018-12-30T14:02:03Z</time>
      </trkpt>
      <trkpt lat="44.52776" lon="1.40991">
        <ele>179.7</ele>
        <time>2018-12-30T14:02:09Z</time>
      </trkpt>
      <trkpt lat="44.52782" lon="1.40985">
        <ele>181</ele>
        <time>2018-12-30T14:02:15Z</time>
      </trkpt>
      <trkpt lat="44.52787" lon="1.40977">
        <ele>181.6</ele>
        <time>2018-12-30T14:02:21Z</time>
      </trkpt>
      <trkpt lat="44.52791" lon="1.40971">
        <ele>182.5</ele>
        <time>2018-12-30T14:02:29Z</time>
      </trkpt>
      <trkpt lat="44.52796" lon="1.40971">
        <ele>182.3</ele>
        <time>2018-12-30T14:02:33Z</time>
      </trkpt>
      <trkpt lat="44.52804" lon="1.4096">
        <ele>180.8</ele>
        <time>2018-12-30T14:02:39Z</time>
      </trkpt>
      <trkpt lat="44.52809" lon="1.40956">
        <ele>178.7</ele>
        <time>2018-12-30T14:02:45Z</time>
      </trkpt>
      <trkpt lat="44.52813" lon="1.40949">
        <ele>177.4</ele>
        <time>2018-12-30T14:02:53Z</time>
      </trkpt>
      <trkpt lat="44.52818" lon="1.40944">
        <ele>175.8</ele>
        <time>2018-12-30T14:03:00Z</time>
      </trkpt>
      <trkpt lat="44.52824" lon="1.40942">
        <ele>174.8</ele>
        <time>2018-12-30T14:03:06Z</time>
      </trkpt>
      <trkpt lat="44.52831" lon="1.40934">
        <ele>174.3</ele>
        <time>2018-12-30T14:03:15Z</time>
      </trkpt>
      <trkpt lat="44.52833" lon="1.40925">
        <ele>174.6</ele>
        <time>2018-12-30T14:03:21Z</time>
      </trkpt>
      <trkpt lat="44.5284" lon="1.4092">
        <ele>173.9</ele>
        <time>2018-12-30T14:03:27Z</time>
      </trkpt>
      <trkpt lat="44.52846" lon="1.40915">
        <ele>172.6</ele>
        <time>2018-12-30T14:03:33Z</time>
      </trkpt>
      <trkpt lat="44.52845" lon="1.40907">
        <ele>172.1</ele>
        <time>2018-12-30T14:03:39Z</time>
      </trkpt>
      <trkpt lat="44.52852" lon="1.40905">
        <ele>171.4</ele>
        <time>2018-12-30T14:03:42Z</time>
      </trkpt>
      <trkpt lat="44.52855" lon="1.40898">
        <ele>170.4</ele>
        <time>2018-12-30T14:03:48Z</time>
      </trkpt>
      <trkpt lat="44.5286" lon="1.40891">
        <ele>170.2</ele>
        <time>2018-12-30T14:03:54Z</time>
      </trkpt>
      <trkpt lat="44.52868" lon="1.40886">
        <ele>170.4</ele>
        <time>2018-12-30T14:04:00Z</time>
      </trkpt>
      <trkpt lat="44.52873" lon="1.40885">
        <ele>170.3</ele>
        <time>2018-12-30T14:04:06Z</time>
      </trkpt>
      <trkpt lat="44.52881" lon="1.40887">
        <ele>170.6</ele>
        <time>2018-12-30T14:04:12Z</time>
      </trkpt>
      <trkpt lat="44.52883" lon="1.40879">
        <ele>170.5</ele>
        <time>2018-12-30T14:04:15Z</time>
      </trkpt>
      <trkpt lat="44.52888" lon="1.40876">
        <ele>170</ele>
        <time>2018-12-30T14:04:20Z</time>
      </trkpt>
      <trkpt lat="44.52892" lon="1.40872">
        <ele>169.3</ele>
        <time>2018-12-30T14:04:24Z</time>
      </trkpt>
      <trkpt lat="44.529" lon="1.40869">
        <ele>168.8</ele>
        <time>2018-12-30T14:04:30Z</time>
      </trkpt>
      <trkpt lat="44.52895" lon="1.40867">
        <ele>169</ele>
        <time>2018-12-30T14:04:47Z</time>
      </trkpt>
      <trkpt lat="44.5289" lon="1.40881">
        <ele>170.7</ele>
        <time>2018-12-30T14:07:00Z</time>
      </trkpt>
      <trkpt lat="44.52887" lon="1.40899">
        <ele>173.6</ele>
        <time>2018-12-30T14:07:06Z</time>
      </trkpt>
      <trkpt lat="44.52881" lon="1.40913">
        <ele>177.1</ele>
        <time>2018-12-30T14:07:12Z</time>
      </trkpt>
      <trkpt lat="44.52884" lon="1.40926">
        <ele>180.3</ele>
        <time>2018-12-30T14:07:18Z</time>
      </trkpt>
      <trkpt lat="44.52889" lon="1.40934">
        <ele>183.1</ele>
        <time>2018-12-30T14:07:24Z</time>
      </trkpt>
      <trkpt lat="44.52883" lon="1.40933">
        <ele>185</ele>
        <time>2018-12-30T14:07:33Z</time>
      </trkpt>
      <trkpt lat="44.52879" lon="1.40936">
        <ele>186.2</ele>
        <time>2018-12-30T14:07:41Z</time>
      </trkpt>
      <trkpt lat="44.5288" lon="1.40945">
        <ele>186.7</ele>
        <time>2018-12-30T14:07:51Z</time>
      </trkpt>
      <trkpt lat="44.52876" lon="1.40949">
        <ele>188.4</ele>
        <time>2018-12-30T14:07:59Z</time>
      </trkpt>
      <trkpt lat="44.52874" lon="1.40956">
        <ele>190.3</ele>
        <time>2018-12-30T14:08:03Z</time>
      </trkpt>
      <trkpt lat="44.5287" lon="1.40961">
        <ele>192.1</ele>
        <time>2018-12-30T14:08:11Z</time>
      </trkpt>
      <trkpt lat="44.5287" lon="1.40969">
        <ele>192.5</ele>
        <time>2018-12-30T14:08:15Z</time>
      </trkpt>
      <trkpt lat="44.52874" lon="1.40969">
        <ele>193.5</ele>
        <time>2018-12-30T14:08:27Z</time>
      </trkpt>
      <trkpt lat="44.52874" lon="1.40976">
        <ele>194.3</ele>
        <time>2018-12-30T14:08:33Z</time>
      </trkpt>
      <trkpt lat="44.52869" lon="1.40975">
        <ele>194.9</ele>
        <time>2018-12-30T14:08:39Z</time>
      </trkpt>
      <trkpt lat="44.5287" lon="1.40982">
        <ele>194.1</ele>
        <time>2018-12-30T14:08:45Z</time>
      </trkpt>
      <trkpt lat="44.52866" lon="1.40987">
        <ele>193.1</ele>
        <time>2018-12-30T14:08:51Z</time>
      </trkpt>
      <trkpt lat="44.52863" lon="1.40991">
        <ele>191.5</ele>
        <time>2018-12-30T14:09:06Z</time>
      </trkpt>
      <trkpt lat="44.52861" lon="1.41">
        <ele>188.3</ele>
        <time>2018-12-30T14:09:12Z</time>
      </trkpt>
      <trkpt lat="44.52861" lon="1.41007">
        <ele>185.2</ele>
        <time>2018-12-30T14:09:24Z</time>
      </trkpt>
      <trkpt lat="44.52858" lon="1.41019">
        <ele>185.6</ele>
        <time>2018-12-30T14:09:39Z</time>
      </trkpt>
      <trkpt lat="44.52862" lon="1.41023">
        <ele>188.9</ele>
        <time>2018-12-30T14:09:47Z</time>
      </trkpt>
      <trkpt lat="44.52857" lon="1.41028">
        <ele>193</ele>
        <time>2018-12-30T14:09:54Z</time>
      </trkpt>
      <trkpt lat="44.52857" lon="1.41036">
        <ele>198.7</ele>
        <time>2018-12-30T14:09:57Z</time>
      </trkpt>
      <trkpt lat="44.52853" lon="1.41044">
        <ele>204.9</ele>
        <time>2018-12-30T14:10:09Z</time>
      </trkpt>
      <trkpt lat="44.52853" lon="1.41056">
        <ele>209.5</ele>
        <time>2018-12-30T14:10:27Z</time>
      </trkpt>
      <trkpt lat="44.52852" lon="1.41067">
        <ele>211.4</ele>
        <time>2018-12-30T14:10:33Z</time>
      </trkpt>
      <trkpt lat="44.52855" lon="1.41073">
        <ele>212.1</ele>
        <time>2018-12-30T14:10:41Z</time>
      </trkpt>
      <trkpt lat="44.52852" lon="1.41078">
        <ele>212.2</ele>
        <time>2018-12-30T14:10:51Z</time>
      </trkpt>
      <trkpt lat="44.5285" lon="1.41085">
        <ele>212.6</ele>
        <time>2018-12-30T14:10:59Z</time>
      </trkpt>
      <trkpt lat="44.5285" lon="1.41093">
        <ele>212.8</ele>
        <time>2018-12-30T14:11:03Z</time>
      </trkpt>
      <trkpt lat="44.52849" lon="1.41106">
        <ele>214.2</ele>
        <time>2018-12-30T14:11:15Z</time>
      </trkpt>
      <trkpt lat="44.52856" lon="1.41114">
        <ele>217.3</ele>
        <time>2018-12-30T14:11:27Z</time>
      </trkpt>
      <trkpt lat="44.52855" lon="1.41121">
        <ele>220.3</ele>
        <time>2018-12-30T14:11:35Z</time>
      </trkpt>
      <trkpt lat="44.52851" lon="1.41127">
        <ele>221.8</ele>
        <time>2018-12-30T14:11:41Z</time>
      </trkpt>
      <trkpt lat="44.52849" lon="1.41134">
        <ele>223</ele>
        <time>2018-12-30T14:11:45Z</time>
      </trkpt>
      <trkpt lat="44.52842" lon="1.41133">
        <ele>223.8</ele>
        <time>2018-12-30T14:11:51Z</time>
      </trkpt>
      <trkpt lat="44.52844" lon="1.41142">
        <ele>224.2</ele>
        <time>2018-12-30T14:11:57Z</time>
      </trkpt>
      <trkpt lat="44.52848" lon="1.4115">
        <ele>225.1</ele>
        <time>2018-12-30T14:12:03Z</time>
      </trkpt>
      <trkpt lat="44.52849" lon="1.41157">
        <ele>226.8</ele>
        <time>2018-12-30T14:12:11Z</time>
      </trkpt>
      <trkpt lat="44.52854" lon="1.41158">
        <ele>228.5</ele>
        <time>2018-12-30T14:12:17Z</time>
      </trkpt>
      <trkpt lat="44.52851" lon="1.41163">
        <ele>230.2</ele>
        <time>2018-12-30T14:12:21Z</time>
      </trkpt>
      <trkpt lat="44.52849" lon="1.41169">
        <ele>232</ele>
        <time>2018-12-30T14:12:33Z</time>
      </trkpt>
      <trkpt lat="44.52854" lon="1.41172">
        <ele>233.9</ele>
        <time>2018-12-30T14:12:47Z</time>
      </trkpt>
      <trkpt lat="44.52851" lon="1.41181">
        <ele>234.7</ele>
        <time>2018-12-30T14:15:00Z</time>
      </trkpt>
      <trkpt lat="44.52849" lon="1.41188">
        <ele>234.5</ele>
        <time>2018-12-30T14:16:50Z</time>
      </trkpt>
      <trkpt lat="44.5285" lon="1.41195">
        <ele>234</ele>
        <time>2018-12-30T14:16:56Z</time>
      </trkpt>
      <trkpt lat="44.52853" lon="1.412">
        <ele>232.8</ele>
        <time>2018-12-30T14:17:02Z</time>
      </trkpt>
      <trkpt lat="44.5285" lon="1.41208">
        <ele>230.6</ele>
        <time>2018-12-30T14:17:06Z</time>
      </trkpt>
      <trkpt lat="44.52848" lon="1.4122">
        <ele>229.9</ele>
        <time>2018-12-30T14:17:18Z</time>
      </trkpt>
      <trkpt lat="44.52849" lon="1.41227">
        <ele>231.5</ele>
        <time>2018-12-30T14:17:24Z</time>
      </trkpt>
      <trkpt lat="44.52848" lon="1.41234">
        <ele>234.1</ele>
        <time>2018-12-30T14:17:30Z</time>
      </trkpt>
      <trkpt lat="44.52847" lon="1.41242">
        <ele>237.1</ele>
        <time>2018-12-30T14:17:39Z</time>
      </trkpt>
      <trkpt lat="44.52841" lon="1.41252">
        <ele>239.6</ele>
        <time>2018-12-30T14:17:45Z</time>
      </trkpt>
      <trkpt lat="44.5284" lon="1.41262">
        <ele>240.1</ele>
        <time>2018-12-30T14:17:57Z</time>
      </trkpt>
      <trkpt lat="44.52837" lon="1.41274">
        <ele>239</ele>
        <time>2018-12-30T14:18:03Z</time>
      </trkpt>
      <trkpt lat="44.52836" lon="1.4128">
        <ele>236.9</ele>
        <time>2018-12-30T14:18:09Z</time>
      </trkpt>
      <trkpt lat="44.52834" lon="1.41287">
        <ele>234.8</ele>
        <time>2018-12-30T14:18:15Z</time>
      </trkpt>
      <trkpt lat="44.52831" lon="1.41293">
        <ele>234</ele>
        <time>2018-12-30T14:18:21Z</time>
      </trkpt>
      <trkpt lat="44.52825" lon="1.41301">
        <ele>234.4</ele>
        <time>2018-12-30T14:18:27Z</time>
      </trkpt>
      <trkpt lat="44.52825" lon="1.41308">
        <ele>235</ele>
        <time>2018-12-30T14:18:33Z</time>
      </trkpt>
      <trkpt lat="44.52825" lon="1.4132">
        <ele>235.5</ele>
        <time>2018-12-30T14:18:45Z</time>
      </trkpt>
      <trkpt lat="44.52819" lon="1.4133">
        <ele>236.1</ele>
        <time>2018-12-30T14:18:51Z</time>
      </trkpt>
      <trkpt lat="44.5282" lon="1.41336">
        <ele>236.8</ele>
        <time>2018-12-30T14:18:57Z</time>
      </trkpt>
      <trkpt lat="44.52817" lon="1.4134">
        <ele>237.8</ele>
        <time>2018-12-30T14:19:05Z</time>
      </trkpt>
      <trkpt lat="44.52813" lon="1.41347">
        <ele>239</ele>
        <time>2018-12-30T14:19:09Z</time>
      </trkpt>
      <trkpt lat="44.52814" lon="1.41355">
        <ele>241.9</ele>
        <time>2018-12-30T14:19:15Z</time>
      </trkpt>
      <trkpt lat="44.52813" lon="1.41363">
        <ele>244.7</ele>
        <time>2018-12-30T14:19:21Z</time>
      </trkpt>
      <trkpt lat="44.5281" lon="1.41371">
        <ele>248.1</ele>
        <time>2018-12-30T14:19:27Z</time>
      </trkpt>
      <trkpt lat="44.52803" lon="1.41382">
        <ele>251</ele>
        <time>2018-12-30T14:19:33Z</time>
      </trkpt>
      <trkpt lat="44.52803" lon="1.41392">
        <ele>253.5</ele>
        <time>2018-12-30T14:19:45Z</time>
      </trkpt>
      <trkpt lat="44.52802" lon="1.41403">
        <ele>255</ele>
        <time>2018-12-30T14:19:51Z</time>
      </trkpt>
      <trkpt lat="44.52803" lon="1.41411">
        <ele>255.5</ele>
        <time>2018-12-30T14:20:00Z</time>
      </trkpt>
      <trkpt lat="44.52801" lon="1.41417">
        <ele>254.3</ele>
        <time>2018-12-30T14:20:06Z</time>
      </trkpt>
      <trkpt lat="44.52798" lon="1.41424">
        <ele>253</ele>
        <time>2018-12-30T14:20:12Z</time>
      </trkpt>
      <trkpt lat="44.52795" lon="1.4143">
        <ele>254.3</ele>
        <time>2018-12-30T14:20:26Z</time>
      </trkpt>
      <trkpt lat="44.52794" lon="1.41445">
        <ele>255.5</ele>
        <time>2018-12-30T14:20:33Z</time>
      </trkpt>
      <trkpt lat="44.52795" lon="1.41455">
        <ele>256.8</ele>
        <time>2018-12-30T14:20:39Z</time>
      </trkpt>
      <trkpt lat="44.52794" lon="1.41462">
        <ele>258.6</ele>
        <time>2018-12-30T14:20:45Z</time>
      </trkpt>
      <trkpt lat="44.52795" lon="1.41468">
        <ele>260.2</ele>
        <time>2018-12-30T14:20:57Z</time>
      </trkpt>
      <trkpt lat="44.52792" lon="1.41476">
        <ele>258.6</ele>
        <time>2018-12-30T14:21:03Z</time>
      </trkpt>
      <trkpt lat="44.52793" lon="1.41485">
        <ele>257</ele>
        <time>2018-12-30T14:21:09Z</time>
      </trkpt>
      <trkpt lat="44.52799" lon="1.41495">
        <ele>256.1</ele>
        <time>2018-12-30T14:21:15Z</time>
      </trkpt>
      <trkpt lat="44.52794" lon="1.41509">
        <ele>255.5</ele>
        <time>2018-12-30T14:21:27Z</time>
      </trkpt>
      <trkpt lat="44.52791" lon="1.41521">
        <ele>254.2</ele>
        <time>2018-12-30T14:21:39Z</time>
      </trkpt>
      <trkpt lat="44.52788" lon="1.41527">
        <ele>254.9</ele>
        <time>2018-12-30T14:21:45Z</time>
      </trkpt>
      <trkpt lat="44.52787" lon="1.41533">
        <ele>254.8</ele>
        <time>2018-12-30T14:21:51Z</time>
      </trkpt>
      <trkpt lat="44.52786" lon="1.41541">
        <ele>255</ele>
        <time>2018-12-30T14:21:59Z</time>
      </trkpt>
      <trkpt lat="44.52784" lon="1.41551">
        <ele>255.7</ele>
        <time>2018-12-30T14:22:09Z</time>
      </trkpt>
      <trkpt lat="44.52788" lon="1.41557">
        <ele>257.5</ele>
        <time>2018-12-30T14:22:17Z</time>
      </trkpt>
      <trkpt lat="44.52787" lon="1.41565">
        <ele>258.4</ele>
        <time>2018-12-30T14:22:21Z</time>
      </trkpt>
      <trkpt lat="44.52791" lon="1.41568">
        <ele>260.2</ele>
        <time>2018-12-30T14:22:29Z</time>
      </trkpt>
      <trkpt lat="44.52784" lon="1.41576">
        <ele>261.6</ele>
        <time>2018-12-30T14:22:39Z</time>
      </trkpt>
      <trkpt lat="44.52779" lon="1.41583">
        <ele>262.8</ele>
        <time>2018-12-30T14:22:45Z</time>
      </trkpt>
      <trkpt lat="44.52775" lon="1.41592">
        <ele>264</ele>
        <time>2018-12-30T14:22:51Z</time>
      </trkpt>
      <trkpt lat="44.52777" lon="1.41599">
        <ele>264.4</ele>
        <time>2018-12-30T14:22:59Z</time>
      </trkpt>
      <trkpt lat="44.5277" lon="1.41606">
        <ele>263.9</ele>
        <time>2018-12-30T14:23:03Z</time>
      </trkpt>
      <trkpt lat="44.52768" lon="1.41615">
        <ele>263.9</ele>
        <time>2018-12-30T14:23:09Z</time>
      </trkpt>
      <trkpt lat="44.52765" lon="1.41621">
        <ele>263.6</ele>
        <time>2018-12-30T14:23:17Z</time>
      </trkpt>
      <trkpt lat="44.5277" lon="1.41628">
        <ele>263.9</ele>
        <time>2018-12-30T14:23:27Z</time>
      </trkpt>
      <trkpt lat="44.5277" lon="1.41641">
        <ele>265.4</ele>
        <time>2018-12-30T14:23:33Z</time>
      </trkpt>
      <trkpt lat="44.52772" lon="1.41647">
        <ele>267</ele>
        <time>2018-12-30T14:23:41Z</time>
      </trkpt>
      <trkpt lat="44.5277" lon="1.41655">
        <ele>268</ele>
        <time>2018-12-30T14:23:48Z</time>
      </trkpt>
      <trkpt lat="44.52769" lon="1.41664">
        <ele>269.3</ele>
        <time>2018-12-30T14:23:57Z</time>
      </trkpt>
      <trkpt lat="44.5277" lon="1.41672">
        <ele>269.4</ele>
        <time>2018-12-30T14:24:03Z</time>
      </trkpt>
      <trkpt lat="44.52771" lon="1.41679">
        <ele>268.7</ele>
        <time>2018-12-30T14:24:09Z</time>
      </trkpt>
      <trkpt lat="44.52773" lon="1.41693">
        <ele>267.8</ele>
        <time>2018-12-30T14:24:19Z</time>
      </trkpt>
      <trkpt lat="44.52778" lon="1.41698">
        <ele>266.9</ele>
        <time>2018-12-30T14:24:26Z</time>
      </trkpt>
      <trkpt lat="44.52776" lon="1.41707">
        <ele>264.6</ele>
        <time>2018-12-30T14:24:30Z</time>
      </trkpt>
      <trkpt lat="44.52779" lon="1.41713">
        <ele>263.4</ele>
        <time>2018-12-30T14:24:36Z</time>
      </trkpt>
      <trkpt lat="44.52782" lon="1.4172">
        <ele>263.4</ele>
        <time>2018-12-30T14:24:42Z</time>
      </trkpt>
      <trkpt lat="44.52782" lon="1.41732">
        <ele>264.5</ele>
        <time>2018-12-30T14:24:48Z</time>
      </trkpt>
      <trkpt lat="44.52786" lon="1.41737">
        <ele>265.7</ele>
        <time>2018-12-30T14:24:56Z</time>
      </trkpt>
      <trkpt lat="44.52786" lon="1.41744">
        <ele>267.5</ele>
        <time>2018-12-30T14:25:02Z</time>
      </trkpt>
      <trkpt lat="44.52788" lon="1.41753">
        <ele>269.3</ele>
        <time>2018-12-30T14:25:06Z</time>
      </trkpt>
      <trkpt lat="44.52791" lon="1.41758">
        <ele>271.7</ele>
        <time>2018-12-30T14:25:12Z</time>
      </trkpt>
      <trkpt lat="44.52796" lon="1.41754">
        <ele>272.7</ele>
        <time>2018-12-30T14:25:18Z</time>
      </trkpt>
      <trkpt lat="44.52799" lon="1.41767">
        <ele>273.7</ele>
        <time>2018-12-30T14:25:30Z</time>
      </trkpt>
      <trkpt lat="44.52803" lon="1.4177">
        <ele>274.9</ele>
        <time>2018-12-30T14:25:38Z</time>
      </trkpt>
      <trkpt lat="44.52802" lon="1.41777">
        <ele>275.8</ele>
        <time>2018-12-30T14:25:47Z</time>
      </trkpt>
      <trkpt lat="44.52799" lon="1.41783">
        <ele>276.5</ele>
        <time>2018-12-30T14:28:20Z</time>
      </trkpt>
      <trkpt lat="44.52804" lon="1.41783">
        <ele>277.9</ele>
        <time>2018-12-30T14:28:25Z</time>
      </trkpt>
      <trkpt lat="44.52807" lon="1.41788">
        <ele>279.2</ele>
        <time>2018-12-30T14:28:33Z</time>
      </trkpt>
      <trkpt lat="44.52813" lon="1.41789">
        <ele>280.3</ele>
        <time>2018-12-30T14:29:04Z</time>
      </trkpt>
      <trkpt lat="44.52816" lon="1.41793">
        <ele>281.4</ele>
        <time>2018-12-30T14:29:24Z</time>
      </trkpt>
      <trkpt lat="44.52826" lon="1.41804">
        <ele>282</ele>
        <time>2018-12-30T14:29:49Z</time>
      </trkpt>
      <trkpt lat="44.52843" lon="1.41812">
        <ele>282.3</ele>
        <time>2018-12-30T14:29:55Z</time>
      </trkpt>
      <trkpt lat="44.52847" lon="1.41814">
        <ele>282.2</ele>
        <time>2018-12-30T14:29:57Z</time>
      </trkpt>
      <trkpt lat="44.52857" lon="1.41822">
        <ele>282.4</ele>
        <time>2018-12-30T14:30:05Z</time>
      </trkpt>
      <trkpt lat="44.52861" lon="1.41826">
        <ele>282.5</ele>
        <time>2018-12-30T14:30:10Z</time>
      </trkpt>
      <trkpt lat="44.52865" lon="1.41835">
        <ele>283.3</ele>
        <time>2018-12-30T14:30:19Z</time>
      </trkpt>
      <trkpt lat="44.52869" lon="1.41841">
        <ele>283.9</ele>
        <time>2018-12-30T14:30:38Z</time>
      </trkpt>
      <trkpt lat="44.52872" lon="1.4185">
        <ele>284.8</ele>
        <time>2018-12-30T14:30:40Z</time>
      </trkpt>
      <trkpt lat="44.52875" lon="1.41859">
        <ele>285.3</ele>
        <time>2018-12-30T14:30:46Z</time>
      </trkpt>
      <trkpt lat="44.52878" lon="1.41862">
        <ele>285</ele>
        <time>2018-12-30T14:31:01Z</time>
      </trkpt>
      <trkpt lat="44.52882" lon="1.41865">
        <ele>283</ele>
        <time>2018-12-30T14:31:21Z</time>
      </trkpt>
      <trkpt lat="44.52887" lon="1.4187">
        <ele>280.7</ele>
        <time>2018-12-30T14:31:38Z</time>
      </trkpt>
      <trkpt lat="44.52893" lon="1.41868">
        <ele>277.5</ele>
        <time>2018-12-30T14:31:40Z</time>
      </trkpt>
      <trkpt lat="44.52898" lon="1.41873">
        <ele>273.9</ele>
        <time>2018-12-30T14:31:43Z</time>
      </trkpt>
      <trkpt lat="44.52899" lon="1.41884">
        <ele>270.7</ele>
        <time>2018-12-30T14:31:49Z</time>
      </trkpt>
      <trkpt lat="44.52902" lon="1.41889">
        <ele>268.6</ele>
        <time>2018-12-30T14:31:52Z</time>
      </trkpt>
      <trkpt lat="44.52908" lon="1.41892">
        <ele>267.1</ele>
        <time>2018-12-30T14:31:58Z</time>
      </trkpt>
      <trkpt lat="44.52914" lon="1.41897">
        <ele>266.6</ele>
        <time>2018-12-30T14:32:04Z</time>
      </trkpt>
      <trkpt lat="44.52918" lon="1.41905">
        <ele>266.3</ele>
        <time>2018-12-30T14:32:10Z</time>
      </trkpt>
      <trkpt lat="44.52922" lon="1.41911">
        <ele>265.7</ele>
        <time>2018-12-30T14:32:16Z</time>
      </trkpt>
      <trkpt lat="44.52923" lon="1.41918">
        <ele>265.6</ele>
        <time>2018-12-30T14:32:19Z</time>
      </trkpt>
      <trkpt lat="44.52927" lon="1.41927">
        <ele>266.1</ele>
        <time>2018-12-30T14:32:25Z</time>
      </trkpt>
      <trkpt lat="44.52935" lon="1.4193">
        <ele>267.1</ele>
        <time>2018-12-30T14:32:31Z</time>
      </trkpt>
      <trkpt lat="44.52941" lon="1.41934">
        <ele>269.5</ele>
        <time>2018-12-30T14:32:37Z</time>
      </trkpt>
      <trkpt lat="44.52946" lon="1.4194">
        <ele>271.9</ele>
        <time>2018-12-30T14:32:43Z</time>
      </trkpt>
      <trkpt lat="44.52951" lon="1.41944">
        <ele>273.4</ele>
        <time>2018-12-30T14:32:51Z</time>
      </trkpt>
      <trkpt lat="44.52953" lon="1.41951">
        <ele>273.1</ele>
        <time>2018-12-30T14:32:55Z</time>
      </trkpt>
      <trkpt lat="44.52961" lon="1.41952">
        <ele>271.8</ele>
        <time>2018-12-30T14:33:01Z</time>
      </trkpt>
      <trkpt lat="44.52964" lon="1.41958">
        <ele>270.3</ele>
        <time>2018-12-30T14:33:07Z</time>
      </trkpt>
      <trkpt lat="44.52966" lon="1.41964">
        <ele>272.1</ele>
        <time>2018-12-30T14:33:13Z</time>
      </trkpt>
      <trkpt lat="44.5297" lon="1.41971">
        <ele>274.4</ele>
        <time>2018-12-30T14:33:19Z</time>
      </trkpt>
      <trkpt lat="44.52975" lon="1.41975">
        <ele>276.9</ele>
        <time>2018-12-30T14:33:25Z</time>
      </trkpt>
      <trkpt lat="44.52979" lon="1.41985">
        <ele>279.9</ele>
        <time>2018-12-30T14:33:31Z</time>
      </trkpt>
      <trkpt lat="44.52987" lon="1.41989">
        <ele>281.9</ele>
        <time>2018-12-30T14:35:32Z</time>
      </trkpt>
      <trkpt lat="44.52984" lon="1.42002">
        <ele>280.4</ele>
        <time>2018-12-30T14:35:37Z</time>
      </trkpt>
      <trkpt lat="44.52987" lon="1.4201">
        <ele>278.9</ele>
        <time>2018-12-30T14:35:43Z</time>
      </trkpt>
      <trkpt lat="44.52991" lon="1.42016">
        <ele>277.4</ele>
        <time>2018-12-30T14:35:49Z</time>
      </trkpt>
      <trkpt lat="44.52992" lon="1.42025">
        <ele>275.9</ele>
        <time>2018-12-30T14:35:55Z</time>
      </trkpt>
      <trkpt lat="44.52994" lon="1.42035">
        <ele>275.1</ele>
        <time>2018-12-30T14:36:01Z</time>
      </trkpt>
      <trkpt lat="44.52996" lon="1.42044">
        <ele>274.7</ele>
        <time>2018-12-30T14:36:07Z</time>
      </trkpt>
      <trkpt lat="44.52997" lon="1.42051">
        <ele>274.4</ele>
        <time>2018-12-30T14:36:15Z</time>
      </trkpt>
      <trkpt lat="44.52995" lon="1.4206">
        <ele>275</ele>
        <time>2018-12-30T14:36:19Z</time>
      </trkpt>
      <trkpt lat="44.52993" lon="1.42066">
        <ele>274.7</ele>
        <time>2018-12-30T14:36:25Z</time>
      </trkpt>
      <trkpt lat="44.52989" lon="1.4207">
        <ele>274</ele>
        <time>2018-12-30T14:36:31Z</time>
      </trkpt>
      <trkpt lat="44.5299" lon="1.42077">
        <ele>272.6</ele>
        <time>2018-12-30T14:36:39Z</time>
      </trkpt>
      <trkpt lat="44.52992" lon="1.42089">
        <ele>271.7</ele>
        <time>2018-12-30T14:36:49Z</time>
      </trkpt>
      <trkpt lat="44.52991" lon="1.42104">
        <ele>270.7</ele>
        <time>2018-12-30T14:37:01Z</time>
      </trkpt>
      <trkpt lat="44.5299" lon="1.42115">
        <ele>269.9</ele>
        <time>2018-12-30T14:37:07Z</time>
      </trkpt>
      <trkpt lat="44.52984" lon="1.42123">
        <ele>268.7</ele>
        <time>2018-12-30T14:37:13Z</time>
      </trkpt>
      <trkpt lat="44.52983" lon="1.42131">
        <ele>266.3</ele>
        <time>2018-12-30T14:37:19Z</time>
      </trkpt>
      <trkpt lat="44.52981" lon="1.4214">
        <ele>264</ele>
        <time>2018-12-30T14:37:25Z</time>
      </trkpt>
      <trkpt lat="44.5298" lon="1.4215">
        <ele>262.6</ele>
        <time>2018-12-30T14:37:31Z</time>
      </trkpt>
      <trkpt lat="44.5298" lon="1.42157">
        <ele>263.6</ele>
        <time>2018-12-30T14:37:37Z</time>
      </trkpt>
      <trkpt lat="44.52977" lon="1.42173">
        <ele>266.1</ele>
        <time>2018-12-30T14:37:49Z</time>
      </trkpt>
      <trkpt lat="44.52971" lon="1.4218">
        <ele>270.8</ele>
        <time>2018-12-30T14:37:55Z</time>
      </trkpt>
      <trkpt lat="44.5297" lon="1.42188">
        <ele>275.6</ele>
        <time>2018-12-30T14:38:01Z</time>
      </trkpt>
      <trkpt lat="44.52966" lon="1.42196">
        <ele>279.2</ele>
        <time>2018-12-30T14:38:13Z</time>
      </trkpt>
      <trkpt lat="44.52965" lon="1.42206">
        <ele>281.1</ele>
        <time>2018-12-30T14:38:19Z</time>
      </trkpt>
      <trkpt lat="44.5296" lon="1.42212">
        <ele>283</ele>
        <time>2018-12-30T14:38:25Z</time>
      </trkpt>
      <trkpt lat="44.52957" lon="1.42219">
        <ele>284.6</ele>
        <time>2018-12-30T14:38:31Z</time>
      </trkpt>
      <trkpt lat="44.52952" lon="1.42229">
        <ele>285.4</ele>
        <time>2018-12-30T14:38:37Z</time>
      </trkpt>
      <trkpt lat="44.52945" lon="1.42237">
        <ele>286.3</ele>
        <time>2018-12-30T14:38:43Z</time>
      </trkpt>
      <trkpt lat="44.52942" lon="1.42244">
        <ele>287.5</ele>
        <time>2018-12-30T14:38:51Z</time>
      </trkpt>
      <trkpt lat="44.52943" lon="1.42252">
        <ele>287.1</ele>
        <time>2018-12-30T14:38:57Z</time>
      </trkpt>
      <trkpt lat="44.52942" lon="1.42258">
        <ele>285.7</ele>
        <time>2018-12-30T14:39:06Z</time>
      </trkpt>
      <trkpt lat="44.52937" lon="1.42262">
        <ele>283.9</ele>
        <time>2018-12-30T14:39:10Z</time>
      </trkpt>
      <trkpt lat="44.52932" lon="1.42265">
        <ele>282.5</ele>
        <time>2018-12-30T14:39:16Z</time>
      </trkpt>
      <trkpt lat="44.5293" lon="1.42274">
        <ele>281.5</ele>
        <time>2018-12-30T14:39:22Z</time>
      </trkpt>
      <trkpt lat="44.52927" lon="1.42281">
        <ele>281.5</ele>
        <time>2018-12-30T14:39:27Z</time>
      </trkpt>
      <trkpt lat="44.52923" lon="1.42287">
        <ele>283</ele>
        <time>2018-12-30T14:39:37Z</time>
      </trkpt>
      <trkpt lat="44.52918" lon="1.42299">
        <ele>286.6</ele>
        <time>2018-12-30T14:39:43Z</time>
      </trkpt>
      <trkpt lat="44.52915" lon="1.42304">
        <ele>290.6</ele>
        <time>2018-12-30T14:39:49Z</time>
      </trkpt>
      <trkpt lat="44.52913" lon="1.4231">
        <ele>294.2</ele>
        <time>2018-12-30T14:39:57Z</time>
      </trkpt>
      <trkpt lat="44.52908" lon="1.42314">
        <ele>298</ele>
        <time>2018-12-30T14:40:01Z</time>
      </trkpt>
      <trkpt lat="44.52903" lon="1.42315">
        <ele>301</ele>
        <time>2018-12-30T14:40:13Z</time>
      </trkpt>
      <trkpt lat="44.52908" lon="1.42324">
        <ele>301.6</ele>
        <time>2018-12-30T14:40:19Z</time>
      </trkpt>
      <trkpt lat="44.52906" lon="1.42334">
        <ele>301.1</ele>
        <time>2018-12-30T14:40:25Z</time>
      </trkpt>
      <trkpt lat="44.52904" lon="1.4234">
        <ele>299.8</ele>
        <time>2018-12-30T14:40:31Z</time>
      </trkpt>
      <trkpt lat="44.529" lon="1.4235">
        <ele>297.9</ele>
        <time>2018-12-30T14:40:37Z</time>
      </trkpt>
      <trkpt lat="44.52896" lon="1.42352">
        <ele>296.3</ele>
        <time>2018-12-30T14:40:43Z</time>
      </trkpt>
      <trkpt lat="44.52892" lon="1.42356">
        <ele>295.6</ele>
        <time>2018-12-30T14:40:49Z</time>
      </trkpt>
      <trkpt lat="44.52893" lon="1.42367">
        <ele>294.9</ele>
        <time>2018-12-30T14:40:55Z</time>
      </trkpt>
      <trkpt lat="44.52892" lon="1.42375">
        <ele>295.5</ele>
        <time>2018-12-30T14:41:01Z</time>
      </trkpt>
      <trkpt lat="44.52886" lon="1.42378">
        <ele>297.4</ele>
        <time>2018-12-30T14:41:07Z</time>
      </trkpt>
      <trkpt lat="44.5288" lon="1.42379">
        <ele>299.8</ele>
        <time>2018-12-30T14:41:13Z</time>
      </trkpt>
      <trkpt lat="44.52876" lon="1.42385">
        <ele>302</ele>
        <time>2018-12-30T14:41:19Z</time>
      </trkpt>
      <trkpt lat="44.52871" lon="1.42388">
        <ele>302.5</ele>
        <time>2018-12-30T14:41:25Z</time>
      </trkpt>
      <trkpt lat="44.52876" lon="1.42401">
        <ele>301.4</ele>
        <time>2018-12-30T14:41:34Z</time>
      </trkpt>
      <trkpt lat="44.52873" lon="1.42406">
        <ele>298.6</ele>
        <time>2018-12-30T14:41:40Z</time>
      </trkpt>
      <trkpt lat="44.52872" lon="1.42412">
        <ele>295.9</ele>
        <time>2018-12-30T14:41:48Z</time>
      </trkpt>
      <trkpt lat="44.5287" lon="1.42419">
        <ele>293.4</ele>
        <time>2018-12-30T14:41:58Z</time>
      </trkpt>
      <trkpt lat="44.52865" lon="1.42427">
        <ele>293.8</ele>
        <time>2018-12-30T14:42:04Z</time>
      </trkpt>
      <trkpt lat="44.52862" lon="1.42434">
        <ele>296</ele>
        <time>2018-12-30T14:42:09Z</time>
      </trkpt>
      <trkpt lat="44.52861" lon="1.4244">
        <ele>298.4</ele>
        <time>2018-12-30T14:42:15Z</time>
      </trkpt>
      <trkpt lat="44.52856" lon="1.42442">
        <ele>299.7</ele>
        <time>2018-12-30T14:42:21Z</time>
      </trkpt>
      <trkpt lat="44.52853" lon="1.42448">
        <ele>300.8</ele>
        <time>2018-12-30T14:42:27Z</time>
      </trkpt>
      <trkpt lat="44.52848" lon="1.4245">
        <ele>300.4</ele>
        <time>2018-12-30T14:42:33Z</time>
      </trkpt>
      <trkpt lat="44.52843" lon="1.42465">
        <ele>298.7</ele>
        <time>2018-12-30T14:42:43Z</time>
      </trkpt>
      <trkpt lat="44.52843" lon="1.42471">
        <ele>298.5</ele>
        <time>2018-12-30T14:42:49Z</time>
      </trkpt>
      <trkpt lat="44.52841" lon="1.42479">
        <ele>299</ele>
        <time>2018-12-30T14:42:58Z</time>
      </trkpt>
      <trkpt lat="44.52837" lon="1.42485">
        <ele>299.9</ele>
        <time>2018-12-30T14:43:06Z</time>
      </trkpt>
      <trkpt lat="44.52835" lon="1.42494">
        <ele>301.3</ele>
        <time>2018-12-30T14:43:10Z</time>
      </trkpt>
      <trkpt lat="44.52834" lon="1.42501">
        <ele>303.3</ele>
        <time>2018-12-30T14:43:18Z</time>
      </trkpt>
      <trkpt lat="44.52831" lon="1.42508">
        <ele>304.5</ele>
        <time>2018-12-30T14:43:24Z</time>
      </trkpt>
      <trkpt lat="44.52835" lon="1.42515">
        <ele>304.6</ele>
        <time>2018-12-30T14:43:28Z</time>
      </trkpt>
      <trkpt lat="44.52837" lon="1.42522">
        <ele>303.8</ele>
        <time>2018-12-30T14:43:34Z</time>
      </trkpt>
      <trkpt lat="44.52835" lon="1.4253">
        <ele>303.4</ele>
        <time>2018-12-30T14:43:37Z</time>
      </trkpt>
      <trkpt lat="44.52833" lon="1.4254">
        <ele>303.9</ele>
        <time>2018-12-30T14:43:46Z</time>
      </trkpt>
      <trkpt lat="44.52833" lon="1.42547">
        <ele>304.3</ele>
        <time>2018-12-30T14:43:52Z</time>
      </trkpt>
      <trkpt lat="44.52833" lon="1.42556">
        <ele>305</ele>
        <time>2018-12-30T14:43:58Z</time>
      </trkpt>
      <trkpt lat="44.52829" lon="1.42562">
        <ele>306.3</ele>
        <time>2018-12-30T14:44:10Z</time>
      </trkpt>
      <trkpt lat="44.52828" lon="1.4257">
        <ele>307.8</ele>
        <time>2018-12-30T14:44:16Z</time>
      </trkpt>
      <trkpt lat="44.52823" lon="1.42579">
        <ele>308.1</ele>
        <time>2018-12-30T14:44:22Z</time>
      </trkpt>
      <trkpt lat="44.52823" lon="1.4259">
        <ele>307.6</ele>
        <time>2018-12-30T14:44:31Z</time>
      </trkpt>
      <trkpt lat="44.52823" lon="1.42598">
        <ele>306.5</ele>
        <time>2018-12-30T14:44:37Z</time>
      </trkpt>
      <trkpt lat="44.52824" lon="1.42609">
        <ele>304.7</ele>
        <time>2018-12-30T14:44:43Z</time>
      </trkpt>
      <trkpt lat="44.52824" lon="1.42616">
        <ele>303.8</ele>
        <time>2018-12-30T14:44:48Z</time>
      </trkpt>
      <trkpt lat="44.52821" lon="1.42625">
        <ele>303.2</ele>
        <time>2018-12-30T14:44:52Z</time>
      </trkpt>
      <trkpt lat="44.52821" lon="1.42636">
        <ele>302.4</ele>
        <time>2018-12-30T14:44:58Z</time>
      </trkpt>
      <trkpt lat="44.52822" lon="1.42645">
        <ele>301.6</ele>
        <time>2018-12-30T14:45:04Z</time>
      </trkpt>
      <trkpt lat="44.52817" lon="1.42652">
        <ele>302</ele>
        <time>2018-12-30T14:45:19Z</time>
      </trkpt>
      <trkpt lat="44.52819" lon="1.42659">
        <ele>301.6</ele>
        <time>2018-12-30T14:45:25Z</time>
      </trkpt>
      <trkpt lat="44.52815" lon="1.42666">
        <ele>302</ele>
        <time>2018-12-30T14:45:31Z</time>
      </trkpt>
      <trkpt lat="44.52816" lon="1.42673">
        <ele>303.7</ele>
        <time>2018-12-30T14:45:42Z</time>
      </trkpt>
      <trkpt lat="44.52811" lon="1.42681">
        <ele>305.8</ele>
        <time>2018-12-30T14:45:46Z</time>
      </trkpt>
      <trkpt lat="44.52807" lon="1.42686">
        <ele>308</ele>
        <time>2018-12-30T14:45:58Z</time>
      </trkpt>
      <trkpt lat="44.52801" lon="1.42693">
        <ele>309.1</ele>
        <time>2018-12-30T14:46:04Z</time>
      </trkpt>
      <trkpt lat="44.52798" lon="1.42699">
        <ele>309.4</ele>
        <time>2018-12-30T14:46:09Z</time>
      </trkpt>
      <trkpt lat="44.52792" lon="1.42702">
        <ele>308.7</ele>
        <time>2018-12-30T14:46:19Z</time>
      </trkpt>
      <trkpt lat="44.52788" lon="1.42711">
        <ele>308.5</ele>
        <time>2018-12-30T14:46:25Z</time>
      </trkpt>
      <trkpt lat="44.52786" lon="1.42717">
        <ele>307.7</ele>
        <time>2018-12-30T14:46:31Z</time>
      </trkpt>
      <trkpt lat="44.52786" lon="1.42724">
        <ele>306.3</ele>
        <time>2018-12-30T14:46:37Z</time>
      </trkpt>
      <trkpt lat="44.52783" lon="1.4273">
        <ele>304.1</ele>
        <time>2018-12-30T14:46:43Z</time>
      </trkpt>
      <trkpt lat="44.52775" lon="1.42734">
        <ele>301.4</ele>
        <time>2018-12-30T14:46:55Z</time>
      </trkpt>
      <trkpt lat="44.5277" lon="1.42735">
        <ele>299.5</ele>
        <time>2018-12-30T14:47:03Z</time>
      </trkpt>
      <trkpt lat="44.52768" lon="1.42741">
        <ele>297.9</ele>
        <time>2018-12-30T14:47:09Z</time>
      </trkpt>
      <trkpt lat="44.52768" lon="1.42748">
        <ele>296.3</ele>
        <time>2018-12-30T14:47:13Z</time>
      </trkpt>
      <trkpt lat="44.52767" lon="1.42757">
        <ele>295.4</ele>
        <time>2018-12-30T14:47:19Z</time>
      </trkpt>
      <trkpt lat="44.52762" lon="1.42763">
        <ele>295.7</ele>
        <time>2018-12-30T14:47:25Z</time>
      </trkpt>
      <trkpt lat="44.52758" lon="1.42766">
        <ele>295.7</ele>
        <time>2018-12-30T14:47:31Z</time>
      </trkpt>
      <trkpt lat="44.52755" lon="1.42771">
        <ele>296.4</ele>
        <time>2018-12-30T14:47:37Z</time>
      </trkpt>
      <trkpt lat="44.52753" lon="1.42782">
        <ele>298.7</ele>
        <time>2018-12-30T14:47:43Z</time>
      </trkpt>
      <trkpt lat="44.5275" lon="1.42787">
        <ele>301.5</ele>
        <time>2018-12-30T14:47:48Z</time>
      </trkpt>
      <trkpt lat="44.52746" lon="1.42794">
        <ele>303.9</ele>
        <time>2018-12-30T14:47:58Z</time>
      </trkpt>
      <trkpt lat="44.52743" lon="1.42799">
        <ele>305.7</ele>
        <time>2018-12-30T14:48:17Z</time>
      </trkpt>
      <trkpt lat="44.52737" lon="1.42804">
        <ele>305.8</ele>
        <time>2018-12-30T14:48:34Z</time>
      </trkpt>
      <trkpt lat="44.52732" lon="1.42808">
        <ele>304.5</ele>
        <time>2018-12-30T14:48:39Z</time>
      </trkpt>
      <trkpt lat="44.52724" lon="1.42817">
        <ele>303.4</ele>
        <time>2018-12-30T14:48:43Z</time>
      </trkpt>
      <trkpt lat="44.52716" lon="1.42825">
        <ele>302.6</ele>
        <time>2018-12-30T14:48:49Z</time>
      </trkpt>
      <trkpt lat="44.52714" lon="1.42833">
        <ele>302.2</ele>
        <time>2018-12-30T14:48:55Z</time>
      </trkpt>
      <trkpt lat="44.52715" lon="1.42843">
        <ele>303.8</ele>
        <time>2018-12-30T14:49:01Z</time>
      </trkpt>
      <trkpt lat="44.52713" lon="1.42853">
        <ele>306.5</ele>
        <time>2018-12-30T14:49:07Z</time>
      </trkpt>
      <trkpt lat="44.5271" lon="1.42862">
        <ele>309.3</ele>
        <time>2018-12-30T14:49:13Z</time>
      </trkpt>
      <trkpt lat="44.52699" lon="1.42871">
        <ele>312</ele>
        <time>2018-12-30T14:49:25Z</time>
      </trkpt>
      <trkpt lat="44.52695" lon="1.42882">
        <ele>314.4</ele>
        <time>2018-12-30T14:49:31Z</time>
      </trkpt>
      <trkpt lat="44.52693" lon="1.42889">
        <ele>316.4</ele>
        <time>2018-12-30T14:49:39Z</time>
      </trkpt>
      <trkpt lat="44.5269" lon="1.429">
        <ele>317.9</ele>
        <time>2018-12-30T14:49:43Z</time>
      </trkpt>
      <trkpt lat="44.52683" lon="1.42904">
        <ele>319.1</ele>
        <time>2018-12-30T14:49:49Z</time>
      </trkpt>
      <trkpt lat="44.52679" lon="1.42909">
        <ele>320.2</ele>
        <time>2018-12-30T14:49:55Z</time>
      </trkpt>
      <trkpt lat="44.52682" lon="1.42917">
        <ele>319.9</ele>
        <time>2018-12-30T14:50:04Z</time>
      </trkpt>
      <trkpt lat="44.52683" lon="1.42926">
        <ele>318.7</ele>
        <time>2018-12-30T14:50:10Z</time>
      </trkpt>
      <trkpt lat="44.52677" lon="1.4293">
        <ele>317</ele>
        <time>2018-12-30T14:50:13Z</time>
      </trkpt>
      <trkpt lat="44.52672" lon="1.42934">
        <ele>315</ele>
        <time>2018-12-30T14:50:16Z</time>
      </trkpt>
      <trkpt lat="44.52665" lon="1.42942">
        <ele>312.5</ele>
        <time>2018-12-30T14:50:28Z</time>
      </trkpt>
      <trkpt lat="44.52662" lon="1.42948">
        <ele>310.9</ele>
        <time>2018-12-30T14:50:33Z</time>
      </trkpt>
      <trkpt lat="44.52665" lon="1.42955">
        <ele>310.2</ele>
        <time>2018-12-30T14:50:43Z</time>
      </trkpt>
      <trkpt lat="44.52663" lon="1.42961">
        <ele>309.5</ele>
        <time>2018-12-30T14:50:49Z</time>
      </trkpt>
      <trkpt lat="44.52661" lon="1.42968">
        <ele>309</ele>
        <time>2018-12-30T14:50:55Z</time>
      </trkpt>
      <trkpt lat="44.52657" lon="1.42976">
        <ele>308.9</ele>
        <time>2018-12-30T14:51:01Z</time>
      </trkpt>
      <trkpt lat="44.52653" lon="1.42986">
        <ele>309.4</ele>
        <time>2018-12-30T14:51:07Z</time>
      </trkpt>
      <trkpt lat="44.52653" lon="1.42999">
        <ele>309.3</ele>
        <time>2018-12-30T14:51:25Z</time>
      </trkpt>
      <trkpt lat="44.52649" lon="1.43004">
        <ele>309.4</ele>
        <time>2018-12-30T14:51:30Z</time>
      </trkpt>
      <trkpt lat="44.52644" lon="1.43006">
        <ele>309</ele>
        <time>2018-12-30T14:51:36Z</time>
      </trkpt>
      <trkpt lat="44.52643" lon="1.43014">
        <ele>308.8</ele>
        <time>2018-12-30T14:51:49Z</time>
      </trkpt>
      <trkpt lat="44.52642" lon="1.43022">
        <ele>309.1</ele>
        <time>2018-12-30T14:51:55Z</time>
      </trkpt>
      <trkpt lat="44.52645" lon="1.43028">
        <ele>310.5</ele>
        <time>2018-12-30T14:52:01Z</time>
      </trkpt>
      <trkpt lat="44.52646" lon="1.43037">
        <ele>312.4</ele>
        <time>2018-12-30T14:52:07Z</time>
      </trkpt>
      <trkpt lat="44.52648" lon="1.43046">
        <ele>314.8</ele>
        <time>2018-12-30T14:52:13Z</time>
      </trkpt>
      <trkpt lat="44.52645" lon="1.43054">
        <ele>316.9</ele>
        <time>2018-12-30T14:52:19Z</time>
      </trkpt>
      <trkpt lat="44.52645" lon="1.43062">
        <ele>318</ele>
        <time>2018-12-30T14:52:25Z</time>
      </trkpt>
      <trkpt lat="44.52645" lon="1.43071">
        <ele>318.3</ele>
        <time>2018-12-30T14:52:31Z</time>
      </trkpt>
      <trkpt lat="44.52646" lon="1.43079">
        <ele>317.5</ele>
        <time>2018-12-30T14:52:37Z</time>
      </trkpt>
      <trkpt lat="44.52645" lon="1.43085">
        <ele>316.2</ele>
        <time>2018-12-30T14:52:42Z</time>
      </trkpt>
      <trkpt lat="44.52649" lon="1.43089">
        <ele>314.6</ele>
        <time>2018-12-30T14:52:46Z</time>
      </trkpt>
      <trkpt lat="44.52654" lon="1.43093">
        <ele>313.2</ele>
        <time>2018-12-30T14:52:52Z</time>
      </trkpt>
      <trkpt lat="44.52653" lon="1.43104">
        <ele>312</ele>
        <time>2018-12-30T14:53:04Z</time>
      </trkpt>
      <trkpt lat="44.52652" lon="1.43111">
        <ele>312.5</ele>
        <time>2018-12-30T14:53:10Z</time>
      </trkpt>
      <trkpt lat="44.52656" lon="1.43117">
        <ele>313.7</ele>
        <time>2018-12-30T14:53:16Z</time>
      </trkpt>
      <trkpt lat="44.52653" lon="1.43123">
        <ele>314.9</ele>
        <time>2018-12-30T14:53:22Z</time>
      </trkpt>
      <trkpt lat="44.5266" lon="1.43133">
        <ele>315.6</ele>
        <time>2018-12-30T14:53:28Z</time>
      </trkpt>
      <trkpt lat="44.52658" lon="1.4314">
        <ele>316.1</ele>
        <time>2018-12-30T14:53:39Z</time>
      </trkpt>
      <trkpt lat="44.52656" lon="1.43148">
        <ele>315.8</ele>
        <time>2018-12-30T14:53:43Z</time>
      </trkpt>
      <trkpt lat="44.52659" lon="1.43154">
        <ele>315.7</ele>
        <time>2018-12-30T14:53:49Z</time>
      </trkpt>
      <trkpt lat="44.52656" lon="1.43159">
        <ele>317.1</ele>
        <time>2018-12-30T14:54:32Z</time>
      </trkpt>
      <trkpt lat="44.52665" lon="1.43165">
        <ele>319.7</ele>
        <time>2018-12-30T14:55:13Z</time>
      </trkpt>
      <trkpt lat="44.5267" lon="1.43176">
        <ele>321.8</ele>
        <time>2018-12-30T14:55:19Z</time>
      </trkpt>
      <trkpt lat="44.5267" lon="1.43193">
        <ele>324.1</ele>
        <time>2018-12-30T14:55:25Z</time>
      </trkpt>
      <trkpt lat="44.52672" lon="1.43208">
        <ele>325.5</ele>
        <time>2018-12-30T14:55:31Z</time>
      </trkpt>
      <trkpt lat="44.5267" lon="1.4322">
        <ele>326.4</ele>
        <time>2018-12-30T14:55:43Z</time>
      </trkpt>
      <trkpt lat="44.52669" lon="1.43228">
        <ele>327.1</ele>
        <time>2018-12-30T14:55:51Z</time>
      </trkpt>
      <trkpt lat="44.52672" lon="1.43235">
        <ele>328.5</ele>
        <time>2018-12-30T14:55:57Z</time>
      </trkpt>
      <trkpt lat="44.52672" lon="1.43241">
        <ele>329.1</ele>
        <time>2018-12-30T14:56:03Z</time>
      </trkpt>
      <trkpt lat="44.52675" lon="1.43247">
        <ele>329.6</ele>
        <time>2018-12-30T14:56:07Z</time>
      </trkpt>
      <trkpt lat="44.52676" lon="1.43255">
        <ele>329.3</ele>
        <time>2018-12-30T14:56:13Z</time>
      </trkpt>
      <trkpt lat="44.52683" lon="1.43264">
        <ele>328.4</ele>
        <time>2018-12-30T14:56:19Z</time>
      </trkpt>
      <trkpt lat="44.52688" lon="1.43272">
        <ele>327.1</ele>
        <time>2018-12-30T14:56:25Z</time>
      </trkpt>
      <trkpt lat="44.52684" lon="1.4328">
        <ele>325.6</ele>
        <time>2018-12-30T14:56:31Z</time>
      </trkpt>
      <trkpt lat="44.52686" lon="1.43291">
        <ele>322.8</ele>
        <time>2018-12-30T14:56:37Z</time>
      </trkpt>
      <trkpt lat="44.52687" lon="1.43297">
        <ele>319.5</ele>
        <time>2018-12-30T14:56:43Z</time>
      </trkpt>
      <trkpt lat="44.52688" lon="1.43303">
        <ele>315.6</ele>
        <time>2018-12-30T14:56:49Z</time>
      </trkpt>
      <trkpt lat="44.52692" lon="1.43308">
        <ele>312.7</ele>
        <time>2018-12-30T14:56:55Z</time>
      </trkpt>
      <trkpt lat="44.52698" lon="1.43318">
        <ele>311.2</ele>
        <time>2018-12-30T14:57:07Z</time>
      </trkpt>
      <trkpt lat="44.52701" lon="1.43329">
        <ele>312.1</ele>
        <time>2018-12-30T14:57:13Z</time>
      </trkpt>
      <trkpt lat="44.52698" lon="1.4334">
        <ele>314.4</ele>
        <time>2018-12-30T14:57:19Z</time>
      </trkpt>
      <trkpt lat="44.52697" lon="1.43353">
        <ele>317.1</ele>
        <time>2018-12-30T14:57:25Z</time>
      </trkpt>
      <trkpt lat="44.52697" lon="1.4336">
        <ele>319.1</ele>
        <time>2018-12-30T14:57:30Z</time>
      </trkpt>
      <trkpt lat="44.52699" lon="1.43369">
        <ele>320.8</ele>
        <time>2018-12-30T14:57:34Z</time>
      </trkpt>
      <trkpt lat="44.52703" lon="1.43374">
        <ele>321.4</ele>
        <time>2018-12-30T14:57:40Z</time>
      </trkpt>
      <trkpt lat="44.52709" lon="1.4338">
        <ele>321.5</ele>
        <time>2018-12-30T14:57:46Z</time>
      </trkpt>
      <trkpt lat="44.52717" lon="1.43386">
        <ele>321.3</ele>
        <time>2018-12-30T14:57:52Z</time>
      </trkpt>
      <trkpt lat="44.52721" lon="1.4339">
        <ele>320.2</ele>
        <time>2018-12-30T14:57:58Z</time>
      </trkpt>
      <trkpt lat="44.52719" lon="1.43396">
        <ele>318.5</ele>
        <time>2018-12-30T14:58:06Z</time>
      </trkpt>
      <trkpt lat="44.52721" lon="1.43405">
        <ele>317.1</ele>
        <time>2018-12-30T14:58:12Z</time>
      </trkpt>
      <trkpt lat="44.52726" lon="1.43411">
        <ele>316.2</ele>
        <time>2018-12-30T14:58:16Z</time>
      </trkpt>
      <trkpt lat="44.52733" lon="1.4342">
        <ele>316.5</ele>
        <time>2018-12-30T14:58:22Z</time>
      </trkpt>
      <trkpt lat="44.52735" lon="1.43426">
        <ele>317.3</ele>
        <time>2018-12-30T14:58:30Z</time>
      </trkpt>
      <trkpt lat="44.5274" lon="1.43429">
        <ele>318.2</ele>
        <time>2018-12-30T14:58:34Z</time>
      </trkpt>
      <trkpt lat="44.52737" lon="1.4344">
        <ele>318.8</ele>
        <time>2018-12-30T14:58:40Z</time>
      </trkpt>
      <trkpt lat="44.5274" lon="1.43452">
        <ele>318.6</ele>
        <time>2018-12-30T14:58:46Z</time>
      </trkpt>
      <trkpt lat="44.52746" lon="1.4345">
        <ele>317.9</ele>
        <time>2018-12-30T14:58:52Z</time>
      </trkpt>
      <trkpt lat="44.52748" lon="1.43458">
        <ele>317.1</ele>
        <time>2018-12-30T14:59:00Z</time>
      </trkpt>
      <trkpt lat="44.52749" lon="1.43472">
        <ele>317.3</ele>
        <time>2018-12-30T14:59:04Z</time>
      </trkpt>
      <trkpt lat="44.52754" lon="1.43477">
        <ele>318.8</ele>
        <time>2018-12-30T14:59:10Z</time>
      </trkpt>
      <trkpt lat="44.52758" lon="1.43484">
        <ele>320.3</ele>
        <time>2018-12-30T14:59:15Z</time>
      </trkpt>
      <trkpt lat="44.52757" lon="1.43495">
        <ele>320.7</ele>
        <time>2018-12-30T14:59:25Z</time>
      </trkpt>
      <trkpt lat="44.5276" lon="1.43501">
        <ele>321.2</ele>
        <time>2018-12-30T14:59:31Z</time>
      </trkpt>
      <trkpt lat="44.52762" lon="1.43508">
        <ele>321.2</ele>
        <time>2018-12-30T14:59:39Z</time>
      </trkpt>
      <trkpt lat="44.52769" lon="1.43517">
        <ele>320.4</ele>
        <time>2018-12-30T14:59:46Z</time>
      </trkpt>
      <trkpt lat="44.52777" lon="1.43523">
        <ele>319.9</ele>
        <time>2018-12-30T14:59:52Z</time>
      </trkpt>
      <trkpt lat="44.52776" lon="1.43531">
        <ele>321</ele>
        <time>2018-12-30T15:00:01Z</time>
      </trkpt>
      <trkpt lat="44.52783" lon="1.43538">
        <ele>322.6</ele>
        <time>2018-12-30T15:00:07Z</time>
      </trkpt>
      <trkpt lat="44.52781" lon="1.43546">
        <ele>323.8</ele>
        <time>2018-12-30T15:00:10Z</time>
      </trkpt>
      <trkpt lat="44.52781" lon="1.43558">
        <ele>324.5</ele>
        <time>2018-12-30T15:00:16Z</time>
      </trkpt>
      <trkpt lat="44.52783" lon="1.43571">
        <ele>323.9</ele>
        <time>2018-12-30T15:00:22Z</time>
      </trkpt>
      <trkpt lat="44.52787" lon="1.43576">
        <ele>322.5</ele>
        <time>2018-12-30T15:00:25Z</time>
      </trkpt>
      <trkpt lat="44.52793" lon="1.43582">
        <ele>321.2</ele>
        <time>2018-12-30T15:00:31Z</time>
      </trkpt>
      <trkpt lat="44.52799" lon="1.43584">
        <ele>320.7</ele>
        <time>2018-12-30T15:00:37Z</time>
      </trkpt>
      <trkpt lat="44.52802" lon="1.43597">
        <ele>321.4</ele>
        <time>2018-12-30T15:00:49Z</time>
      </trkpt>
      <trkpt lat="44.52799" lon="1.43605">
        <ele>323.7</ele>
        <time>2018-12-30T15:01:26Z</time>
      </trkpt>
      <trkpt lat="44.52795" lon="1.4361">
        <ele>326.6</ele>
        <time>2018-12-30T15:01:31Z</time>
      </trkpt>
      <trkpt lat="44.52792" lon="1.43628">
        <ele>328.8</ele>
        <time>2018-12-30T15:01:43Z</time>
      </trkpt>
      <trkpt lat="44.52789" lon="1.43617">
        <ele>330.5</ele>
        <time>2018-12-30T15:01:49Z</time>
      </trkpt>
      <trkpt lat="44.52782" lon="1.43612">
        <ele>330.8</ele>
        <time>2018-12-30T15:01:52Z</time>
      </trkpt>
      <trkpt lat="44.52777" lon="1.43613">
        <ele>330.5</ele>
        <time>2018-12-30T15:01:55Z</time>
      </trkpt>
      <trkpt lat="44.5278" lon="1.43622">
        <ele>329.1</ele>
        <time>2018-12-30T15:02:01Z</time>
      </trkpt>
      <trkpt lat="44.52774" lon="1.43623">
        <ele>328.1</ele>
        <time>2018-12-30T15:02:07Z</time>
      </trkpt>
      <trkpt lat="44.52765" lon="1.43628">
        <ele>326.9</ele>
        <time>2018-12-30T15:02:13Z</time>
      </trkpt>
      <trkpt lat="44.5276" lon="1.43627">
        <ele>326.2</ele>
        <time>2018-12-30T15:02:18Z</time>
      </trkpt>
      <trkpt lat="44.52755" lon="1.43631">
        <ele>325.3</ele>
        <time>2018-12-30T15:02:30Z</time>
      </trkpt>
      <trkpt lat="44.52749" lon="1.43631">
        <ele>324.4</ele>
        <time>2018-12-30T15:02:34Z</time>
      </trkpt>
      <trkpt lat="44.52744" lon="1.43624">
        <ele>323.1</ele>
        <time>2018-12-30T15:02:37Z</time>
      </trkpt>
      <trkpt lat="44.52736" lon="1.43631">
        <ele>321.7</ele>
        <time>2018-12-30T15:02:43Z</time>
      </trkpt>
      <trkpt lat="44.5273" lon="1.43633">
        <ele>319.9</ele>
        <time>2018-12-30T15:02:49Z</time>
      </trkpt>
      <trkpt lat="44.52725" lon="1.43636">
        <ele>317.6</ele>
        <time>2018-12-30T15:02:55Z</time>
      </trkpt>
      <trkpt lat="44.52717" lon="1.43643">
        <ele>316.6</ele>
        <time>2018-12-30T15:03:01Z</time>
      </trkpt>
      <trkpt lat="44.52716" lon="1.43652">
        <ele>316.2</ele>
        <time>2018-12-30T15:03:07Z</time>
      </trkpt>
      <trkpt lat="44.52716" lon="1.4366">
        <ele>317</ele>
        <time>2018-12-30T15:03:10Z</time>
      </trkpt>
      <trkpt lat="44.5271" lon="1.4366">
        <ele>318</ele>
        <time>2018-12-30T15:03:15Z</time>
      </trkpt>
      <trkpt lat="44.52708" lon="1.43667">
        <ele>319.7</ele>
        <time>2018-12-30T15:03:24Z</time>
      </trkpt>
      <trkpt lat="44.527" lon="1.43669">
        <ele>321.3</ele>
        <time>2018-12-30T15:03:28Z</time>
      </trkpt>
      <trkpt lat="44.52696" lon="1.43675">
        <ele>323.1</ele>
        <time>2018-12-30T15:03:33Z</time>
      </trkpt>
      <trkpt lat="44.5269" lon="1.43675">
        <ele>324.3</ele>
        <time>2018-12-30T15:03:43Z</time>
      </trkpt>
      <trkpt lat="44.5268" lon="1.43676">
        <ele>325.9</ele>
        <time>2018-12-30T15:03:52Z</time>
      </trkpt>
      <trkpt lat="44.52675" lon="1.4368">
        <ele>327.2</ele>
        <time>2018-12-30T15:03:55Z</time>
      </trkpt>
      <trkpt lat="44.52668" lon="1.43681">
        <ele>327.5</ele>
        <time>2018-12-30T15:04:01Z</time>
      </trkpt>
      <trkpt lat="44.5266" lon="1.43682">
        <ele>326.6</ele>
        <time>2018-12-30T15:04:07Z</time>
      </trkpt>
      <trkpt lat="44.52655" lon="1.43689">
        <ele>324.5</ele>
        <time>2018-12-30T15:04:13Z</time>
      </trkpt>
      <trkpt lat="44.52653" lon="1.43697">
        <ele>322.2</ele>
        <time>2018-12-30T15:04:22Z</time>
      </trkpt>
      <trkpt lat="44.52647" lon="1.43695">
        <ele>319.9</ele>
        <time>2018-12-30T15:04:28Z</time>
      </trkpt>
      <trkpt lat="44.5264" lon="1.43702">
        <ele>317.5</ele>
        <time>2018-12-30T15:04:37Z</time>
      </trkpt>
      <trkpt lat="44.52633" lon="1.43708">
        <ele>316.3</ele>
        <time>2018-12-30T15:04:46Z</time>
      </trkpt>
      <trkpt lat="44.52629" lon="1.43713">
        <ele>316.1</ele>
        <time>2018-12-30T15:04:51Z</time>
      </trkpt>
      <trkpt lat="44.52625" lon="1.43723">
        <ele>316.3</ele>
        <time>2018-12-30T15:04:55Z</time>
      </trkpt>
      <trkpt lat="44.52619" lon="1.43726">
        <ele>316.2</ele>
        <time>2018-12-30T15:05:01Z</time>
      </trkpt>
      <trkpt lat="44.52613" lon="1.43725">
        <ele>316.3</ele>
        <time>2018-12-30T15:05:07Z</time>
      </trkpt>
      <trkpt lat="44.52605" lon="1.43721">
        <ele>316.5</ele>
        <time>2018-12-30T15:05:13Z</time>
      </trkpt>
      <trkpt lat="44.52597" lon="1.43722">
        <ele>317.3</ele>
        <time>2018-12-30T15:05:25Z</time>
      </trkpt>
      <trkpt lat="44.52589" lon="1.43726">
        <ele>318.3</ele>
        <time>2018-12-30T15:05:31Z</time>
      </trkpt>
      <trkpt lat="44.52584" lon="1.43731">
        <ele>319.3</ele>
        <time>2018-12-30T15:05:37Z</time>
      </trkpt>
      <trkpt lat="44.52575" lon="1.43741">
        <ele>320.9</ele>
        <time>2018-12-30T15:05:46Z</time>
      </trkpt>
      <trkpt lat="44.52574" lon="1.43747">
        <ele>322.1</ele>
        <time>2018-12-30T15:05:52Z</time>
      </trkpt>
      <trkpt lat="44.52568" lon="1.43753">
        <ele>321.6</ele>
        <time>2018-12-30T15:06:01Z</time>
      </trkpt>
      <trkpt lat="44.52561" lon="1.43758">
        <ele>320.5</ele>
        <time>2018-12-30T15:06:07Z</time>
      </trkpt>
      <trkpt lat="44.52557" lon="1.43763">
        <ele>319</ele>
        <time>2018-12-30T15:06:13Z</time>
      </trkpt>
      <trkpt lat="44.52549" lon="1.4376">
        <ele>316.8</ele>
        <time>2018-12-30T15:06:19Z</time>
      </trkpt>
      <trkpt lat="44.52544" lon="1.43759">
        <ele>314.2</ele>
        <time>2018-12-30T15:06:27Z</time>
      </trkpt>
      <trkpt lat="44.52546" lon="1.43769">
        <ele>311.7</ele>
        <time>2018-12-30T15:06:31Z</time>
      </trkpt>
      <trkpt lat="44.52541" lon="1.4377">
        <ele>309.4</ele>
        <time>2018-12-30T15:06:36Z</time>
      </trkpt>
      <trkpt lat="44.52537" lon="1.43776">
        <ele>307.2</ele>
        <time>2018-12-30T15:06:40Z</time>
      </trkpt>
      <trkpt lat="44.52533" lon="1.43777">
        <ele>304.9</ele>
        <time>2018-12-30T15:06:43Z</time>
      </trkpt>
      <trkpt lat="44.52527" lon="1.43779">
        <ele>303.3</ele>
        <time>2018-12-30T15:06:51Z</time>
      </trkpt>
      <trkpt lat="44.52521" lon="1.43785">
        <ele>303</ele>
        <time>2018-12-30T15:06:55Z</time>
      </trkpt>
      <trkpt lat="44.52522" lon="1.43808">
        <ele>302.8</ele>
        <time>2018-12-30T15:07:04Z</time>
      </trkpt>
      <trkpt lat="44.52516" lon="1.43806">
        <ele>302.3</ele>
        <time>2018-12-30T15:07:13Z</time>
      </trkpt>
      <trkpt lat="44.52511" lon="1.43806">
        <ele>302.2</ele>
        <time>2018-12-30T15:07:16Z</time>
      </trkpt>
      <trkpt lat="44.52502" lon="1.43803">
        <ele>300.5</ele>
        <time>2018-12-30T15:07:22Z</time>
      </trkpt>
      <trkpt lat="44.52498" lon="1.43795">
        <ele>297.5</ele>
        <time>2018-12-30T15:07:28Z</time>
      </trkpt>
      <trkpt lat="44.5249" lon="1.43791">
        <ele>294.8</ele>
        <time>2018-12-30T15:07:34Z</time>
      </trkpt>
      <trkpt lat="44.52484" lon="1.4378">
        <ele>293.8</ele>
        <time>2018-12-30T15:07:40Z</time>
      </trkpt>
      <trkpt lat="44.52483" lon="1.43769">
        <ele>292.9</ele>
        <time>2018-12-30T15:07:49Z</time>
      </trkpt>
      <trkpt lat="44.52476" lon="1.43767">
        <ele>292.8</ele>
        <time>2018-12-30T15:07:55Z</time>
      </trkpt>
      <trkpt lat="44.52471" lon="1.4377">
        <ele>294.3</ele>
        <time>2018-12-30T15:07:58Z</time>
      </trkpt>
      <trkpt lat="44.52466" lon="1.43766">
        <ele>294.9</ele>
        <time>2018-12-30T15:08:04Z</time>
      </trkpt>
      <trkpt lat="44.52462" lon="1.43762">
        <ele>295.1</ele>
        <time>2018-12-30T15:08:10Z</time>
      </trkpt>
      <trkpt lat="44.52457" lon="1.43773">
        <ele>295.5</ele>
        <time>2018-12-30T15:08:13Z</time>
      </trkpt>
      <trkpt lat="44.52452" lon="1.43772">
        <ele>296</ele>
        <time>2018-12-30T15:08:27Z</time>
      </trkpt>
      <trkpt lat="44.5245" lon="1.43767">
        <ele>295.4</ele>
        <time>2018-12-30T15:08:31Z</time>
      </trkpt>
      <trkpt lat="44.52443" lon="1.4376">
        <ele>294.2</ele>
        <time>2018-12-30T15:08:37Z</time>
      </trkpt>
      <trkpt lat="44.52437" lon="1.4376">
        <ele>291.5</ele>
        <time>2018-12-30T15:08:40Z</time>
      </trkpt>
      <trkpt lat="44.52431" lon="1.43761">
        <ele>287.7</ele>
        <time>2018-12-30T15:08:46Z</time>
      </trkpt>
      <trkpt lat="44.52426" lon="1.43761">
        <ele>282.7</ele>
        <time>2018-12-30T15:08:55Z</time>
      </trkpt>
      <trkpt lat="44.52421" lon="1.43762">
        <ele>278.1</ele>
        <time>2018-12-30T15:09:01Z</time>
      </trkpt>
      <trkpt lat="44.52415" lon="1.43763">
        <ele>274.2</ele>
        <time>2018-12-30T15:09:10Z</time>
      </trkpt>
      <trkpt lat="44.52413" lon="1.43769">
        <ele>271</ele>
        <time>2018-12-30T15:09:53Z</time>
      </trkpt>
      <trkpt lat="44.52406" lon="1.43767">
        <ele>268.1</ele>
        <time>2018-12-30T15:11:37Z</time>
      </trkpt>
      <trkpt lat="44.52403" lon="1.43759">
        <ele>266.4</ele>
        <time>2018-12-30T15:11:43Z</time>
      </trkpt>
      <trkpt lat="44.52402" lon="1.43752">
        <ele>264.9</ele>
        <time>2018-12-30T15:11:52Z</time>
      </trkpt>
      <trkpt lat="44.52394" lon="1.43751">
        <ele>264.8</ele>
        <time>2018-12-30T15:12:11Z</time>
      </trkpt>
      <trkpt lat="44.52387" lon="1.43755">
        <ele>265.7</ele>
        <time>2018-12-30T15:12:16Z</time>
      </trkpt>
      <trkpt lat="44.52376" lon="1.43751">
        <ele>266.7</ele>
        <time>2018-12-30T15:12:25Z</time>
      </trkpt>
      <trkpt lat="44.52371" lon="1.43746">
        <ele>267.1</ele>
        <time>2018-12-30T15:12:28Z</time>
      </trkpt>
      <trkpt lat="44.52366" lon="1.4374">
        <ele>267.1</ele>
        <time>2018-12-30T15:12:34Z</time>
      </trkpt>
      <trkpt lat="44.5236" lon="1.43734">
        <ele>265.3</ele>
        <time>2018-12-30T15:12:40Z</time>
      </trkpt>
      <trkpt lat="44.52351" lon="1.43734">
        <ele>263</ele>
        <time>2018-12-30T15:12:43Z</time>
      </trkpt>
      <trkpt lat="44.52345" lon="1.43734">
        <ele>260.7</ele>
        <time>2018-12-30T15:12:49Z</time>
      </trkpt>
      <trkpt lat="44.52341" lon="1.43729">
        <ele>258.1</ele>
        <time>2018-12-30T15:12:58Z</time>
      </trkpt>
      <trkpt lat="44.5234" lon="1.43722">
        <ele>256</ele>
        <time>2018-12-30T15:13:04Z</time>
      </trkpt>
      <trkpt lat="44.52335" lon="1.43714">
        <ele>254.6</ele>
        <time>2018-12-30T15:13:10Z</time>
      </trkpt>
      <trkpt lat="44.52337" lon="1.43727">
        <ele>252.7</ele>
        <time>2018-12-30T15:13:13Z</time>
      </trkpt>
      <trkpt lat="44.52331" lon="1.4372">
        <ele>251.2</ele>
        <time>2018-12-30T15:13:19Z</time>
      </trkpt>
      <trkpt lat="44.52327" lon="1.43713">
        <ele>250.6</ele>
        <time>2018-12-30T15:13:25Z</time>
      </trkpt>
      <trkpt lat="44.52322" lon="1.43708">
        <ele>250.2</ele>
        <time>2018-12-30T15:13:34Z</time>
      </trkpt>
      <trkpt lat="44.52313" lon="1.43707">
        <ele>249.4</ele>
        <time>2018-12-30T15:13:46Z</time>
      </trkpt>
      <trkpt lat="44.52311" lon="1.43697">
        <ele>249.4</ele>
        <time>2018-12-30T15:13:52Z</time>
      </trkpt>
      <trkpt lat="44.52309" lon="1.4369">
        <ele>249.5</ele>
        <time>2018-12-30T15:13:55Z</time>
      </trkpt>
      <trkpt lat="44.52302" lon="1.4368">
        <ele>249.9</ele>
        <time>2018-12-30T15:14:04Z</time>
      </trkpt>
      <trkpt lat="44.52296" lon="1.43677">
        <ele>250.4</ele>
        <time>2018-12-30T15:14:12Z</time>
      </trkpt>
      <trkpt lat="44.52291" lon="1.43674">
        <ele>250.4</ele>
        <time>2018-12-30T15:14:16Z</time>
      </trkpt>
      <trkpt lat="44.52286" lon="1.43671">
        <ele>250.6</ele>
        <time>2018-12-30T15:14:21Z</time>
      </trkpt>
      <trkpt lat="44.52281" lon="1.43664">
        <ele>250.4</ele>
        <time>2018-12-30T15:14:25Z</time>
      </trkpt>
      <trkpt lat="44.52283" lon="1.43655">
        <ele>249.9</ele>
        <time>2018-12-30T15:14:31Z</time>
      </trkpt>
      <trkpt lat="44.52278" lon="1.43648">
        <ele>248.9</ele>
        <time>2018-12-30T15:14:43Z</time>
      </trkpt>
      <trkpt lat="44.52272" lon="1.43647">
        <ele>248.5</ele>
        <time>2018-12-30T15:14:49Z</time>
      </trkpt>
      <trkpt lat="44.52269" lon="1.43643">
        <ele>248</ele>
        <time>2018-12-30T15:14:57Z</time>
      </trkpt>
      <trkpt lat="44.52263" lon="1.43643">
        <ele>248.1</ele>
        <time>2018-12-30T15:15:01Z</time>
      </trkpt>
      <trkpt lat="44.52259" lon="1.4364">
        <ele>248.3</ele>
        <time>2018-12-30T15:15:13Z</time>
      </trkpt>
      <trkpt lat="44.52253" lon="1.43641">
        <ele>248.4</ele>
        <time>2018-12-30T15:15:19Z</time>
      </trkpt>
      <trkpt lat="44.52247" lon="1.43636">
        <ele>249.2</ele>
        <time>2018-12-30T15:15:28Z</time>
      </trkpt>
      <trkpt lat="44.52245" lon="1.4363">
        <ele>249.8</ele>
        <time>2018-12-30T15:15:34Z</time>
      </trkpt>
      <trkpt lat="44.5224" lon="1.43627">
        <ele>249.7</ele>
        <time>2018-12-30T15:15:59Z</time>
      </trkpt>
      <trkpt lat="44.52231" lon="1.43623">
        <ele>248.2</ele>
        <time>2018-12-30T15:16:16Z</time>
      </trkpt>
      <trkpt lat="44.52218" lon="1.43625">
        <ele>246.3</ele>
        <time>2018-12-30T15:16:22Z</time>
      </trkpt>
      <trkpt lat="44.52214" lon="1.43618">
        <ele>243.6</ele>
        <time>2018-12-30T15:16:28Z</time>
      </trkpt>
      <trkpt lat="44.5221" lon="1.43613">
        <ele>240.4</ele>
        <time>2018-12-30T15:16:33Z</time>
      </trkpt>
      <trkpt lat="44.52206" lon="1.4361">
        <ele>237.2</ele>
        <time>2018-12-30T15:17:13Z</time>
      </trkpt>
      <trkpt lat="44.52199" lon="1.43606">
        <ele>236.3</ele>
        <time>2018-12-30T15:17:41Z</time>
      </trkpt>
      <trkpt lat="44.52187" lon="1.43594">
        <ele>236.5</ele>
        <time>2018-12-30T15:17:46Z</time>
      </trkpt>
      <trkpt lat="44.5218" lon="1.43586">
        <ele>234.9</ele>
        <time>2018-12-30T15:17:52Z</time>
      </trkpt>
      <trkpt lat="44.52169" lon="1.43581">
        <ele>232.6</ele>
        <time>2018-12-30T15:17:58Z</time>
      </trkpt>
      <trkpt lat="44.52169" lon="1.43572">
        <ele>230.6</ele>
        <time>2018-12-30T15:18:16Z</time>
      </trkpt>
      <trkpt lat="44.52165" lon="1.43567">
        <ele>227.8</ele>
        <time>2018-12-30T15:18:24Z</time>
      </trkpt>
      <trkpt lat="44.52159" lon="1.43568">
        <ele>223.4</ele>
        <time>2018-12-30T15:18:37Z</time>
      </trkpt>
      <trkpt lat="44.52155" lon="1.4357">
        <ele>221</ele>
        <time>2018-12-30T15:18:48Z</time>
      </trkpt>
      <trkpt lat="44.52152" lon="1.43564">
        <ele>219.4</ele>
        <time>2018-12-30T15:18:58Z</time>
      </trkpt>
      <trkpt lat="44.52149" lon="1.4357">
        <ele>217.1</ele>
        <time>2018-12-30T15:19:19Z</time>
      </trkpt>
      <trkpt lat="44.52144" lon="1.43571">
        <ele>214.3</ele>
        <time>2018-12-30T15:20:27Z</time>
      </trkpt>
      <trkpt lat="44.52142" lon="1.43578">
        <ele>212.6</ele>
        <time>2018-12-30T15:22:05Z</time>
      </trkpt>
      <trkpt lat="44.52141" lon="1.4359">
        <ele>212</ele>
        <time>2018-12-30T15:22:10Z</time>
      </trkpt>
      <trkpt lat="44.52138" lon="1.43597">
        <ele>211.5</ele>
        <time>2018-12-30T15:22:16Z</time>
      </trkpt>
      <trkpt lat="44.52136" lon="1.43604">
        <ele>211.7</ele>
        <time>2018-12-30T15:22:22Z</time>
      </trkpt>
      <trkpt lat="44.52131" lon="1.43607">
        <ele>212.5</ele>
        <time>2018-12-30T15:22:28Z</time>
      </trkpt>
      <trkpt lat="44.52134" lon="1.43614">
        <ele>213.3</ele>
        <time>2018-12-30T15:23:28Z</time>
      </trkpt>
      <trkpt lat="44.52134" lon="1.43623">
        <ele>213.4</ele>
        <time>2018-12-30T15:25:34Z</time>
      </trkpt>
      <trkpt lat="44.52137" lon="1.43635">
        <ele>213</ele>
        <time>2018-12-30T15:25:36Z</time>
      </trkpt>
      <trkpt lat="44.52138" lon="1.43642">
        <ele>212.9</ele>
        <time>2018-12-30T15:25:37Z</time>
      </trkpt>
      <trkpt lat="44.52138" lon="1.4365">
        <ele>212.2</ele>
        <time>2018-12-30T15:25:39Z</time>
      </trkpt>
      <trkpt lat="44.52137" lon="1.43658">
        <ele>211.5</ele>
        <time>2018-12-30T15:25:42Z</time>
      </trkpt>
      <trkpt lat="44.52136" lon="1.43664">
        <ele>211.1</ele>
        <time>2018-12-30T15:25:52Z</time>
      </trkpt>
      <trkpt lat="44.52135" lon="1.43671">
        <ele>211.2</ele>
        <time>2018-12-30T15:25:57Z</time>
      </trkpt>
      <trkpt lat="44.52133" lon="1.43677">
        <ele>211.7</ele>
        <time>2018-12-30T15:26:01Z</time>
      </trkpt>
      <trkpt lat="44.5213" lon="1.43682">
        <ele>212.4</ele>
        <time>2018-12-30T15:26:04Z</time>
      </trkpt>
      <trkpt lat="44.52126" lon="1.43686">
        <ele>212.9</ele>
        <time>2018-12-30T15:26:08Z</time>
      </trkpt>
      <trkpt lat="44.52122" lon="1.43689">
        <ele>213.1</ele>
        <time>2018-12-30T15:26:14Z</time>
      </trkpt>
      <trkpt lat="44.52119" lon="1.43695">
        <ele>213.1</ele>
        <time>2018-12-30T15:26:19Z</time>
      </trkpt>
      <trkpt lat="44.52115" lon="1.43701">
        <ele>212.8</ele>
        <time>2018-12-30T15:26:36Z</time>
      </trkpt>
      <trkpt lat="44.5211" lon="1.43706">
        <ele>213.5</ele>
        <time>2018-12-30T15:26:42Z</time>
      </trkpt>
      <trkpt lat="44.5211" lon="1.43713">
        <ele>214.7</ele>
        <time>2018-12-30T15:26:47Z</time>
      </trkpt>
      <trkpt lat="44.52091" lon="1.43726">
        <ele>216</ele>
        <time>2018-12-30T15:26:57Z</time>
      </trkpt>
      <trkpt lat="44.52096" lon="1.43729">
        <ele>218.2</ele>
        <time>2018-12-30T15:27:05Z</time>
      </trkpt>
      <trkpt lat="44.52091" lon="1.43734">
        <ele>220</ele>
        <time>2018-12-30T15:27:51Z</time>
      </trkpt>
      <trkpt lat="44.52093" lon="1.43743">
        <ele>221.2</ele>
        <time>2018-12-30T15:28:20Z</time>
      </trkpt>
      <trkpt lat="44.52086" lon="1.43752">
        <ele>222.6</ele>
        <time>2018-12-30T15:28:32Z</time>
      </trkpt>
      <trkpt lat="44.5208" lon="1.43753">
        <ele>224.9</ele>
        <time>2018-12-30T15:28:38Z</time>
      </trkpt>
      <trkpt lat="44.52076" lon="1.43758">
        <ele>226.5</ele>
        <time>2018-12-30T15:28:46Z</time>
      </trkpt>
      <trkpt lat="44.52068" lon="1.43759">
        <ele>229.6</ele>
        <time>2018-12-30T15:28:56Z</time>
      </trkpt>
      <trkpt lat="44.52073" lon="1.4376">
        <ele>232.4</ele>
        <time>2018-12-30T15:29:08Z</time>
      </trkpt>
      <trkpt lat="44.52063" lon="1.43754">
        <ele>233.6</ele>
        <time>2018-12-30T15:29:36Z</time>
      </trkpt>
      <trkpt lat="44.52052" lon="1.43758">
        <ele>233.8</ele>
        <time>2018-12-30T15:29:41Z</time>
      </trkpt>
      <trkpt lat="44.52044" lon="1.4376">
        <ele>234.7</ele>
        <time>2018-12-30T15:30:12Z</time>
      </trkpt>
      <trkpt lat="44.52034" lon="1.43759">
        <ele>235.2</ele>
        <time>2018-12-30T15:30:39Z</time>
      </trkpt>
      <trkpt lat="44.52021" lon="1.43753">
        <ele>235.5</ele>
        <time>2018-12-30T15:30:47Z</time>
      </trkpt>
      <trkpt lat="44.52007" lon="1.43755">
        <ele>236.6</ele>
        <time>2018-12-30T15:30:53Z</time>
      </trkpt>
      <trkpt lat="44.52002" lon="1.43759">
        <ele>236.9</ele>
        <time>2018-12-30T15:30:56Z</time>
      </trkpt>
      <trkpt lat="44.51997" lon="1.4376">
        <ele>236.1</ele>
        <time>2018-12-30T15:31:04Z</time>
      </trkpt>
      <trkpt lat="44.51993" lon="1.43756">
        <ele>234.5</ele>
        <time>2018-12-30T15:31:08Z</time>
      </trkpt>
      <trkpt lat="44.51992" lon="1.43763">
        <ele>234.1</ele>
        <time>2018-12-30T15:31:14Z</time>
      </trkpt>
      <trkpt lat="44.51988" lon="1.43761">
        <ele>234.5</ele>
        <time>2018-12-30T15:31:23Z</time>
      </trkpt>
      <trkpt lat="44.51981" lon="1.4376">
        <ele>236.6</ele>
        <time>2018-12-30T15:31:41Z</time>
      </trkpt>
      <trkpt lat="44.51973" lon="1.43759">
        <ele>240.1</ele>
        <time>2018-12-30T15:31:51Z</time>
      </trkpt>
      <trkpt lat="44.51961" lon="1.43762">
        <ele>244.5</ele>
        <time>2018-12-30T15:31:56Z</time>
      </trkpt>
      <trkpt lat="44.51956" lon="1.43763">
        <ele>248.7</ele>
        <time>2018-12-30T15:32:02Z</time>
      </trkpt>
      <trkpt lat="44.51948" lon="1.43764">
        <ele>251.7</ele>
        <time>2018-12-30T15:32:08Z</time>
      </trkpt>
      <trkpt lat="44.51941" lon="1.43763">
        <ele>253.4</ele>
        <time>2018-12-30T15:32:14Z</time>
      </trkpt>
      <trkpt lat="44.51935" lon="1.43763">
        <ele>254.8</ele>
        <time>2018-12-30T15:32:20Z</time>
      </trkpt>
      <trkpt lat="44.51932" lon="1.43773">
        <ele>256</ele>
        <time>2018-12-30T15:32:26Z</time>
      </trkpt>
      <trkpt lat="44.51933" lon="1.43784">
        <ele>257.7</ele>
        <time>2018-12-30T15:32:32Z</time>
      </trkpt>
      <trkpt lat="44.51925" lon="1.43785">
        <ele>258.2</ele>
        <time>2018-12-30T15:32:37Z</time>
      </trkpt>
      <trkpt lat="44.51918" lon="1.43792">
        <ele>259.4</ele>
        <time>2018-12-30T15:32:43Z</time>
      </trkpt>
      <trkpt lat="44.51911" lon="1.43787">
        <ele>259.6</ele>
        <time>2018-12-30T15:32:46Z</time>
      </trkpt>
      <trkpt lat="44.51905" lon="1.43786">
        <ele>259.8</ele>
        <time>2018-12-30T15:32:58Z</time>
      </trkpt>
      <trkpt lat="44.51905" lon="1.43794">
        <ele>258.3</ele>
        <time>2018-12-30T15:33:10Z</time>
      </trkpt>
      <trkpt lat="44.519" lon="1.43802">
        <ele>257.9</ele>
        <time>2018-12-30T15:33:16Z</time>
      </trkpt>
      <trkpt lat="44.51892" lon="1.43808">
        <ele>257</ele>
        <time>2018-12-30T15:33:28Z</time>
      </trkpt>
      <trkpt lat="44.51887" lon="1.43809">
        <ele>257.1</ele>
        <time>2018-12-30T15:33:34Z</time>
      </trkpt>
      <trkpt lat="44.51884" lon="1.43804">
        <ele>257</ele>
        <time>2018-12-30T15:33:42Z</time>
      </trkpt>
      <trkpt lat="44.5188" lon="1.4381">
        <ele>258.2</ele>
        <time>2018-12-30T15:33:46Z</time>
      </trkpt>
      <trkpt lat="44.51875" lon="1.43811">
        <ele>260.5</ele>
        <time>2018-12-30T15:33:52Z</time>
      </trkpt>
      <trkpt lat="44.51867" lon="1.43808">
        <ele>263.7</ele>
        <time>2018-12-30T15:33:58Z</time>
      </trkpt>
      <trkpt lat="44.51861" lon="1.43808">
        <ele>266.8</ele>
        <time>2018-12-30T15:34:01Z</time>
      </trkpt>
      <trkpt lat="44.51857" lon="1.43815">
        <ele>270</ele>
        <time>2018-12-30T15:34:07Z</time>
      </trkpt>
      <trkpt lat="44.51855" lon="1.43825">
        <ele>272.6</ele>
        <time>2018-12-30T15:34:13Z</time>
      </trkpt>
      <trkpt lat="44.51849" lon="1.43826">
        <ele>273.7</ele>
        <time>2018-12-30T15:34:18Z</time>
      </trkpt>
      <trkpt lat="44.51848" lon="1.43834">
        <ele>274.3</ele>
        <time>2018-12-30T15:34:22Z</time>
      </trkpt>
      <trkpt lat="44.51842" lon="1.43831">
        <ele>274.6</ele>
        <time>2018-12-30T15:34:25Z</time>
      </trkpt>
      <trkpt lat="44.51838" lon="1.43826">
        <ele>274.3</ele>
        <time>2018-12-30T15:34:31Z</time>
      </trkpt>
      <trkpt lat="44.51831" lon="1.43834">
        <ele>274</ele>
        <time>2018-12-30T15:34:40Z</time>
      </trkpt>
      <trkpt lat="44.51829" lon="1.43841">
        <ele>274.3</ele>
        <time>2018-12-30T15:34:43Z</time>
      </trkpt>
      <trkpt lat="44.51828" lon="1.43848">
        <ele>275</ele>
        <time>2018-12-30T15:34:50Z</time>
      </trkpt>
      <trkpt lat="44.51827" lon="1.43861">
        <ele>276.1</ele>
        <time>2018-12-30T15:34:55Z</time>
      </trkpt>
      <trkpt lat="44.51822" lon="1.43862">
        <ele>275.6</ele>
        <time>2018-12-30T15:35:01Z</time>
      </trkpt>
      <trkpt lat="44.51815" lon="1.43865">
        <ele>274.8</ele>
        <time>2018-12-30T15:35:07Z</time>
      </trkpt>
      <trkpt lat="44.51808" lon="1.43872">
        <ele>272</ele>
        <time>2018-12-30T15:35:13Z</time>
      </trkpt>
      <trkpt lat="44.51804" lon="1.43874">
        <ele>268.8</ele>
        <time>2018-12-30T15:35:24Z</time>
      </trkpt>
      <trkpt lat="44.51797" lon="1.43881">
        <ele>265.6</ele>
        <time>2018-12-30T15:35:34Z</time>
      </trkpt>
      <trkpt lat="44.5179" lon="1.43888">
        <ele>264.7</ele>
        <time>2018-12-30T15:35:40Z</time>
      </trkpt>
      <trkpt lat="44.5179" lon="1.43895">
        <ele>264.8</ele>
        <time>2018-12-30T15:35:54Z</time>
      </trkpt>
      <trkpt lat="44.51786" lon="1.43898">
        <ele>267.2</ele>
        <time>2018-12-30T15:35:58Z</time>
      </trkpt>
      <trkpt lat="44.51781" lon="1.43907">
        <ele>269.5</ele>
        <time>2018-12-30T15:36:04Z</time>
      </trkpt>
      <trkpt lat="44.51773" lon="1.43913">
        <ele>270.7</ele>
        <time>2018-12-30T15:36:10Z</time>
      </trkpt>
      <trkpt lat="44.51768" lon="1.43915">
        <ele>272.5</ele>
        <time>2018-12-30T15:36:24Z</time>
      </trkpt>
      <trkpt lat="44.51761" lon="1.43914">
        <ele>273.3</ele>
        <time>2018-12-30T15:36:31Z</time>
      </trkpt>
      <trkpt lat="44.51756" lon="1.43918">
        <ele>273.8</ele>
        <time>2018-12-30T15:36:37Z</time>
      </trkpt>
      <trkpt lat="44.51758" lon="1.4393">
        <ele>274.7</ele>
        <time>2018-12-30T15:36:43Z</time>
      </trkpt>
      <trkpt lat="44.51754" lon="1.43933">
        <ele>276.2</ele>
        <time>2018-12-30T15:36:54Z</time>
      </trkpt>
      <trkpt lat="44.51758" lon="1.43943">
        <ele>276.1</ele>
        <time>2018-12-30T15:36:58Z</time>
      </trkpt>
      <trkpt lat="44.51754" lon="1.4394">
        <ele>276.7</ele>
        <time>2018-12-30T15:38:21Z</time>
      </trkpt>
      <trkpt lat="44.51748" lon="1.43936">
        <ele>277.8</ele>
        <time>2018-12-30T15:39:50Z</time>
      </trkpt>
      <trkpt lat="44.51743" lon="1.4394">
        <ele>279.4</ele>
        <time>2018-12-30T15:40:00Z</time>
      </trkpt>
      <trkpt lat="44.51736" lon="1.43944">
        <ele>280.3</ele>
        <time>2018-12-30T15:40:07Z</time>
      </trkpt>
      <trkpt lat="44.5173" lon="1.43951">
        <ele>281.8</ele>
        <time>2018-12-30T15:40:13Z</time>
      </trkpt>
      <trkpt lat="44.51725" lon="1.4395">
        <ele>282.9</ele>
        <time>2018-12-30T15:40:18Z</time>
      </trkpt>
      <trkpt lat="44.5172" lon="1.43947">
        <ele>282.4</ele>
        <time>2018-12-30T15:40:24Z</time>
      </trkpt>
      <trkpt lat="44.5171" lon="1.43955">
        <ele>280.6</ele>
        <time>2018-12-30T15:40:34Z</time>
      </trkpt>
      <trkpt lat="44.51709" lon="1.43962">
        <ele>279.5</ele>
        <time>2018-12-30T15:40:40Z</time>
      </trkpt>
      <trkpt lat="44.5171" lon="1.4397">
        <ele>278.3</ele>
        <time>2018-12-30T15:40:46Z</time>
      </trkpt>
      <trkpt lat="44.51713" lon="1.43966">
        <ele>276.5</ele>
        <time>2018-12-30T15:40:52Z</time>
      </trkpt>
      <trkpt lat="44.51709" lon="1.43969">
        <ele>275.3</ele>
        <time>2018-12-30T15:41:09Z</time>
      </trkpt>
      <trkpt lat="44.51704" lon="1.43971">
        <ele>274.8</ele>
        <time>2018-12-30T15:41:26Z</time>
      </trkpt>
      <trkpt lat="44.51698" lon="1.43975">
        <ele>274.8</ele>
        <time>2018-12-30T15:41:35Z</time>
      </trkpt>
      <trkpt lat="44.5169" lon="1.43986">
        <ele>275.7</ele>
        <time>2018-12-30T15:41:40Z</time>
      </trkpt>
      <trkpt lat="44.51684" lon="1.43997">
        <ele>276.8</ele>
        <time>2018-12-30T15:41:46Z</time>
      </trkpt>
      <trkpt lat="44.51679" lon="1.43994">
        <ele>278.9</ele>
        <time>2018-12-30T15:41:49Z</time>
      </trkpt>
      <trkpt lat="44.51674" lon="1.44001">
        <ele>280.5</ele>
        <time>2018-12-30T15:41:55Z</time>
      </trkpt>
      <trkpt lat="44.51672" lon="1.44008">
        <ele>281.5</ele>
        <time>2018-12-30T15:42:11Z</time>
      </trkpt>
      <trkpt lat="44.51664" lon="1.4401">
        <ele>282.2</ele>
        <time>2018-12-30T15:42:21Z</time>
      </trkpt>
      <trkpt lat="44.5166" lon="1.44006">
        <ele>283.1</ele>
        <time>2018-12-30T15:42:25Z</time>
      </trkpt>
      <trkpt lat="44.51655" lon="1.44016">
        <ele>283.9</ele>
        <time>2018-12-30T15:42:42Z</time>
      </trkpt>
      <trkpt lat="44.51649" lon="1.44021">
        <ele>284.6</ele>
        <time>2018-12-30T15:42:47Z</time>
      </trkpt>
      <trkpt lat="44.51641" lon="1.44022">
        <ele>284.8</ele>
        <time>2018-12-30T15:42:53Z</time>
      </trkpt>
      <trkpt lat="44.51637" lon="1.44039">
        <ele>284.2</ele>
        <time>2018-12-30T15:43:05Z</time>
      </trkpt>
      <trkpt lat="44.51632" lon="1.44044">
        <ele>283</ele>
        <time>2018-12-30T15:43:11Z</time>
      </trkpt>
      <trkpt lat="44.51624" lon="1.4405">
        <ele>282.3</ele>
        <time>2018-12-30T15:43:17Z</time>
      </trkpt>
      <trkpt lat="44.51616" lon="1.44049">
        <ele>282.5</ele>
        <time>2018-12-30T15:43:23Z</time>
      </trkpt>
      <trkpt lat="44.51613" lon="1.44057">
        <ele>284.1</ele>
        <time>2018-12-30T15:43:29Z</time>
      </trkpt>
      <trkpt lat="44.5161" lon="1.44066">
        <ele>285.9</ele>
        <time>2018-12-30T15:43:35Z</time>
      </trkpt>
      <trkpt lat="44.51603" lon="1.4407">
        <ele>288.9</ele>
        <time>2018-12-30T15:43:41Z</time>
      </trkpt>
      <trkpt lat="44.51601" lon="1.44079">
        <ele>291.8</ele>
        <time>2018-12-30T15:43:47Z</time>
      </trkpt>
      <trkpt lat="44.51591" lon="1.44081">
        <ele>293.9</ele>
        <time>2018-12-30T15:43:59Z</time>
      </trkpt>
      <trkpt lat="44.5159" lon="1.4409">
        <ele>294.8</ele>
        <time>2018-12-30T15:44:05Z</time>
      </trkpt>
      <trkpt lat="44.51583" lon="1.44098">
        <ele>295.2</ele>
        <time>2018-12-30T15:44:11Z</time>
      </trkpt>
      <trkpt lat="44.51575" lon="1.44103">
        <ele>295.3</ele>
        <time>2018-12-30T15:44:17Z</time>
      </trkpt>
      <trkpt lat="44.5157" lon="1.44107">
        <ele>295.5</ele>
        <time>2018-12-30T15:44:26Z</time>
      </trkpt>
      <trkpt lat="44.51572" lon="1.44114">
        <ele>295.6</ele>
        <time>2018-12-30T15:44:32Z</time>
      </trkpt>
      <trkpt lat="44.51566" lon="1.44119">
        <ele>295.7</ele>
        <time>2018-12-30T15:44:38Z</time>
      </trkpt>
      <trkpt lat="44.51556" lon="1.44121">
        <ele>295.6</ele>
        <time>2018-12-30T15:44:44Z</time>
      </trkpt>
      <trkpt lat="44.51551" lon="1.44128">
        <ele>294.9</ele>
        <time>2018-12-30T15:44:50Z</time>
      </trkpt>
      <trkpt lat="44.51548" lon="1.44136">
        <ele>293.1</ele>
        <time>2018-12-30T15:44:56Z</time>
      </trkpt>
      <trkpt lat="44.51544" lon="1.44143">
        <ele>292.5</ele>
        <time>2018-12-30T15:45:02Z</time>
      </trkpt>
      <trkpt lat="44.51539" lon="1.4414">
        <ele>292.4</ele>
        <time>2018-12-30T15:45:10Z</time>
      </trkpt>
      <trkpt lat="44.51534" lon="1.44146">
        <ele>292.5</ele>
        <time>2018-12-30T15:45:14Z</time>
      </trkpt>
      <trkpt lat="44.51528" lon="1.44148">
        <ele>293.9</ele>
        <time>2018-12-30T15:45:20Z</time>
      </trkpt>
      <trkpt lat="44.51522" lon="1.44157">
        <ele>296.7</ele>
        <time>2018-12-30T15:45:29Z</time>
      </trkpt>
      <trkpt lat="44.51517" lon="1.44163">
        <ele>298.8</ele>
        <time>2018-12-30T15:45:35Z</time>
      </trkpt>
      <trkpt lat="44.51513" lon="1.44166">
        <ele>300.6</ele>
        <time>2018-12-30T15:45:41Z</time>
      </trkpt>
      <trkpt lat="44.51506" lon="1.44168">
        <ele>302.7</ele>
        <time>2018-12-30T15:45:53Z</time>
      </trkpt>
      <trkpt lat="44.51499" lon="1.4417">
        <ele>303.5</ele>
        <time>2018-12-30T15:45:59Z</time>
      </trkpt>
      <trkpt lat="44.51495" lon="1.44166">
        <ele>303</ele>
        <time>2018-12-30T15:46:05Z</time>
      </trkpt>
      <trkpt lat="44.51493" lon="1.44173">
        <ele>302.3</ele>
        <time>2018-12-30T15:46:11Z</time>
      </trkpt>
      <trkpt lat="44.51487" lon="1.44173">
        <ele>301.7</ele>
        <time>2018-12-30T15:46:23Z</time>
      </trkpt>
      <trkpt lat="44.51481" lon="1.44178">
        <ele>301.3</ele>
        <time>2018-12-30T15:46:29Z</time>
      </trkpt>
      <trkpt lat="44.51475" lon="1.44174">
        <ele>301.2</ele>
        <time>2018-12-30T15:46:35Z</time>
      </trkpt>
      <trkpt lat="44.51469" lon="1.44174">
        <ele>301.3</ele>
        <time>2018-12-30T15:46:40Z</time>
      </trkpt>
      <trkpt lat="44.51469" lon="1.44181">
        <ele>301.4</ele>
        <time>2018-12-30T15:46:46Z</time>
      </trkpt>
      <trkpt lat="44.51461" lon="1.44183">
        <ele>302.2</ele>
        <time>2018-12-30T15:46:50Z</time>
      </trkpt>
      <trkpt lat="44.51458" lon="1.44189">
        <ele>303.7</ele>
        <time>2018-12-30T15:46:56Z</time>
      </trkpt>
      <trkpt lat="44.51455" lon="1.44199">
        <ele>305.6</ele>
        <time>2018-12-30T15:47:02Z</time>
      </trkpt>
      <trkpt lat="44.51451" lon="1.44204">
        <ele>306.9</ele>
        <time>2018-12-30T15:47:07Z</time>
      </trkpt>
      <trkpt lat="44.51446" lon="1.44211">
        <ele>308.3</ele>
        <time>2018-12-30T15:47:11Z</time>
      </trkpt>
      <trkpt lat="44.5144" lon="1.44216">
        <ele>308.7</ele>
        <time>2018-12-30T15:47:17Z</time>
      </trkpt>
      <trkpt lat="44.51435" lon="1.44219">
        <ele>307.3</ele>
        <time>2018-12-30T15:47:22Z</time>
      </trkpt>
      <trkpt lat="44.51436" lon="1.44226">
        <ele>305.4</ele>
        <time>2018-12-30T15:47:27Z</time>
      </trkpt>
      <trkpt lat="44.51434" lon="1.44237">
        <ele>303.7</ele>
        <time>2018-12-30T15:47:36Z</time>
      </trkpt>
      <trkpt lat="44.51433" lon="1.44244">
        <ele>301.8</ele>
        <time>2018-12-30T15:47:41Z</time>
      </trkpt>
      <trkpt lat="44.51436" lon="1.4425">
        <ele>300.3</ele>
        <time>2018-12-30T15:47:53Z</time>
      </trkpt>
      <trkpt lat="44.51431" lon="1.44256">
        <ele>300.2</ele>
        <time>2018-12-30T15:47:59Z</time>
      </trkpt>
      <trkpt lat="44.51425" lon="1.44262">
        <ele>300.4</ele>
        <time>2018-12-30T15:48:05Z</time>
      </trkpt>
      <trkpt lat="44.51421" lon="1.44267">
        <ele>300.9</ele>
        <time>2018-12-30T15:48:11Z</time>
      </trkpt>
      <trkpt lat="44.51416" lon="1.44271">
        <ele>301.1</ele>
        <time>2018-12-30T15:48:16Z</time>
      </trkpt>
      <trkpt lat="44.51412" lon="1.44275">
        <ele>301.3</ele>
        <time>2018-12-30T15:48:20Z</time>
      </trkpt>
      <trkpt lat="44.51404" lon="1.44278">
        <ele>301.9</ele>
        <time>2018-12-30T15:48:26Z</time>
      </trkpt>
      <trkpt lat="44.51399" lon="1.44279">
        <ele>302.3</ele>
        <time>2018-12-30T15:48:31Z</time>
      </trkpt>
      <trkpt lat="44.51401" lon="1.44287">
        <ele>302.8</ele>
        <time>2018-12-30T15:48:35Z</time>
      </trkpt>
      <trkpt lat="44.51396" lon="1.44285">
        <ele>303.3</ele>
        <time>2018-12-30T15:48:41Z</time>
      </trkpt>
      <trkpt lat="44.51391" lon="1.44282">
        <ele>302.5</ele>
        <time>2018-12-30T15:48:47Z</time>
      </trkpt>
      <trkpt lat="44.51385" lon="1.44279">
        <ele>301.4</ele>
        <time>2018-12-30T15:48:53Z</time>
      </trkpt>
      <trkpt lat="44.51381" lon="1.44279">
        <ele>300.4</ele>
        <time>2018-12-30T15:48:59Z</time>
      </trkpt>
      <trkpt lat="44.51377" lon="1.44275">
        <ele>300</ele>
        <time>2018-12-30T15:49:07Z</time>
      </trkpt>
      <trkpt lat="44.51375" lon="1.44268">
        <ele>300.9</ele>
        <time>2018-12-30T15:49:16Z</time>
      </trkpt>
      <trkpt lat="44.51364" lon="1.44266">
        <ele>303.2</ele>
        <time>2018-12-30T15:49:20Z</time>
      </trkpt>
      <trkpt lat="44.51355" lon="1.44265">
        <ele>305.5</ele>
        <time>2018-12-30T15:49:26Z</time>
      </trkpt>
      <trkpt lat="44.51355" lon="1.44272">
        <ele>308</ele>
        <time>2018-12-30T15:49:31Z</time>
      </trkpt>
      <trkpt lat="44.51351" lon="1.44267">
        <ele>309.9</ele>
        <time>2018-12-30T15:49:35Z</time>
      </trkpt>
      <trkpt lat="44.51345" lon="1.44263">
        <ele>311.2</ele>
        <time>2018-12-30T15:49:41Z</time>
      </trkpt>
      <trkpt lat="44.51339" lon="1.44264">
        <ele>312.4</ele>
        <time>2018-12-30T15:49:47Z</time>
      </trkpt>
      <trkpt lat="44.51333" lon="1.4426">
        <ele>313.7</ele>
        <time>2018-12-30T15:49:53Z</time>
      </trkpt>
      <trkpt lat="44.51326" lon="1.44255">
        <ele>314.3</ele>
        <time>2018-12-30T15:49:59Z</time>
      </trkpt>
      <trkpt lat="44.51325" lon="1.44247">
        <ele>314.4</ele>
        <time>2018-12-30T15:50:09Z</time>
      </trkpt>
      <trkpt lat="44.51316" lon="1.44242">
        <ele>313.8</ele>
        <time>2018-12-30T15:50:14Z</time>
      </trkpt>
      <trkpt lat="44.51311" lon="1.4424">
        <ele>312.1</ele>
        <time>2018-12-30T15:50:20Z</time>
      </trkpt>
      <trkpt lat="44.51304" lon="1.44237">
        <ele>310.2</ele>
        <time>2018-12-30T15:50:53Z</time>
      </trkpt>
      <trkpt lat="44.51295" lon="1.44237">
        <ele>309</ele>
        <time>2018-12-30T15:50:59Z</time>
      </trkpt>
      <trkpt lat="44.51288" lon="1.44233">
        <ele>307.5</ele>
        <time>2018-12-30T15:51:02Z</time>
      </trkpt>
      <trkpt lat="44.51283" lon="1.44228">
        <ele>306</ele>
        <time>2018-12-30T15:51:08Z</time>
      </trkpt>
      <trkpt lat="44.51277" lon="1.44228">
        <ele>305</ele>
        <time>2018-12-30T15:51:11Z</time>
      </trkpt>
      <trkpt lat="44.51264" lon="1.44231">
        <ele>304</ele>
        <time>2018-12-30T15:51:17Z</time>
      </trkpt>
      <trkpt lat="44.51262" lon="1.44243">
        <ele>303.1</ele>
        <time>2018-12-30T15:51:23Z</time>
      </trkpt>
      <trkpt lat="44.51254" lon="1.44245">
        <ele>303.4</ele>
        <time>2018-12-30T15:51:29Z</time>
      </trkpt>
      <trkpt lat="44.51245" lon="1.44242">
        <ele>304.7</ele>
        <time>2018-12-30T15:51:35Z</time>
      </trkpt>
      <trkpt lat="44.5124" lon="1.44236">
        <ele>306.5</ele>
        <time>2018-12-30T15:51:38Z</time>
      </trkpt>
      <trkpt lat="44.51234" lon="1.44228">
        <ele>307.9</ele>
        <time>2018-12-30T15:51:44Z</time>
      </trkpt>
      <trkpt lat="44.51228" lon="1.44218">
        <ele>309</ele>
        <time>2018-12-30T15:51:50Z</time>
      </trkpt>
      <trkpt lat="44.51223" lon="1.4422">
        <ele>309.8</ele>
        <time>2018-12-30T15:51:56Z</time>
      </trkpt>
      <trkpt lat="44.51217" lon="1.44222">
        <ele>310.5</ele>
        <time>2018-12-30T15:52:02Z</time>
      </trkpt>
      <trkpt lat="44.51209" lon="1.4422">
        <ele>311.3</ele>
        <time>2018-12-30T15:52:08Z</time>
      </trkpt>
      <trkpt lat="44.51204" lon="1.44221">
        <ele>311.8</ele>
        <time>2018-12-30T15:52:11Z</time>
      </trkpt>
      <trkpt lat="44.51196" lon="1.44223">
        <ele>311.5</ele>
        <time>2018-12-30T15:52:17Z</time>
      </trkpt>
      <trkpt lat="44.51191" lon="1.4422">
        <ele>310.8</ele>
        <time>2018-12-30T15:52:20Z</time>
      </trkpt>
      <trkpt lat="44.51185" lon="1.44221">
        <ele>309.9</ele>
        <time>2018-12-30T15:52:26Z</time>
      </trkpt>
      <trkpt lat="44.5119" lon="1.4423">
        <ele>308.8</ele>
        <time>2018-12-30T15:52:32Z</time>
      </trkpt>
      <trkpt lat="44.51187" lon="1.44235">
        <ele>308.8</ele>
        <time>2018-12-30T15:52:37Z</time>
      </trkpt>
      <trkpt lat="44.51181" lon="1.44231">
        <ele>309</ele>
        <time>2018-12-30T15:52:41Z</time>
      </trkpt>
      <trkpt lat="44.51169" lon="1.44229">
        <ele>309.4</ele>
        <time>2018-12-30T15:52:47Z</time>
      </trkpt>
      <trkpt lat="44.5116" lon="1.44228">
        <ele>309.6</ele>
        <time>2018-12-30T15:52:53Z</time>
      </trkpt>
      <trkpt lat="44.51154" lon="1.44222">
        <ele>310.1</ele>
        <time>2018-12-30T15:52:59Z</time>
      </trkpt>
      <trkpt lat="44.5115" lon="1.44216">
        <ele>309.7</ele>
        <time>2018-12-30T15:53:07Z</time>
      </trkpt>
      <trkpt lat="44.5115" lon="1.44206">
        <ele>309.6</ele>
        <time>2018-12-30T15:53:13Z</time>
      </trkpt>
      <trkpt lat="44.5115" lon="1.442">
        <ele>309.9</ele>
        <time>2018-12-30T15:53:17Z</time>
      </trkpt>
      <trkpt lat="44.51145" lon="1.44198">
        <ele>310.5</ele>
        <time>2018-12-30T15:53:26Z</time>
      </trkpt>
      <trkpt lat="44.51141" lon="1.44195">
        <ele>310.4</ele>
        <time>2018-12-30T15:53:35Z</time>
      </trkpt>
      <trkpt lat="44.51137" lon="1.44184">
        <ele>310.9</ele>
        <time>2018-12-30T15:53:41Z</time>
      </trkpt>
      <trkpt lat="44.51136" lon="1.44173">
        <ele>310.6</ele>
        <time>2018-12-30T15:53:47Z</time>
      </trkpt>
      <trkpt lat="44.51134" lon="1.44165">
        <ele>309.4</ele>
        <time>2018-12-30T15:53:52Z</time>
      </trkpt>
      <trkpt lat="44.5113" lon="1.4415">
        <ele>308</ele>
        <time>2018-12-30T15:53:56Z</time>
      </trkpt>
      <trkpt lat="44.51128" lon="1.4414">
        <ele>306.9</ele>
        <time>2018-12-30T15:54:01Z</time>
      </trkpt>
      <trkpt lat="44.51124" lon="1.44129">
        <ele>306.6</ele>
        <time>2018-12-30T15:54:06Z</time>
      </trkpt>
      <trkpt lat="44.5112" lon="1.44126">
        <ele>308.4</ele>
        <time>2018-12-30T15:54:13Z</time>
      </trkpt>
      <trkpt lat="44.51119" lon="1.44119">
        <ele>310.9</ele>
        <time>2018-12-30T15:54:17Z</time>
      </trkpt>
      <trkpt lat="44.51119" lon="1.44112">
        <ele>312.9</ele>
        <time>2018-12-30T15:54:22Z</time>
      </trkpt>
      <trkpt lat="44.51122" lon="1.44106">
        <ele>314.2</ele>
        <time>2018-12-30T15:54:28Z</time>
      </trkpt>
      <trkpt lat="44.51121" lon="1.44095">
        <ele>314.7</ele>
        <time>2018-12-30T15:54:38Z</time>
      </trkpt>
      <trkpt lat="44.51123" lon="1.44081">
        <ele>314.3</ele>
        <time>2018-12-30T15:54:44Z</time>
      </trkpt>
      <trkpt lat="44.5112" lon="1.4407">
        <ele>312.6</ele>
        <time>2018-12-30T15:54:50Z</time>
      </trkpt>
      <trkpt lat="44.51121" lon="1.44062">
        <ele>310.8</ele>
        <time>2018-12-30T15:54:56Z</time>
      </trkpt>
      <trkpt lat="44.51123" lon="1.44055">
        <ele>309.3</ele>
        <time>2018-12-30T15:55:02Z</time>
      </trkpt>
      <trkpt lat="44.51122" lon="1.44044">
        <ele>308.2</ele>
        <time>2018-12-30T15:55:08Z</time>
      </trkpt>
      <trkpt lat="44.5112" lon="1.44036">
        <ele>306.7</ele>
        <time>2018-12-30T15:55:16Z</time>
      </trkpt>
      <trkpt lat="44.51124" lon="1.4403">
        <ele>306.2</ele>
        <time>2018-12-30T15:55:23Z</time>
      </trkpt>
      <trkpt lat="44.51127" lon="1.44024">
        <ele>306.3</ele>
        <time>2018-12-30T15:55:28Z</time>
      </trkpt>
      <trkpt lat="44.51126" lon="1.44017">
        <ele>306.6</ele>
        <time>2018-12-30T15:55:32Z</time>
      </trkpt>
      <trkpt lat="44.51127" lon="1.44006">
        <ele>306.9</ele>
        <time>2018-12-30T15:55:41Z</time>
      </trkpt>
      <trkpt lat="44.51125" lon="1.43996">
        <ele>307</ele>
        <time>2018-12-30T15:55:44Z</time>
      </trkpt>
      <trkpt lat="44.51123" lon="1.43989">
        <ele>306.7</ele>
        <time>2018-12-30T15:55:50Z</time>
      </trkpt>
      <trkpt lat="44.5112" lon="1.43977">
        <ele>306.4</ele>
        <time>2018-12-30T15:55:56Z</time>
      </trkpt>
      <trkpt lat="44.5112" lon="1.43963">
        <ele>305.4</ele>
        <time>2018-12-30T15:56:02Z</time>
      </trkpt>
      <trkpt lat="44.51122" lon="1.4395">
        <ele>303.9</ele>
        <time>2018-12-30T15:56:08Z</time>
      </trkpt>
      <trkpt lat="44.5112" lon="1.43944">
        <ele>303.1</ele>
        <time>2018-12-30T15:56:16Z</time>
      </trkpt>
      <trkpt lat="44.51112" lon="1.43944">
        <ele>303</ele>
        <time>2018-12-30T15:56:20Z</time>
      </trkpt>
      <trkpt lat="44.51108" lon="1.43933">
        <ele>303.2</ele>
        <time>2018-12-30T15:56:26Z</time>
      </trkpt>
      <trkpt lat="44.51104" lon="1.43927">
        <ele>304.1</ele>
        <time>2018-12-30T15:56:34Z</time>
      </trkpt>
      <trkpt lat="44.51098" lon="1.43919">
        <ele>305</ele>
        <time>2018-12-30T15:56:38Z</time>
      </trkpt>
      <trkpt lat="44.51089" lon="1.43915">
        <ele>304.8</ele>
        <time>2018-12-30T15:56:50Z</time>
      </trkpt>
      <trkpt lat="44.51083" lon="1.43908">
        <ele>304.4</ele>
        <time>2018-12-30T15:56:53Z</time>
      </trkpt>
      <trkpt lat="44.5108" lon="1.43899">
        <ele>303.7</ele>
        <time>2018-12-30T15:56:59Z</time>
      </trkpt>
      <trkpt lat="44.51075" lon="1.43894">
        <ele>303.5</ele>
        <time>2018-12-30T15:57:05Z</time>
      </trkpt>
      <trkpt lat="44.51071" lon="1.43889">
        <ele>303.9</ele>
        <time>2018-12-30T15:57:11Z</time>
      </trkpt>
      <trkpt lat="44.51066" lon="1.43884">
        <ele>304.4</ele>
        <time>2018-12-30T15:57:17Z</time>
      </trkpt>
      <trkpt lat="44.51064" lon="1.43874">
        <ele>305.8</ele>
        <time>2018-12-30T15:57:23Z</time>
      </trkpt>
      <trkpt lat="44.51061" lon="1.43866">
        <ele>307.1</ele>
        <time>2018-12-30T15:57:28Z</time>
      </trkpt>
      <trkpt lat="44.51056" lon="1.43862">
        <ele>308.4</ele>
        <time>2018-12-30T15:57:32Z</time>
      </trkpt>
      <trkpt lat="44.51051" lon="1.43857">
        <ele>309.1</ele>
        <time>2018-12-30T15:57:37Z</time>
      </trkpt>
      <trkpt lat="44.51053" lon="1.43849">
        <ele>309.1</ele>
        <time>2018-12-30T15:57:47Z</time>
      </trkpt>
      <trkpt lat="44.51049" lon="1.43845">
        <ele>307.5</ele>
        <time>2018-12-30T15:57:53Z</time>
      </trkpt>
      <trkpt lat="44.51047" lon="1.43838">
        <ele>305.9</ele>
        <time>2018-12-30T15:57:58Z</time>
      </trkpt>
      <trkpt lat="44.51035" lon="1.43838">
        <ele>303.4</ele>
        <time>2018-12-30T15:58:02Z</time>
      </trkpt>
      <trkpt lat="44.51031" lon="1.43832">
        <ele>301.3</ele>
        <time>2018-12-30T15:58:11Z</time>
      </trkpt>
      <trkpt lat="44.51022" lon="1.43831">
        <ele>300.1</ele>
        <time>2018-12-30T15:58:30Z</time>
      </trkpt>
      <trkpt lat="44.51018" lon="1.43831">
        <ele>299.9</ele>
        <time>2018-12-30T15:58:32Z</time>
      </trkpt>
      <trkpt lat="44.51013" lon="1.43825">
        <ele>300</ele>
        <time>2018-12-30T15:58:35Z</time>
      </trkpt>
      <trkpt lat="44.51001" lon="1.43808">
        <ele>300.4</ele>
        <time>2018-12-30T15:58:41Z</time>
      </trkpt>
      <trkpt lat="44.50995" lon="1.43802">
        <ele>300.6</ele>
        <time>2018-12-30T15:58:47Z</time>
      </trkpt>
      <trkpt lat="44.5099" lon="1.438">
        <ele>300.8</ele>
        <time>2018-12-30T15:58:53Z</time>
      </trkpt>
      <trkpt lat="44.50982" lon="1.43801">
        <ele>301.7</ele>
        <time>2018-12-30T15:58:59Z</time>
      </trkpt>
      <trkpt lat="44.50975" lon="1.438">
        <ele>302.9</ele>
        <time>2018-12-30T15:59:04Z</time>
      </trkpt>
      <trkpt lat="44.50968" lon="1.43799">
        <ele>304.7</ele>
        <time>2018-12-30T15:59:10Z</time>
      </trkpt>
      <trkpt lat="44.50961" lon="1.43799">
        <ele>306.4</ele>
        <time>2018-12-30T15:59:14Z</time>
      </trkpt>
      <trkpt lat="44.50952" lon="1.43789">
        <ele>308.9</ele>
        <time>2018-12-30T15:59:23Z</time>
      </trkpt>
      <trkpt lat="44.50943" lon="1.4379">
        <ele>310.6</ele>
        <time>2018-12-30T15:59:29Z</time>
      </trkpt>
      <trkpt lat="44.50937" lon="1.43791">
        <ele>311</ele>
        <time>2018-12-30T15:59:35Z</time>
      </trkpt>
      <trkpt lat="44.50929" lon="1.43781">
        <ele>310.3</ele>
        <time>2018-12-30T15:59:38Z</time>
      </trkpt>
      <trkpt lat="44.50926" lon="1.43777">
        <ele>310</ele>
        <time>2018-12-30T15:59:47Z</time>
      </trkpt>
      <trkpt lat="44.50915" lon="1.43772">
        <ele>309.3</ele>
        <time>2018-12-30T15:59:53Z</time>
      </trkpt>
      <trkpt lat="44.50911" lon="1.43776">
        <ele>309.4</ele>
        <time>2018-12-30T15:59:59Z</time>
      </trkpt>
      <trkpt lat="44.50906" lon="1.4378">
        <ele>310.1</ele>
        <time>2018-12-30T16:00:05Z</time>
      </trkpt>
      <trkpt lat="44.50902" lon="1.43778">
        <ele>309</ele>
        <time>2018-12-30T16:00:11Z</time>
      </trkpt>
      <trkpt lat="44.50897" lon="1.43781">
        <ele>309.2</ele>
        <time>2018-12-30T16:00:16Z</time>
      </trkpt>
      <trkpt lat="44.50889" lon="1.43775">
        <ele>313</ele>
        <time>2018-12-30T16:00:23Z</time>
      </trkpt>
      <trkpt lat="44.50886" lon="1.43785">
        <ele>312.9</ele>
        <time>2018-12-30T16:00:29Z</time>
      </trkpt>
    </trkseg>
  </trk>
</gpx>